<?xml version='1.0' encoding='UTF-8'?><gpx version="1.1" creator="JPX - https://github.com/jenetics/jpx" xmlns="http://www.topografix.com/GPX/1/1"><trk><trkseg><trkpt lat="45.54453" lon="10.22828"><ele>162.83333333333334</ele><time>2026-04-23T12:18:27.478Z</time></trkpt><trkpt lat="45.5445617" lon="10.2283867"><ele>162.66666666666669</ele><time>2026-04-23T12:18:29.477Z</time></trkpt><trkpt lat="45.5446167" lon="10.2284367"><ele>162.5</ele><time>2026-04-23T12:18:33.477Z</time></trkpt><trkpt lat="45.544685" lon="10.2285117"><ele>162.33333333333334</ele><time>2026-04-23T12:19:21.478Z</time></trkpt><trkpt lat="45.544775" lon="10.228565"><ele>162.16666666666666</ele><time>2026-04-23T12:19:23.478Z</time></trkpt><trkpt lat="45.5448533" lon="10.22866"><ele>162.0</ele><time>2026-04-23T12:19:25.478Z</time></trkpt><trkpt lat="45.54493" lon="10.2287283"><ele>162.0</ele><time>2026-04-23T12:19:27.478Z</time></trkpt><trkpt lat="45.54501" lon="10.2288483"><ele>162.0</ele><time>2026-04-23T12:19:29.479Z</time></trkpt><trkpt lat="45.54507" lon="10.2289217"><ele>162.0</ele><time>2026-04-23T12:19:30.478Z</time></trkpt><trkpt lat="45.54512" lon="10.2290333"><ele>162.0</ele><time>2026-04-23T12:19:31.478Z</time></trkpt><trkpt lat="45.545175" lon="10.2291833"><ele>162.0</ele><time>2026-04-23T12:19:32.479Z</time></trkpt><trkpt lat="45.5451917" lon="10.22932"><ele>162.0</ele><time>2026-04-23T12:19:33.477Z</time></trkpt><trkpt lat="45.5452317" lon="10.2294333"><ele>162.0</ele><time>2026-04-23T12:19:34.477Z</time></trkpt><trkpt lat="45.5452783" lon="10.22953"><ele>162.0</ele><time>2026-04-23T12:19:35.481Z</time></trkpt><trkpt lat="45.5453167" lon="10.2296083"><ele>162.0</ele><time>2026-04-23T12:19:36.477Z</time></trkpt><trkpt lat="45.54538" lon="10.229625"><ele>162.0</ele><time>2026-04-23T12:19:40.477Z</time></trkpt><trkpt lat="45.5453467" lon="10.2297067"><ele>162.0</ele><time>2026-04-23T12:19:54.479Z</time></trkpt><trkpt lat="45.54528" lon="10.2297333"><ele>162.0</ele><time>2026-04-23T12:19:55.478Z</time></trkpt><trkpt lat="45.5452017" lon="10.2297633"><ele>162.0</ele><time>2026-04-23T12:19:56.478Z</time></trkpt><trkpt lat="45.54511" lon="10.2298067"><ele>162.0</ele><time>2026-04-23T12:19:57.479Z</time></trkpt><trkpt lat="45.5450183" lon="10.2298517"><ele>162.0</ele><time>2026-04-23T12:19:58.478Z</time></trkpt><trkpt lat="45.5449367" lon="10.2298983"><ele>162.0</ele><time>2026-04-23T12:19:59.478Z</time></trkpt><trkpt lat="45.5448567" lon="10.2299417"><ele>162.0</ele><time>2026-04-23T12:20:00.479Z</time></trkpt><trkpt lat="45.54478" lon="10.2299883"><ele>162.33333333333334</ele><time>2026-04-23T12:20:01.479Z</time></trkpt><trkpt lat="45.5447017" lon="10.230035"><ele>162.66666666666666</ele><time>2026-04-23T12:20:02.479Z</time></trkpt><trkpt lat="45.5446217" lon="10.2300817"><ele>163.0</ele><time>2026-04-23T12:20:03.478Z</time></trkpt><trkpt lat="45.54454" lon="10.2301233"><ele>163.33333333333331</ele><time>2026-04-23T12:20:04.478Z</time></trkpt><trkpt lat="45.54447" lon="10.230155"><ele>163.66666666666666</ele><time>2026-04-23T12:20:05.478Z</time></trkpt><trkpt lat="45.5444017" lon="10.2301833"><ele>164.0</ele><time>2026-04-23T12:20:06.48Z</time></trkpt><trkpt lat="45.54434" lon="10.2302033"><ele>164.0</ele><time>2026-04-23T12:20:07.48Z</time></trkpt><trkpt lat="45.544245" lon="10.2302233"><ele>164.0</ele><time>2026-04-23T12:20:09.479Z</time></trkpt><trkpt lat="45.54417" lon="10.2302383"><ele>164.0</ele><time>2026-04-23T12:20:11.479Z</time></trkpt><trkpt lat="45.5441033" lon="10.23026"><ele>164.0</ele><time>2026-04-23T12:20:13.479Z</time></trkpt><trkpt lat="45.5440183" lon="10.2301283"><ele>164.0</ele><time>2026-04-23T12:28:25.478Z</time></trkpt><trkpt lat="45.5439933" lon="10.229925"><ele>164.0</ele><time>2026-04-23T12:28:34.479Z</time></trkpt><trkpt lat="45.5439917" lon="10.2297783"><ele>164.0</ele><time>2026-04-23T12:28:36.477Z</time></trkpt><trkpt lat="45.5439633" lon="10.2296833"><ele>164.0</ele><time>2026-04-23T12:28:39.477Z</time></trkpt><trkpt lat="45.5438967" lon="10.22972"><ele>164.0</ele><time>2026-04-23T12:28:46.478Z</time></trkpt><trkpt lat="45.5438567" lon="10.2297983"><ele>164.0</ele><time>2026-04-23T12:28:48.478Z</time></trkpt><trkpt lat="45.5438183" lon="10.2299183"><ele>164.0</ele><time>2026-04-23T12:28:50.479Z</time></trkpt><trkpt lat="45.5437883" lon="10.2300117"><ele>164.0</ele><time>2026-04-23T12:28:52.477Z</time></trkpt><trkpt lat="45.5437633" lon="10.230105"><ele>164.0</ele><time>2026-04-23T12:28:55.478Z</time></trkpt><trkpt lat="45.5437167" lon="10.230305"><ele>164.0</ele><time>2026-04-23T12:29:12.479Z</time></trkpt><trkpt lat="45.5436867" lon="10.2304"><ele>164.0</ele><time>2026-04-23T12:29:13.478Z</time></trkpt><trkpt lat="45.5436517" lon="10.23048"><ele>164.0</ele><time>2026-04-23T12:29:14.478Z</time></trkpt><trkpt lat="45.5436117" lon="10.2305933"><ele>164.0</ele><time>2026-04-23T12:29:15.478Z</time></trkpt><trkpt lat="45.543565" lon="10.2307117"><ele>164.6</ele><time>2026-04-23T12:29:16.478Z</time></trkpt><trkpt lat="45.5435067" lon="10.2308283"><ele>165.2</ele><time>2026-04-23T12:29:17.48Z</time></trkpt><trkpt lat="45.5434383" lon="10.2309183"><ele>165.79999999999998</ele><time>2026-04-23T12:29:18.479Z</time></trkpt><trkpt lat="45.5433733" lon="10.2310117"><ele>166.39999999999998</ele><time>2026-04-23T12:29:19.478Z</time></trkpt><trkpt lat="45.5432783" lon="10.2311067"><ele>167.0</ele><time>2026-04-23T12:29:20.478Z</time></trkpt><trkpt lat="45.5431717" lon="10.2311833"><ele>167.0</ele><time>2026-04-23T12:29:21.478Z</time></trkpt><trkpt lat="45.54307" lon="10.2312433"><ele>167.0</ele><time>2026-04-23T12:29:22.477Z</time></trkpt><trkpt lat="45.54296" lon="10.2312917"><ele>167.0</ele><time>2026-04-23T12:29:23.478Z</time></trkpt><trkpt lat="45.5428417" lon="10.231315"><ele>167.0</ele><time>2026-04-23T12:29:24.478Z</time></trkpt><trkpt lat="45.5427017" lon="10.2313117"><ele>171.33333333333331</ele><time>2026-04-23T12:29:25.479Z</time></trkpt><trkpt lat="45.54256" lon="10.2313117"><ele>175.66666666666666</ele><time>2026-04-23T12:29:26.479Z</time></trkpt><trkpt lat="45.542415" lon="10.2313383"><ele>180.0</ele><time>2026-04-23T12:29:27.479Z</time></trkpt><trkpt lat="45.54225" lon="10.2313783"><ele>180.0</ele><time>2026-04-23T12:29:28.478Z</time></trkpt><trkpt lat="45.54209" lon="10.2314017"><ele>180.0</ele><time>2026-04-23T12:29:29.479Z</time></trkpt><trkpt lat="45.5419283" lon="10.23143"><ele>180.0</ele><time>2026-04-23T12:29:30.477Z</time></trkpt><trkpt lat="45.541785" lon="10.2314567"><ele>176.5</ele><time>2026-04-23T12:29:31.477Z</time></trkpt><trkpt lat="45.5416483" lon="10.2314817"><ele>173.0</ele><time>2026-04-23T12:29:32.478Z</time></trkpt><trkpt lat="45.54151" lon="10.2315183"><ele>169.5</ele><time>2026-04-23T12:29:33.478Z</time></trkpt><trkpt lat="45.5413683" lon="10.2315433"><ele>166.0</ele><time>2026-04-23T12:29:34.478Z</time></trkpt><trkpt lat="45.5412267" lon="10.2315717"><ele>164.0</ele><time>2026-04-23T12:29:35.478Z</time></trkpt><trkpt lat="45.5410867" lon="10.231595"><ele>162.0</ele><time>2026-04-23T12:29:36.478Z</time></trkpt><trkpt lat="45.540955" lon="10.2316133"><ele>160.0</ele><time>2026-04-23T12:29:37.478Z</time></trkpt><trkpt lat="45.540825" lon="10.2316233"><ele>158.0</ele><time>2026-04-23T12:29:38.478Z</time></trkpt><trkpt lat="45.540705" lon="10.2316317"><ele>158.0</ele><time>2026-04-23T12:29:39.478Z</time></trkpt><trkpt lat="45.5405883" lon="10.2316383"><ele>158.0</ele><time>2026-04-23T12:29:40.478Z</time></trkpt><trkpt lat="45.5404817" lon="10.2316433"><ele>158.0</ele><time>2026-04-23T12:29:41.479Z</time></trkpt><trkpt lat="45.5403867" lon="10.2316417"><ele>158.0</ele><time>2026-04-23T12:29:42.478Z</time></trkpt><trkpt lat="45.5403017" lon="10.2316383"><ele>158.0</ele><time>2026-04-23T12:29:43.479Z</time></trkpt><trkpt lat="45.5402283" lon="10.2316467"><ele>157.20000000000002</ele><time>2026-04-23T12:29:44.478Z</time></trkpt><trkpt lat="45.54016" lon="10.2316467"><ele>156.4</ele><time>2026-04-23T12:29:45.478Z</time></trkpt><trkpt lat="45.5400467" lon="10.2316667"><ele>155.60000000000002</ele><time>2026-04-23T12:29:47.479Z</time></trkpt><trkpt lat="45.5399317" lon="10.2316683"><ele>154.8</ele><time>2026-04-23T12:29:49.479Z</time></trkpt><trkpt lat="45.5398133" lon="10.2316683"><ele>154.0</ele><time>2026-04-23T12:29:51.478Z</time></trkpt><trkpt lat="45.5396967" lon="10.23168"><ele>154.0</ele><time>2026-04-23T12:29:53.479Z</time></trkpt><trkpt lat="45.5396333" lon="10.2316933"><ele>154.0</ele><time>2026-04-23T12:29:54.478Z</time></trkpt><trkpt lat="45.5395317" lon="10.23172"><ele>154.0</ele><time>2026-04-23T12:29:56.479Z</time></trkpt><trkpt lat="45.5394483" lon="10.2317433"><ele>154.0</ele><time>2026-04-23T12:29:58.478Z</time></trkpt><trkpt lat="45.539375" lon="10.23177"><ele>154.0</ele><time>2026-04-23T12:30:00.478Z</time></trkpt><trkpt lat="45.539315" lon="10.231825"><ele>154.0</ele><time>2026-04-23T12:30:10.478Z</time></trkpt><trkpt lat="45.53932" lon="10.2319417"><ele>153.33333333333334</ele><time>2026-04-23T12:30:12.478Z</time></trkpt><trkpt lat="45.539355" lon="10.232055"><ele>152.66666666666669</ele><time>2026-04-23T12:30:13.48Z</time></trkpt><trkpt lat="45.53939" lon="10.232145"><ele>152.0</ele><time>2026-04-23T12:30:14.479Z</time></trkpt><trkpt lat="45.5394217" lon="10.2322383"><ele>151.33333333333334</ele><time>2026-04-23T12:30:15.478Z</time></trkpt><trkpt lat="45.5394533" lon="10.232325"><ele>150.66666666666666</ele><time>2026-04-23T12:30:16.478Z</time></trkpt><trkpt lat="45.53949" lon="10.23242"><ele>150.0</ele><time>2026-04-23T12:30:17.479Z</time></trkpt><trkpt lat="45.5395333" lon="10.2325217"><ele>150.83333333333334</ele><time>2026-04-23T12:30:18.478Z</time></trkpt><trkpt lat="45.53958" lon="10.23263"><ele>151.66666666666666</ele><time>2026-04-23T12:30:19.479Z</time></trkpt><trkpt lat="45.539615" lon="10.2327417"><ele>152.5</ele><time>2026-04-23T12:30:20.479Z</time></trkpt><trkpt lat="45.5396567" lon="10.232865"><ele>153.33333333333331</ele><time>2026-04-23T12:30:21.478Z</time></trkpt><trkpt lat="45.5397033" lon="10.232965"><ele>154.16666666666666</ele><time>2026-04-23T12:30:22.478Z</time></trkpt><trkpt lat="45.539735" lon="10.2330883"><ele>155.0</ele><time>2026-04-23T12:30:23.479Z</time></trkpt><trkpt lat="45.5397767" lon="10.2332167"><ele>155.8</ele><time>2026-04-23T12:30:24.478Z</time></trkpt><trkpt lat="45.5398183" lon="10.2333467"><ele>156.6</ele><time>2026-04-23T12:30:25.479Z</time></trkpt><trkpt lat="45.5398633" lon="10.2334733"><ele>157.4</ele><time>2026-04-23T12:30:26.479Z</time></trkpt><trkpt lat="45.539935" lon="10.2335767"><ele>158.2</ele><time>2026-04-23T12:30:27.478Z</time></trkpt><trkpt lat="45.5399833" lon="10.2336983"><ele>159.0</ele><time>2026-04-23T12:30:28.478Z</time></trkpt><trkpt lat="45.5400183" lon="10.2338267"><ele>159.0</ele><time>2026-04-23T12:30:29.478Z</time></trkpt><trkpt lat="45.5400317" lon="10.233955"><ele>159.0</ele><time>2026-04-23T12:30:30.478Z</time></trkpt><trkpt lat="45.5400417" lon="10.234085"><ele>159.0</ele><time>2026-04-23T12:30:31.479Z</time></trkpt><trkpt lat="45.54003" lon="10.2342183"><ele>159.0</ele><time>2026-04-23T12:30:32.479Z</time></trkpt><trkpt lat="45.54001" lon="10.234345"><ele>159.0</ele><time>2026-04-23T12:30:33.478Z</time></trkpt><trkpt lat="45.5399717" lon="10.2344667"><ele>160.0</ele><time>2026-04-23T12:30:34.478Z</time></trkpt><trkpt lat="45.5399417" lon="10.2345883"><ele>161.0</ele><time>2026-04-23T12:30:35.479Z</time></trkpt><trkpt lat="45.5399267" lon="10.2347017"><ele>162.0</ele><time>2026-04-23T12:30:36.478Z</time></trkpt><trkpt lat="45.5399167" lon="10.2348233"><ele>163.0</ele><time>2026-04-23T12:30:37.48Z</time></trkpt><trkpt lat="45.5399183" lon="10.2349383"><ele>164.0</ele><time>2026-04-23T12:30:38.479Z</time></trkpt><trkpt lat="45.5399667" lon="10.2350367"><ele>165.0</ele><time>2026-04-23T12:30:39.48Z</time></trkpt><trkpt lat="45.5400183" lon="10.2351217"><ele>166.2</ele><time>2026-04-23T12:30:40.479Z</time></trkpt><trkpt lat="45.5401133" lon="10.2351017"><ele>167.4</ele><time>2026-04-23T12:30:41.48Z</time></trkpt><trkpt lat="45.540265" lon="10.2350617"><ele>168.60000000000002</ele><time>2026-04-23T12:30:43.478Z</time></trkpt><trkpt lat="45.5403417" lon="10.234985"><ele>169.8</ele><time>2026-04-23T12:30:44.479Z</time></trkpt><trkpt lat="45.5404083" lon="10.23489"><ele>171.0</ele><time>2026-04-23T12:30:45.479Z</time></trkpt><trkpt lat="45.5404717" lon="10.2347933"><ele>171.33333333333334</ele><time>2026-04-23T12:30:46.478Z</time></trkpt><trkpt lat="45.5405283" lon="10.234695"><ele>171.66666666666666</ele><time>2026-04-23T12:30:47.479Z</time></trkpt><trkpt lat="45.540585" lon="10.2346"><ele>172.0</ele><time>2026-04-23T12:30:48.479Z</time></trkpt><trkpt lat="45.54064" lon="10.2345033"><ele>172.33333333333331</ele><time>2026-04-23T12:30:49.479Z</time></trkpt><trkpt lat="45.5406933" lon="10.234405"><ele>172.66666666666666</ele><time>2026-04-23T12:30:50.479Z</time></trkpt><trkpt lat="45.540755" lon="10.234315"><ele>173.0</ele><time>2026-04-23T12:30:51.478Z</time></trkpt><trkpt lat="45.5408167" lon="10.23422"><ele>173.0</ele><time>2026-04-23T12:30:52.479Z</time></trkpt><trkpt lat="45.5408833" lon="10.2341317"><ele>173.0</ele><time>2026-04-23T12:30:53.48Z</time></trkpt><trkpt lat="45.5409667" lon="10.2340633"><ele>173.0</ele><time>2026-04-23T12:30:54.478Z</time></trkpt><trkpt lat="45.5410517" lon="10.2340167"><ele>173.0</ele><time>2026-04-23T12:30:55.48Z</time></trkpt><trkpt lat="45.5411317" lon="10.2339617"><ele>173.0</ele><time>2026-04-23T12:30:56.479Z</time></trkpt><trkpt lat="45.541235" lon="10.23395"><ele>173.2</ele><time>2026-04-23T12:30:57.478Z</time></trkpt><trkpt lat="45.541325" lon="10.2339467"><ele>173.4</ele><time>2026-04-23T12:30:58.48Z</time></trkpt><trkpt lat="45.5414167" lon="10.2339717"><ele>173.6</ele><time>2026-04-23T12:30:59.48Z</time></trkpt><trkpt lat="45.5415133" lon="10.2339883"><ele>173.79999999999998</ele><time>2026-04-23T12:31:00.478Z</time></trkpt><trkpt lat="45.541595" lon="10.2339833"><ele>174.0</ele><time>2026-04-23T12:31:01.48Z</time></trkpt><trkpt lat="45.5416883" lon="10.2339833"><ele>174.0</ele><time>2026-04-23T12:31:02.479Z</time></trkpt><trkpt lat="45.5417733" lon="10.2339483"><ele>174.0</ele><time>2026-04-23T12:31:03.478Z</time></trkpt><trkpt lat="45.5418561" lon="10.2339029"><ele>174.0</ele><time>2026-04-23T12:31:04.479Z</time></trkpt><trkpt lat="45.5419367" lon="10.2338241"><ele>174.0</ele><time>2026-04-23T12:31:05.479Z</time></trkpt><trkpt lat="45.5420052" lon="10.2337261"><ele>174.0</ele><time>2026-04-23T12:31:06.478Z</time></trkpt><trkpt lat="45.5420542" lon="10.2336046"><ele>176.2</ele><time>2026-04-23T12:31:07.479Z</time></trkpt><trkpt lat="45.5420926" lon="10.2334736"><ele>178.39999999999998</ele><time>2026-04-23T12:31:08.479Z</time></trkpt><trkpt lat="45.5420943" lon="10.2333085"><ele>180.6</ele><time>2026-04-23T12:31:09.478Z</time></trkpt><trkpt lat="45.5421026" lon="10.2331586"><ele>182.8</ele><time>2026-04-23T12:31:10.478Z</time></trkpt><trkpt lat="45.5421142" lon="10.2330192"><ele>185.0</ele><time>2026-04-23T12:31:11.479Z</time></trkpt><trkpt lat="45.5421325" lon="10.2328862"><ele>185.0</ele><time>2026-04-23T12:31:12.478Z</time></trkpt><trkpt lat="45.5421582" lon="10.2327589"><ele>185.0</ele><time>2026-04-23T12:31:13.479Z</time></trkpt><trkpt lat="45.542183" lon="10.2326324"><ele>185.0</ele><time>2026-04-23T12:31:14.479Z</time></trkpt><trkpt lat="45.5422035" lon="10.2324993"><ele>185.0</ele><time>2026-04-23T12:31:15.478Z</time></trkpt><trkpt lat="45.5422283" lon="10.2323634"><ele>185.0</ele><time>2026-04-23T12:31:16.479Z</time></trkpt><trkpt lat="45.5422611" lon="10.2322341"><ele>184.33333333333331</ele><time>2026-04-23T12:31:17.479Z</time></trkpt><trkpt lat="45.5423122" lon="10.2321347"><ele>183.66666666666666</ele><time>2026-04-23T12:31:18.48Z</time></trkpt><trkpt lat="45.5423804" lon="10.2320692"><ele>183.0</ele><time>2026-04-23T12:31:19.479Z</time></trkpt><trkpt lat="45.5424499" lon="10.2320189"><ele>182.33333333333334</ele><time>2026-04-23T12:31:20.481Z</time></trkpt><trkpt lat="45.5425306" lon="10.2320316"><ele>181.66666666666669</ele><time>2026-04-23T12:31:21.479Z</time></trkpt><trkpt lat="45.5426055" lon="10.2320713"><ele>181.0</ele><time>2026-04-23T12:31:22.478Z</time></trkpt><trkpt lat="45.5426758" lon="10.2321362"><ele>181.0</ele><time>2026-04-23T12:31:23.48Z</time></trkpt><trkpt lat="45.5427407" lon="10.232227"><ele>181.0</ele><time>2026-04-23T12:31:24.478Z</time></trkpt><trkpt lat="45.5427863" lon="10.2323413"><ele>181.0</ele><time>2026-04-23T12:31:25.479Z</time></trkpt><trkpt lat="45.5427784" lon="10.2324795"><ele>181.0</ele><time>2026-04-23T12:31:26.479Z</time></trkpt><trkpt lat="45.5427772" lon="10.2326115"><ele>181.0</ele><time>2026-04-23T12:31:27.478Z</time></trkpt><trkpt lat="45.5427625" lon="10.2327371"><ele>181.66666666666669</ele><time>2026-04-23T12:31:28.478Z</time></trkpt><trkpt lat="45.5427484" lon="10.2328601"><ele>182.33333333333334</ele><time>2026-04-23T12:31:29.479Z</time></trkpt><trkpt lat="45.5427332" lon="10.2329803"><ele>183.0</ele><time>2026-04-23T12:31:30.477Z</time></trkpt><trkpt lat="45.5427217" lon="10.2330962"><ele>183.66666666666666</ele><time>2026-04-23T12:31:31.478Z</time></trkpt><trkpt lat="45.5427068" lon="10.2332193"><ele>184.33333333333331</ele><time>2026-04-23T12:31:32.479Z</time></trkpt><trkpt lat="45.5426875" lon="10.2333456"><ele>185.0</ele><time>2026-04-23T12:31:33.478Z</time></trkpt><trkpt lat="45.5426678" lon="10.2334712"><ele>186.2</ele><time>2026-04-23T12:31:34.478Z</time></trkpt><trkpt lat="45.5426385" lon="10.2335887"><ele>187.4</ele><time>2026-04-23T12:31:35.479Z</time></trkpt><trkpt lat="45.5425975" lon="10.2336972"><ele>188.60000000000002</ele><time>2026-04-23T12:31:36.479Z</time></trkpt><trkpt lat="45.5425217" lon="10.2337967"><ele>189.8</ele><time>2026-04-23T12:31:37.48Z</time></trkpt><trkpt lat="45.5424433" lon="10.23389"><ele>191.0</ele><time>2026-04-23T12:31:38.479Z</time></trkpt><trkpt lat="45.5423633" lon="10.233985"><ele>190.0</ele><time>2026-04-23T12:31:39.478Z</time></trkpt><trkpt lat="45.5422867" lon="10.2340867"><ele>189.0</ele><time>2026-04-23T12:31:40.479Z</time></trkpt><trkpt lat="45.5422133" lon="10.2341983"><ele>188.0</ele><time>2026-04-23T12:31:41.479Z</time></trkpt><trkpt lat="45.5421417" lon="10.234315"><ele>187.0</ele><time>2026-04-23T12:31:42.478Z</time></trkpt><trkpt lat="45.5420667" lon="10.2344283"><ele>186.0</ele><time>2026-04-23T12:31:43.478Z</time></trkpt><trkpt lat="45.5419933" lon="10.2345383"><ele>186.0</ele><time>2026-04-23T12:31:44.479Z</time></trkpt><trkpt lat="45.5419217" lon="10.234655"><ele>186.0</ele><time>2026-04-23T12:31:45.479Z</time></trkpt><trkpt lat="45.541855" lon="10.234775"><ele>186.0</ele><time>2026-04-23T12:31:46.478Z</time></trkpt><trkpt lat="45.5417917" lon="10.2349"><ele>186.0</ele><time>2026-04-23T12:31:47.478Z</time></trkpt><trkpt lat="45.5417267" lon="10.2350283"><ele>186.0</ele><time>2026-04-23T12:31:48.477Z</time></trkpt><trkpt lat="45.54166" lon="10.23516"><ele>188.25</ele><time>2026-04-23T12:31:49.477Z</time></trkpt><trkpt lat="45.5415883" lon="10.2353017"><ele>190.5</ele><time>2026-04-23T12:31:50.48Z</time></trkpt><trkpt lat="45.54151" lon="10.23543"><ele>192.75</ele><time>2026-04-23T12:31:51.479Z</time></trkpt><trkpt lat="45.5414283" lon="10.2355417"><ele>195.0</ele><time>2026-04-23T12:31:52.478Z</time></trkpt><trkpt lat="45.5413467" lon="10.2356617"><ele>195.4</ele><time>2026-04-23T12:31:53.478Z</time></trkpt><trkpt lat="45.54126" lon="10.2357617"><ele>195.8</ele><time>2026-04-23T12:31:54.478Z</time></trkpt><trkpt lat="45.541165" lon="10.2358467"><ele>196.2</ele><time>2026-04-23T12:31:55.479Z</time></trkpt><trkpt lat="45.5410683" lon="10.2359183"><ele>196.6</ele><time>2026-04-23T12:31:56.479Z</time></trkpt><trkpt lat="45.5409717" lon="10.23599"><ele>197.0</ele><time>2026-04-23T12:31:57.477Z</time></trkpt><trkpt lat="45.540875" lon="10.236065"><ele>197.0</ele><time>2026-04-23T12:31:58.478Z</time></trkpt><trkpt lat="45.5407967" lon="10.2361533"><ele>197.0</ele><time>2026-04-23T12:31:59.479Z</time></trkpt><trkpt lat="45.5407233" lon="10.23626"><ele>197.0</ele><time>2026-04-23T12:32:00.478Z</time></trkpt><trkpt lat="45.54065" lon="10.2363717"><ele>197.0</ele><time>2026-04-23T12:32:01.478Z</time></trkpt><trkpt lat="45.540575" lon="10.2364683"><ele>197.0</ele><time>2026-04-23T12:32:02.479Z</time></trkpt><trkpt lat="45.540495" lon="10.23656"><ele>199.2</ele><time>2026-04-23T12:32:03.478Z</time></trkpt><trkpt lat="45.5404033" lon="10.2366383"><ele>201.39999999999998</ele><time>2026-04-23T12:32:04.478Z</time></trkpt><trkpt lat="45.5403117" lon="10.2367033"><ele>203.60000000000002</ele><time>2026-04-23T12:32:05.479Z</time></trkpt><trkpt lat="45.540215" lon="10.23674"><ele>205.8</ele><time>2026-04-23T12:32:06.478Z</time></trkpt><trkpt lat="45.5401183" lon="10.2367717"><ele>208.0</ele><time>2026-04-23T12:32:07.479Z</time></trkpt><trkpt lat="45.54002" lon="10.2368033"><ele>208.0</ele><time>2026-04-23T12:32:08.479Z</time></trkpt><trkpt lat="45.5399217" lon="10.2368383"><ele>208.0</ele><time>2026-04-23T12:32:09.478Z</time></trkpt><trkpt lat="45.5398217" lon="10.2368767"><ele>208.0</ele><time>2026-04-23T12:32:10.478Z</time></trkpt><trkpt lat="45.5397217" lon="10.2369217"><ele>208.0</ele><time>2026-04-23T12:32:11.479Z</time></trkpt><trkpt lat="45.53962" lon="10.2369667"><ele>208.0</ele><time>2026-04-23T12:32:12.479Z</time></trkpt><trkpt lat="45.5395167" lon="10.2370217"><ele>206.2</ele><time>2026-04-23T12:32:13.479Z</time></trkpt><trkpt lat="45.5394167" lon="10.2370817"><ele>204.4</ele><time>2026-04-23T12:32:14.479Z</time></trkpt><trkpt lat="45.5393183" lon="10.23715"><ele>202.6</ele><time>2026-04-23T12:32:15.478Z</time></trkpt><trkpt lat="45.5392217" lon="10.23723"><ele>200.79999999999998</ele><time>2026-04-23T12:32:16.478Z</time></trkpt><trkpt lat="45.539125" lon="10.2373083"><ele>199.0</ele><time>2026-04-23T12:32:17.478Z</time></trkpt><trkpt lat="45.5390283" lon="10.23739"><ele>200.39999999999998</ele><time>2026-04-23T12:32:18.477Z</time></trkpt><trkpt lat="45.538935" lon="10.23747"><ele>201.8</ele><time>2026-04-23T12:32:19.479Z</time></trkpt><trkpt lat="45.53884" lon="10.2375533"><ele>203.2</ele><time>2026-04-23T12:32:20.478Z</time></trkpt><trkpt lat="45.538745" lon="10.237625"><ele>204.60000000000002</ele><time>2026-04-23T12:32:21.477Z</time></trkpt><trkpt lat="45.5386433" lon="10.2377033"><ele>206.0</ele><time>2026-04-23T12:32:22.478Z</time></trkpt><trkpt lat="45.538545" lon="10.23778"><ele>206.0</ele><time>2026-04-23T12:32:23.478Z</time></trkpt><trkpt lat="45.5384467" lon="10.2378567"><ele>206.0</ele><time>2026-04-23T12:32:24.479Z</time></trkpt><trkpt lat="45.53835" lon="10.23794"><ele>206.0</ele><time>2026-04-23T12:32:25.478Z</time></trkpt><trkpt lat="45.5382617" lon="10.2380283"><ele>206.0</ele><time>2026-04-23T12:32:26.478Z</time></trkpt><trkpt lat="45.5381733" lon="10.2381283"><ele>206.0</ele><time>2026-04-23T12:32:27.478Z</time></trkpt><trkpt lat="45.538085" lon="10.2381983"><ele>207.20000000000002</ele><time>2026-04-23T12:32:28.478Z</time></trkpt><trkpt lat="45.5380033" lon="10.2382867"><ele>208.4</ele><time>2026-04-23T12:32:29.478Z</time></trkpt><trkpt lat="45.5379317" lon="10.2383833"><ele>209.6</ele><time>2026-04-23T12:32:30.477Z</time></trkpt><trkpt lat="45.53787" lon="10.23848"><ele>210.8</ele><time>2026-04-23T12:32:31.477Z</time></trkpt><trkpt lat="45.5378167" lon="10.23858"><ele>212.0</ele><time>2026-04-23T12:32:32.478Z</time></trkpt><trkpt lat="45.5377667" lon="10.2386883"><ele>212.00000000000003</ele><time>2026-04-23T12:32:33.478Z</time></trkpt><trkpt lat="45.537715" lon="10.2388067"><ele>212.0</ele><time>2026-04-23T12:32:34.478Z</time></trkpt><trkpt lat="45.5376633" lon="10.2389167"><ele>212.0</ele><time>2026-04-23T12:32:35.478Z</time></trkpt><trkpt lat="45.5376183" lon="10.23901"><ele>212.0</ele><time>2026-04-23T12:32:36.477Z</time></trkpt><trkpt lat="45.5375783" lon="10.2391267"><ele>212.00000000000003</ele><time>2026-04-23T12:32:37.478Z</time></trkpt><trkpt lat="45.5375533" lon="10.2392467"><ele>212.0</ele><time>2026-04-23T12:32:38.478Z</time></trkpt><trkpt lat="45.53753" lon="10.2393617"><ele>214.0</ele><time>2026-04-23T12:32:39.477Z</time></trkpt><trkpt lat="45.5375067" lon="10.2394767"><ele>216.0</ele><time>2026-04-23T12:32:40.477Z</time></trkpt><trkpt lat="45.5374983" lon="10.2395967"><ele>218.0</ele><time>2026-04-23T12:32:41.478Z</time></trkpt><trkpt lat="45.5375483" lon="10.2396533"><ele>220.0</ele><time>2026-04-23T12:32:42.477Z</time></trkpt><trkpt lat="45.5376217" lon="10.2397117"><ele>222.0</ele><time>2026-04-23T12:32:44.479Z</time></trkpt><trkpt lat="45.53771" lon="10.2395033"><ele>222.0</ele><time>2026-04-23T12:32:46.477Z</time></trkpt><trkpt lat="45.5377483" lon="10.2393767"><ele>222.0</ele><time>2026-04-23T12:32:47.478Z</time></trkpt><trkpt lat="45.5377833" lon="10.2392317"><ele>222.0</ele><time>2026-04-23T12:32:48.478Z</time></trkpt><trkpt lat="45.5378467" lon="10.239085"><ele>222.0</ele><time>2026-04-23T12:32:49.478Z</time></trkpt><trkpt lat="45.5379167" lon="10.23894"><ele>222.0</ele><time>2026-04-23T12:32:50.478Z</time></trkpt><trkpt lat="45.537995" lon="10.2387967"><ele>224.25</ele><time>2026-04-23T12:32:51.478Z</time></trkpt><trkpt lat="45.5380867" lon="10.2386667"><ele>226.5</ele><time>2026-04-23T12:32:52.477Z</time></trkpt><trkpt lat="45.5381867" lon="10.2385617"><ele>228.75</ele><time>2026-04-23T12:32:53.479Z</time></trkpt><trkpt lat="45.5382883" lon="10.2384833"><ele>231.0</ele><time>2026-04-23T12:32:54.477Z</time></trkpt><trkpt lat="45.5383917" lon="10.238435"><ele>231.0</ele><time>2026-04-23T12:32:55.478Z</time></trkpt><trkpt lat="45.5384983" lon="10.238415"><ele>231.00000000000003</ele><time>2026-04-23T12:32:56.479Z</time></trkpt><trkpt lat="45.5386117" lon="10.2384183"><ele>231.00000000000003</ele><time>2026-04-23T12:32:57.478Z</time></trkpt><trkpt lat="45.5387217" lon="10.2384317"><ele>231.0</ele><time>2026-04-23T12:32:58.478Z</time></trkpt><trkpt lat="45.53883" lon="10.2384483"><ele>231.0</ele><time>2026-04-23T12:32:59.478Z</time></trkpt><trkpt lat="45.5389483" lon="10.2384633"><ele>233.4</ele><time>2026-04-23T12:33:00.477Z</time></trkpt><trkpt lat="45.5390567" lon="10.23845"><ele>235.8</ele><time>2026-04-23T12:33:01.478Z</time></trkpt><trkpt lat="45.5391567" lon="10.238395"><ele>238.20000000000002</ele><time>2026-04-23T12:33:02.478Z</time></trkpt><trkpt lat="45.5392517" lon="10.23832"><ele>240.60000000000002</ele><time>2026-04-23T12:33:03.477Z</time></trkpt><trkpt lat="45.53934" lon="10.2382217"><ele>243.0</ele><time>2026-04-23T12:33:04.477Z</time></trkpt><trkpt lat="45.5394333" lon="10.2381367"><ele>241.25</ele><time>2026-04-23T12:33:05.479Z</time></trkpt><trkpt lat="45.5395417" lon="10.2380733"><ele>239.5</ele><time>2026-04-23T12:33:06.477Z</time></trkpt><trkpt lat="45.5396483" lon="10.23801"><ele>237.75</ele><time>2026-04-23T12:33:07.478Z</time></trkpt><trkpt lat="45.5397567" lon="10.23796"><ele>236.0</ele><time>2026-04-23T12:33:08.478Z</time></trkpt><trkpt lat="45.5398767" lon="10.237935"><ele>236.0</ele><time>2026-04-23T12:33:09.477Z</time></trkpt><trkpt lat="45.5399933" lon="10.237895"><ele>236.0</ele><time>2026-04-23T12:33:10.478Z</time></trkpt><trkpt lat="45.5401083" lon="10.237855"><ele>236.0</ele><time>2026-04-23T12:33:11.478Z</time></trkpt><trkpt lat="45.5402333" lon="10.2378417"><ele>236.0</ele><time>2026-04-23T12:33:12.479Z</time></trkpt><trkpt lat="45.5403717" lon="10.2378367"><ele>238.25</ele><time>2026-04-23T12:33:13.478Z</time></trkpt><trkpt lat="45.5404933" lon="10.2377933"><ele>240.5</ele><time>2026-04-23T12:33:14.478Z</time></trkpt><trkpt lat="45.5406217" lon="10.2377533"><ele>242.75</ele><time>2026-04-23T12:33:15.477Z</time></trkpt><trkpt lat="45.5407417" lon="10.2377067"><ele>245.0</ele><time>2026-04-23T12:33:16.477Z</time></trkpt><trkpt lat="45.5408417" lon="10.2376133"><ele>245.0</ele><time>2026-04-23T12:33:17.478Z</time></trkpt><trkpt lat="45.5409483" lon="10.2375333"><ele>245.0</ele><time>2026-04-23T12:33:18.477Z</time></trkpt><trkpt lat="45.5410617" lon="10.2374683"><ele>245.0</ele><time>2026-04-23T12:33:19.479Z</time></trkpt><trkpt lat="45.5411717" lon="10.2374017"><ele>245.0</ele><time>2026-04-23T12:33:20.478Z</time></trkpt><trkpt lat="45.5412667" lon="10.23734"><ele>244.0</ele><time>2026-04-23T12:33:21.478Z</time></trkpt><trkpt lat="45.5413533" lon="10.23728"><ele>243.0</ele><time>2026-04-23T12:33:22.477Z</time></trkpt><trkpt lat="45.541445" lon="10.2372217"><ele>242.0</ele><time>2026-04-23T12:33:23.478Z</time></trkpt><trkpt lat="45.541535" lon="10.23717"><ele>241.0</ele><time>2026-04-23T12:33:24.477Z</time></trkpt><trkpt lat="45.5416283" lon="10.23714"><ele>240.0</ele><time>2026-04-23T12:33:25.478Z</time></trkpt><trkpt lat="45.54173" lon="10.23712"><ele>240.0</ele><time>2026-04-23T12:33:26.478Z</time></trkpt><trkpt lat="45.5418217" lon="10.23711"><ele>240.0</ele><time>2026-04-23T12:33:27.477Z</time></trkpt><trkpt lat="45.5419183" lon="10.237105"><ele>240.0</ele><time>2026-04-23T12:33:28.478Z</time></trkpt><trkpt lat="45.54201" lon="10.2370983"><ele>240.0</ele><time>2026-04-23T12:33:29.478Z</time></trkpt><trkpt lat="45.54208" lon="10.2371117"><ele>240.0</ele><time>2026-04-23T12:33:30.479Z</time></trkpt><trkpt lat="45.5421467" lon="10.2371383"><ele>240.0</ele><time>2026-04-23T12:33:31.478Z</time></trkpt><trkpt lat="45.5422167" lon="10.2372"><ele>240.0</ele><time>2026-04-23T12:33:33.477Z</time></trkpt><trkpt lat="45.541975" lon="10.2372367"><ele>240.0</ele><time>2026-04-23T12:33:37.478Z</time></trkpt><trkpt lat="45.5418517" lon="10.23723"><ele>240.0</ele><time>2026-04-23T12:33:38.478Z</time></trkpt><trkpt lat="45.5417617" lon="10.237245"><ele>240.0</ele><time>2026-04-23T12:33:39.477Z</time></trkpt><trkpt lat="45.541635" lon="10.2372683"><ele>240.0</ele><time>2026-04-23T12:33:40.478Z</time></trkpt><trkpt lat="45.5414967" lon="10.2372967"><ele>240.0</ele><time>2026-04-23T12:33:41.477Z</time></trkpt><trkpt lat="45.5413867" lon="10.2373533"><ele>240.0</ele><time>2026-04-23T12:33:42.477Z</time></trkpt><trkpt lat="45.541305" lon="10.2374417"><ele>241.0</ele><time>2026-04-23T12:33:43.478Z</time></trkpt><trkpt lat="45.5412183" lon="10.2375267"><ele>242.0</ele><time>2026-04-23T12:33:44.478Z</time></trkpt><trkpt lat="45.541135" lon="10.2376133"><ele>243.0</ele><time>2026-04-23T12:33:45.477Z</time></trkpt><trkpt lat="45.54104" lon="10.2377"><ele>244.0</ele><time>2026-04-23T12:33:46.478Z</time></trkpt><trkpt lat="45.54094" lon="10.23776"><ele>245.0</ele><time>2026-04-23T12:33:47.478Z</time></trkpt><trkpt lat="45.5408367" lon="10.23783"><ele>245.0</ele><time>2026-04-23T12:33:48.477Z</time></trkpt><trkpt lat="45.5407317" lon="10.23789"><ele>245.0</ele><time>2026-04-23T12:33:49.478Z</time></trkpt><trkpt lat="45.5406233" lon="10.2379467"><ele>245.0</ele><time>2026-04-23T12:33:50.478Z</time></trkpt><trkpt lat="45.5405183" lon="10.238005"><ele>245.0</ele><time>2026-04-23T12:33:51.477Z</time></trkpt><trkpt lat="45.540415" lon="10.2380683"><ele>242.75</ele><time>2026-04-23T12:33:52.477Z</time></trkpt><trkpt lat="45.5403117" lon="10.2381317"><ele>240.5</ele><time>2026-04-23T12:33:53.478Z</time></trkpt><trkpt lat="45.54021" lon="10.2382117"><ele>238.25</ele><time>2026-04-23T12:33:54.477Z</time></trkpt><trkpt lat="45.5401183" lon="10.23831"><ele>236.0</ele><time>2026-04-23T12:33:55.479Z</time></trkpt><trkpt lat="45.54003" lon="10.2384183"><ele>243.0</ele><time>2026-04-23T12:33:56.481Z</time></trkpt><trkpt lat="45.539945" lon="10.2385283"><ele>250.0</ele><time>2026-04-23T12:33:57.477Z</time></trkpt><trkpt lat="45.5398567" lon="10.2386483"><ele>257.0</ele><time>2026-04-23T12:33:58.477Z</time></trkpt><trkpt lat="45.5397667" lon="10.238765"><ele>264.0</ele><time>2026-04-23T12:33:59.478Z</time></trkpt><trkpt lat="45.5396733" lon="10.238895"><ele>264.75</ele><time>2026-04-23T12:34:00.477Z</time></trkpt><trkpt lat="45.53957" lon="10.23901"><ele>265.5</ele><time>2026-04-23T12:34:01.477Z</time></trkpt><trkpt lat="45.53947" lon="10.2391233"><ele>266.25</ele><time>2026-04-23T12:34:02.478Z</time></trkpt><trkpt lat="45.539375" lon="10.2392417"><ele>267.0</ele><time>2026-04-23T12:34:03.477Z</time></trkpt><trkpt lat="45.53928" lon="10.2393683"><ele>267.0</ele><time>2026-04-23T12:34:04.477Z</time></trkpt><trkpt lat="45.53919" lon="10.2394983"><ele>267.0</ele><time>2026-04-23T12:34:05.478Z</time></trkpt><trkpt lat="45.5391067" lon="10.2396217"><ele>267.0</ele><time>2026-04-23T12:34:06.477Z</time></trkpt><trkpt lat="45.5390317" lon="10.2397467"><ele>267.0</ele><time>2026-04-23T12:34:07.478Z</time></trkpt><trkpt lat="45.538965" lon="10.23988"><ele>270.6</ele><time>2026-04-23T12:34:08.478Z</time></trkpt><trkpt lat="45.5388983" lon="10.2400083"><ele>274.2</ele><time>2026-04-23T12:34:09.479Z</time></trkpt><trkpt lat="45.53884" lon="10.240125"><ele>277.8</ele><time>2026-04-23T12:34:10.478Z</time></trkpt><trkpt lat="45.53879" lon="10.2402467"><ele>281.4</ele><time>2026-04-23T12:34:11.477Z</time></trkpt><trkpt lat="45.5387517" lon="10.2403667"><ele>285.0</ele><time>2026-04-23T12:34:12.477Z</time></trkpt><trkpt lat="45.5387267" lon="10.2404817"><ele>285.0</ele><time>2026-04-23T12:34:13.479Z</time></trkpt><trkpt lat="45.5387067" lon="10.24058"><ele>285.0</ele><time>2026-04-23T12:34:14.478Z</time></trkpt><trkpt lat="45.5387967" lon="10.2406483"><ele>285.0</ele><time>2026-04-23T12:34:16.479Z</time></trkpt><trkpt lat="45.5388883" lon="10.2406133"><ele>285.0</ele><time>2026-04-23T12:34:18.478Z</time></trkpt><trkpt lat="45.5389467" lon="10.2404783"><ele>285.0</ele><time>2026-04-23T12:34:20.478Z</time></trkpt><trkpt lat="45.5389833" lon="10.2403583"><ele>285.0</ele><time>2026-04-23T12:34:22.477Z</time></trkpt><trkpt lat="45.539015" lon="10.2401883"><ele>285.0</ele><time>2026-04-23T12:34:50.478Z</time></trkpt><trkpt lat="45.5390483" lon="10.2401117"><ele>285.0</ele><time>2026-04-23T12:34:52.478Z</time></trkpt><trkpt lat="45.5390983" lon="10.23999"><ele>285.0</ele><time>2026-04-23T12:34:54.478Z</time></trkpt><trkpt lat="45.5391567" lon="10.2398517"><ele>285.0</ele><time>2026-04-23T12:34:56.478Z</time></trkpt><trkpt lat="45.5392333" lon="10.2397267"><ele>285.3333333333333</ele><time>2026-04-23T12:34:58.478Z</time></trkpt><trkpt lat="45.53928" lon="10.239665"><ele>285.6666666666667</ele><time>2026-04-23T12:34:59.478Z</time></trkpt><trkpt lat="45.5393467" lon="10.2396067"><ele>286.0</ele><time>2026-04-23T12:35:00.478Z</time></trkpt><trkpt lat="45.5394133" lon="10.239555"><ele>286.33333333333337</ele><time>2026-04-23T12:35:01.478Z</time></trkpt><trkpt lat="45.5394833" lon="10.2394917"><ele>286.6666666666667</ele><time>2026-04-23T12:35:02.478Z</time></trkpt><trkpt lat="45.5395517" lon="10.23943"><ele>287.0</ele><time>2026-04-23T12:35:03.478Z</time></trkpt><trkpt lat="45.5396383" lon="10.239385"><ele>287.0</ele><time>2026-04-23T12:35:04.479Z</time></trkpt><trkpt lat="45.539725" lon="10.2393317"><ele>287.0</ele><time>2026-04-23T12:35:05.478Z</time></trkpt><trkpt lat="45.5398183" lon="10.23928"><ele>287.0</ele><time>2026-04-23T12:35:06.477Z</time></trkpt><trkpt lat="45.539915" lon="10.2392217"><ele>287.0</ele><time>2026-04-23T12:35:07.477Z</time></trkpt><trkpt lat="45.5399983" lon="10.2391417"><ele>287.0</ele><time>2026-04-23T12:35:08.478Z</time></trkpt><trkpt lat="45.5400967" lon="10.23908"><ele>287.0</ele><time>2026-04-23T12:35:09.477Z</time></trkpt><trkpt lat="45.5401883" lon="10.239015"><ele>287.0</ele><time>2026-04-23T12:35:10.478Z</time></trkpt><trkpt lat="45.5402767" lon="10.23895"><ele>287.0</ele><time>2026-04-23T12:35:11.478Z</time></trkpt><trkpt lat="45.5403717" lon="10.2388933"><ele>287.0</ele><time>2026-04-23T12:35:12.477Z</time></trkpt><trkpt lat="45.5404783" lon="10.2388617"><ele>287.0</ele><time>2026-04-23T12:35:13.478Z</time></trkpt><trkpt lat="45.5405733" lon="10.2388167"><ele>284.8</ele><time>2026-04-23T12:35:14.478Z</time></trkpt><trkpt lat="45.5406683" lon="10.2387767"><ele>282.6</ele><time>2026-04-23T12:35:15.477Z</time></trkpt><trkpt lat="45.5407633" lon="10.23874"><ele>280.40000000000003</ele><time>2026-04-23T12:35:16.478Z</time></trkpt><trkpt lat="45.54085" lon="10.238695"><ele>278.2</ele><time>2026-04-23T12:35:17.478Z</time></trkpt><trkpt lat="45.540945" lon="10.2386517"><ele>276.0</ele><time>2026-04-23T12:35:18.478Z</time></trkpt><trkpt lat="45.5410383" lon="10.2386017"><ele>276.0</ele><time>2026-04-23T12:35:19.478Z</time></trkpt><trkpt lat="45.5411367" lon="10.238565"><ele>276.0</ele><time>2026-04-23T12:35:20.478Z</time></trkpt><trkpt lat="45.5412317" lon="10.23853"><ele>276.0</ele><time>2026-04-23T12:35:21.477Z</time></trkpt><trkpt lat="45.541325" lon="10.238495"><ele>276.0</ele><time>2026-04-23T12:35:22.478Z</time></trkpt><trkpt lat="45.541425" lon="10.238465"><ele>276.0</ele><time>2026-04-23T12:35:23.478Z</time></trkpt><trkpt lat="45.5415283" lon="10.23843"><ele>278.8</ele><time>2026-04-23T12:35:24.477Z</time></trkpt><trkpt lat="45.5416283" lon="10.2383983"><ele>281.6</ele><time>2026-04-23T12:35:25.478Z</time></trkpt><trkpt lat="45.54172" lon="10.2383767"><ele>284.4</ele><time>2026-04-23T12:35:26.478Z</time></trkpt><trkpt lat="45.5418217" lon="10.2383733"><ele>287.2</ele><time>2026-04-23T12:35:27.477Z</time></trkpt><trkpt lat="45.541925" lon="10.238375"><ele>290.0</ele><time>2026-04-23T12:35:28.477Z</time></trkpt><trkpt lat="45.5420267" lon="10.2383733"><ele>292.8</ele><time>2026-04-23T12:35:29.48Z</time></trkpt><trkpt lat="45.5421367" lon="10.238425"><ele>295.6</ele><time>2026-04-23T12:35:30.478Z</time></trkpt><trkpt lat="45.542235" lon="10.23845"><ele>298.4</ele><time>2026-04-23T12:35:31.479Z</time></trkpt><trkpt lat="45.54232" lon="10.2384567"><ele>301.2</ele><time>2026-04-23T12:35:32.478Z</time></trkpt><trkpt lat="45.5424033" lon="10.23844"><ele>304.0</ele><time>2026-04-23T12:35:33.477Z</time></trkpt><trkpt lat="45.5424833" lon="10.2384083"><ele>304.0</ele><time>2026-04-23T12:35:34.478Z</time></trkpt><trkpt lat="45.542555" lon="10.2383617"><ele>304.0</ele><time>2026-04-23T12:35:35.478Z</time></trkpt><trkpt lat="45.542615" lon="10.23831"><ele>304.0</ele><time>2026-04-23T12:35:36.477Z</time></trkpt><trkpt lat="45.5426817" lon="10.23824"><ele>304.0</ele><time>2026-04-23T12:35:37.479Z</time></trkpt><trkpt lat="45.542735" lon="10.238165"><ele>304.0</ele><time>2026-04-23T12:35:38.478Z</time></trkpt><trkpt lat="45.5427883" lon="10.238075"><ele>304.0</ele><time>2026-04-23T12:35:39.478Z</time></trkpt><trkpt lat="45.542845" lon="10.23799"><ele>303.66666666666663</ele><time>2026-04-23T12:35:40.478Z</time></trkpt><trkpt lat="45.5429033" lon="10.2379033"><ele>303.3333333333333</ele><time>2026-04-23T12:35:41.478Z</time></trkpt><trkpt lat="45.542965" lon="10.2378133"><ele>303.0</ele><time>2026-04-23T12:35:42.477Z</time></trkpt><trkpt lat="45.5430183" lon="10.237725"><ele>302.6666666666667</ele><time>2026-04-23T12:35:43.478Z</time></trkpt><trkpt lat="45.54307" lon="10.2376467"><ele>302.33333333333337</ele><time>2026-04-23T12:35:44.478Z</time></trkpt><trkpt lat="45.5431183" lon="10.23758"><ele>302.0</ele><time>2026-04-23T12:35:45.477Z</time></trkpt><trkpt lat="45.5432133" lon="10.2374717"><ele>302.0</ele><time>2026-04-23T12:35:47.478Z</time></trkpt><trkpt lat="45.54331" lon="10.23751"><ele>302.0</ele><time>2026-04-23T12:35:49.478Z</time></trkpt><trkpt lat="45.54326" lon="10.23761"><ele>302.0</ele><time>2026-04-23T12:35:51.478Z</time></trkpt><trkpt lat="45.5432267" lon="10.2376933"><ele>302.0</ele><time>2026-04-23T12:35:52.477Z</time></trkpt><trkpt lat="45.5431617" lon="10.23777"><ele>302.0</ele><time>2026-04-23T12:35:53.478Z</time></trkpt><trkpt lat="45.5430967" lon="10.2378533"><ele>302.0</ele><time>2026-04-23T12:35:54.477Z</time></trkpt><trkpt lat="45.5430317" lon="10.23796"><ele>302.0</ele><time>2026-04-23T12:35:55.478Z</time></trkpt><trkpt lat="45.542965" lon="10.2380683"><ele>302.0</ele><time>2026-04-23T12:35:56.477Z</time></trkpt><trkpt lat="45.542885" lon="10.23817"><ele>302.0</ele><time>2026-04-23T12:35:57.478Z</time></trkpt><trkpt lat="45.5428133" lon="10.2382783"><ele>302.0</ele><time>2026-04-23T12:35:58.477Z</time></trkpt><trkpt lat="45.5427333" lon="10.2383817"><ele>302.0</ele><time>2026-04-23T12:35:59.478Z</time></trkpt><trkpt lat="45.54267" lon="10.238505"><ele>302.4</ele><time>2026-04-23T12:36:00.478Z</time></trkpt><trkpt lat="45.5426" lon="10.2386217"><ele>302.79999999999995</ele><time>2026-04-23T12:36:01.478Z</time></trkpt><trkpt lat="45.5425233" lon="10.2387283"><ele>303.2</ele><time>2026-04-23T12:36:02.477Z</time></trkpt><trkpt lat="45.5424533" lon="10.238825"><ele>303.59999999999997</ele><time>2026-04-23T12:36:03.477Z</time></trkpt><trkpt lat="45.5423867" lon="10.238925"><ele>304.0</ele><time>2026-04-23T12:36:04.479Z</time></trkpt><trkpt lat="45.5423217" lon="10.2390183"><ele>305.0</ele><time>2026-04-23T12:36:05.477Z</time></trkpt><trkpt lat="45.5422517" lon="10.2391283"><ele>306.0</ele><time>2026-04-23T12:36:06.479Z</time></trkpt><trkpt lat="45.5421817" lon="10.239225"><ele>307.0</ele><time>2026-04-23T12:36:07.479Z</time></trkpt><trkpt lat="45.5421033" lon="10.23933"><ele>308.0</ele><time>2026-04-23T12:36:08.479Z</time></trkpt><trkpt lat="45.54202" lon="10.2394317"><ele>309.0</ele><time>2026-04-23T12:36:09.478Z</time></trkpt><trkpt lat="45.5419333" lon="10.2395233"><ele>309.0</ele><time>2026-04-23T12:36:10.479Z</time></trkpt><trkpt lat="45.5418483" lon="10.23961"><ele>309.0</ele><time>2026-04-23T12:36:11.479Z</time></trkpt><trkpt lat="45.54176" lon="10.2396967"><ele>309.0</ele><time>2026-04-23T12:36:12.478Z</time></trkpt><trkpt lat="45.54167" lon="10.239785"><ele>309.0</ele><time>2026-04-23T12:36:13.478Z</time></trkpt><trkpt lat="45.54158" lon="10.2398733"><ele>309.0</ele><time>2026-04-23T12:36:14.478Z</time></trkpt><trkpt lat="45.5414867" lon="10.2399633"><ele>311.0</ele><time>2026-04-23T12:36:15.478Z</time></trkpt><trkpt lat="45.54139" lon="10.2400517"><ele>313.0</ele><time>2026-04-23T12:36:16.477Z</time></trkpt><trkpt lat="45.5412933" lon="10.240135"><ele>315.0</ele><time>2026-04-23T12:36:17.478Z</time></trkpt><trkpt lat="45.5411983" lon="10.2402167"><ele>317.0</ele><time>2026-04-23T12:36:18.478Z</time></trkpt><trkpt lat="45.5411083" lon="10.2402967"><ele>319.0</ele><time>2026-04-23T12:36:19.478Z</time></trkpt><trkpt lat="45.5410267" lon="10.240385"><ele>319.0</ele><time>2026-04-23T12:36:20.479Z</time></trkpt><trkpt lat="45.54096" lon="10.2404967"><ele>319.0</ele><time>2026-04-23T12:36:21.478Z</time></trkpt><trkpt lat="45.540905" lon="10.2406217"><ele>319.0</ele><time>2026-04-23T12:36:22.478Z</time></trkpt><trkpt lat="45.5408667" lon="10.2407433"><ele>319.0</ele><time>2026-04-23T12:36:23.478Z</time></trkpt><trkpt lat="45.540845" lon="10.2408667"><ele>319.0</ele><time>2026-04-23T12:36:24.477Z</time></trkpt><trkpt lat="45.5408433" lon="10.2409983"><ele>320.4</ele><time>2026-04-23T12:36:25.478Z</time></trkpt><trkpt lat="45.5408483" lon="10.24113"><ele>321.79999999999995</ele><time>2026-04-23T12:36:26.479Z</time></trkpt><trkpt lat="45.540875" lon="10.2412583"><ele>323.20000000000005</ele><time>2026-04-23T12:36:27.477Z</time></trkpt><trkpt lat="45.540915" lon="10.24137"><ele>324.6</ele><time>2026-04-23T12:36:28.478Z</time></trkpt><trkpt lat="45.540985" lon="10.2414833"><ele>326.0</ele><time>2026-04-23T12:36:29.478Z</time></trkpt><trkpt lat="45.5410533" lon="10.24159"><ele>326.0</ele><time>2026-04-23T12:36:30.478Z</time></trkpt><trkpt lat="45.54112" lon="10.2416983"><ele>326.0</ele><time>2026-04-23T12:36:31.478Z</time></trkpt><trkpt lat="45.5411817" lon="10.241805"><ele>326.0</ele><time>2026-04-23T12:36:32.479Z</time></trkpt><trkpt lat="45.54124" lon="10.2419133"><ele>326.0</ele><time>2026-04-23T12:36:33.477Z</time></trkpt><trkpt lat="45.5413" lon="10.24202"><ele>326.0</ele><time>2026-04-23T12:36:34.479Z</time></trkpt><trkpt lat="45.5413633" lon="10.2421267"><ele>330.4</ele><time>2026-04-23T12:36:35.478Z</time></trkpt><trkpt lat="45.54142" lon="10.2422367"><ele>334.8</ele><time>2026-04-23T12:36:36.479Z</time></trkpt><trkpt lat="45.5414817" lon="10.2423483"><ele>339.2</ele><time>2026-04-23T12:36:37.479Z</time></trkpt><trkpt lat="45.5415417" lon="10.24246"><ele>343.59999999999997</ele><time>2026-04-23T12:36:38.479Z</time></trkpt><trkpt lat="45.54159" lon="10.2425733"><ele>348.0</ele><time>2026-04-23T12:36:39.477Z</time></trkpt><trkpt lat="45.5416417" lon="10.2426817"><ele>348.0</ele><time>2026-04-23T12:36:40.48Z</time></trkpt><trkpt lat="45.5416967" lon="10.242795"><ele>348.0</ele><time>2026-04-23T12:36:41.478Z</time></trkpt><trkpt lat="45.54175" lon="10.2429083"><ele>348.0</ele><time>2026-04-23T12:36:42.477Z</time></trkpt><trkpt lat="45.5417967" lon="10.2430183"><ele>348.0</ele><time>2026-04-23T12:36:43.478Z</time></trkpt><trkpt lat="45.541845" lon="10.2431383"><ele>348.0</ele><time>2026-04-23T12:36:44.479Z</time></trkpt><trkpt lat="45.5418933" lon="10.243265"><ele>345.4</ele><time>2026-04-23T12:36:45.477Z</time></trkpt><trkpt lat="45.5419317" lon="10.2433883"><ele>342.79999999999995</ele><time>2026-04-23T12:36:46.478Z</time></trkpt><trkpt lat="45.5419633" lon="10.2435183"><ele>340.2</ele><time>2026-04-23T12:36:47.479Z</time></trkpt><trkpt lat="45.54199" lon="10.2436533"><ele>337.6</ele><time>2026-04-23T12:36:48.477Z</time></trkpt><trkpt lat="45.5420083" lon="10.243795"><ele>335.0</ele><time>2026-04-23T12:36:49.479Z</time></trkpt><trkpt lat="45.5420267" lon="10.243935"><ele>333.6</ele><time>2026-04-23T12:36:50.478Z</time></trkpt><trkpt lat="45.54204" lon="10.2440783"><ele>332.2</ele><time>2026-04-23T12:36:51.477Z</time></trkpt><trkpt lat="45.54206" lon="10.24421"><ele>330.79999999999995</ele><time>2026-04-23T12:36:52.478Z</time></trkpt><trkpt lat="45.5420833" lon="10.2443317"><ele>329.4</ele><time>2026-04-23T12:36:53.477Z</time></trkpt><trkpt lat="45.542105" lon="10.2444617"><ele>328.0</ele><time>2026-04-23T12:36:54.477Z</time></trkpt><trkpt lat="45.5421233" lon="10.2445867"><ele>335.8333333333333</ele><time>2026-04-23T12:36:55.478Z</time></trkpt><trkpt lat="45.5421467" lon="10.2447117"><ele>343.66666666666663</ele><time>2026-04-23T12:36:56.479Z</time></trkpt><trkpt lat="45.5421667" lon="10.2448317"><ele>351.5</ele><time>2026-04-23T12:36:57.478Z</time></trkpt><trkpt lat="45.5421883" lon="10.2449583"><ele>359.3333333333333</ele><time>2026-04-23T12:36:58.478Z</time></trkpt><trkpt lat="45.5422017" lon="10.24507"><ele>367.1666666666667</ele><time>2026-04-23T12:36:59.478Z</time></trkpt><trkpt lat="45.5422117" lon="10.2451767"><ele>375.0</ele><time>2026-04-23T12:37:00.477Z</time></trkpt><trkpt lat="45.5422233" lon="10.2452933"><ele>375.0</ele><time>2026-04-23T12:37:01.477Z</time></trkpt><trkpt lat="45.542235" lon="10.2454233"><ele>375.0</ele><time>2026-04-23T12:37:02.48Z</time></trkpt><trkpt lat="45.5422567" lon="10.245555"><ele>375.0</ele><time>2026-04-23T12:37:03.477Z</time></trkpt><trkpt lat="45.5422733" lon="10.2456933"><ele>375.0</ele><time>2026-04-23T12:37:04.479Z</time></trkpt><trkpt lat="45.5422667" lon="10.245825"><ele>375.0</ele><time>2026-04-23T12:37:05.479Z</time></trkpt><trkpt lat="45.5422583" lon="10.2459483"><ele>375.0</ele><time>2026-04-23T12:37:06.478Z</time></trkpt><trkpt lat="45.5422467" lon="10.24607"><ele>375.0</ele><time>2026-04-23T12:37:07.483Z</time></trkpt><trkpt lat="45.5422483" lon="10.2462067"><ele>375.0</ele><time>2026-04-23T12:37:08.478Z</time></trkpt><trkpt lat="45.5422583" lon="10.24635"><ele>375.0</ele><time>2026-04-23T12:37:09.477Z</time></trkpt><trkpt lat="45.5422667" lon="10.2464733"><ele>375.0</ele><time>2026-04-23T12:37:10.479Z</time></trkpt><trkpt lat="45.5422917" lon="10.2465983"><ele>375.6</ele><time>2026-04-23T12:37:11.479Z</time></trkpt><trkpt lat="45.5423183" lon="10.2467217"><ele>376.2</ele><time>2026-04-23T12:37:12.479Z</time></trkpt><trkpt lat="45.54236" lon="10.2468433"><ele>376.79999999999995</ele><time>2026-04-23T12:37:13.478Z</time></trkpt><trkpt lat="45.5424117" lon="10.2469667"><ele>377.4</ele><time>2026-04-23T12:37:14.479Z</time></trkpt><trkpt lat="45.5424683" lon="10.24709"><ele>378.0</ele><time>2026-04-23T12:37:15.479Z</time></trkpt><trkpt lat="45.5425233" lon="10.24721"><ele>376.79999999999995</ele><time>2026-04-23T12:37:16.478Z</time></trkpt><trkpt lat="45.5425767" lon="10.2473317"><ele>375.6</ele><time>2026-04-23T12:37:17.478Z</time></trkpt><trkpt lat="45.5426333" lon="10.247445"><ele>374.4</ele><time>2026-04-23T12:37:18.478Z</time></trkpt><trkpt lat="45.542685" lon="10.2475567"><ele>373.20000000000005</ele><time>2026-04-23T12:37:19.478Z</time></trkpt><trkpt lat="45.5427283" lon="10.2476683"><ele>372.0</ele><time>2026-04-23T12:37:20.478Z</time></trkpt><trkpt lat="45.5427733" lon="10.2477783"><ele>372.0</ele><time>2026-04-23T12:37:21.477Z</time></trkpt><trkpt lat="45.5428133" lon="10.2479033"><ele>372.0</ele><time>2026-04-23T12:37:22.479Z</time></trkpt><trkpt lat="45.5428383" lon="10.24804"><ele>372.0</ele><time>2026-04-23T12:37:23.479Z</time></trkpt><trkpt lat="45.5428533" lon="10.2481833"><ele>372.0</ele><time>2026-04-23T12:37:24.479Z</time></trkpt><trkpt lat="45.5428533" lon="10.2483233"><ele>372.0</ele><time>2026-04-23T12:37:25.478Z</time></trkpt><trkpt lat="45.5428433" lon="10.2484633"><ele>371.8</ele><time>2026-04-23T12:37:26.479Z</time></trkpt><trkpt lat="45.5428267" lon="10.2486017"><ele>371.6</ele><time>2026-04-23T12:37:27.478Z</time></trkpt><trkpt lat="45.542805" lon="10.248745"><ele>371.40000000000003</ele><time>2026-04-23T12:37:28.478Z</time></trkpt><trkpt lat="45.5427783" lon="10.24889"><ele>371.20000000000005</ele><time>2026-04-23T12:37:29.479Z</time></trkpt><trkpt lat="45.5427567" lon="10.2490367"><ele>371.0</ele><time>2026-04-23T12:37:30.478Z</time></trkpt><trkpt lat="45.54273" lon="10.2491867"><ele>372.6</ele><time>2026-04-23T12:37:31.48Z</time></trkpt><trkpt lat="45.542705" lon="10.2493367"><ele>374.20000000000005</ele><time>2026-04-23T12:37:32.479Z</time></trkpt><trkpt lat="45.54267" lon="10.2494883"><ele>375.79999999999995</ele><time>2026-04-23T12:37:33.478Z</time></trkpt><trkpt lat="45.54263" lon="10.24963"><ele>377.4</ele><time>2026-04-23T12:37:34.478Z</time></trkpt><trkpt lat="45.5425883" lon="10.2497667"><ele>379.0</ele><time>2026-04-23T12:37:35.479Z</time></trkpt><trkpt lat="45.54254" lon="10.249905"><ele>381.79999999999995</ele><time>2026-04-23T12:37:36.478Z</time></trkpt><trkpt lat="45.5425067" lon="10.2500417"><ele>384.59999999999997</ele><time>2026-04-23T12:37:37.479Z</time></trkpt><trkpt lat="45.5424767" lon="10.2501783"><ele>387.4</ele><time>2026-04-23T12:37:38.479Z</time></trkpt><trkpt lat="45.5424583" lon="10.250325"><ele>390.2</ele><time>2026-04-23T12:37:39.477Z</time></trkpt><trkpt lat="45.5424617" lon="10.2504783"><ele>393.0</ele><time>2026-04-23T12:37:40.479Z</time></trkpt><trkpt lat="45.542475" lon="10.2506217"><ele>394.59999999999997</ele><time>2026-04-23T12:37:41.478Z</time></trkpt><trkpt lat="45.542495" lon="10.2507617"><ele>396.2</ele><time>2026-04-23T12:37:42.478Z</time></trkpt><trkpt lat="45.542515" lon="10.250905"><ele>397.8</ele><time>2026-04-23T12:37:43.478Z</time></trkpt><trkpt lat="45.5425367" lon="10.251055"><ele>399.4</ele><time>2026-04-23T12:37:44.48Z</time></trkpt><trkpt lat="45.5425567" lon="10.251205"><ele>401.0</ele><time>2026-04-23T12:37:45.478Z</time></trkpt><trkpt lat="45.542565" lon="10.2513467"><ele>401.20000000000005</ele><time>2026-04-23T12:37:46.478Z</time></trkpt><trkpt lat="45.5425667" lon="10.251485"><ele>401.40000000000003</ele><time>2026-04-23T12:37:47.479Z</time></trkpt><trkpt lat="45.542565" lon="10.2516233"><ele>401.6</ele><time>2026-04-23T12:37:48.479Z</time></trkpt><trkpt lat="45.5425517" lon="10.2517567"><ele>401.8</ele><time>2026-04-23T12:37:49.479Z</time></trkpt><trkpt lat="45.5425367" lon="10.2518883"><ele>402.0</ele><time>2026-04-23T12:37:50.478Z</time></trkpt><trkpt lat="45.5425133" lon="10.252025"><ele>402.0</ele><time>2026-04-23T12:37:51.477Z</time></trkpt><trkpt lat="45.5424817" lon="10.25216"><ele>402.0</ele><time>2026-04-23T12:37:52.478Z</time></trkpt><trkpt lat="45.5424433" lon="10.2522783"><ele>402.0</ele><time>2026-04-23T12:37:53.479Z</time></trkpt><trkpt lat="45.5423983" lon="10.2524033"><ele>402.0</ele><time>2026-04-23T12:37:54.477Z</time></trkpt><trkpt lat="45.542355" lon="10.2525217"><ele>402.0</ele><time>2026-04-23T12:37:55.479Z</time></trkpt><trkpt lat="45.5423067" lon="10.2526483"><ele>404.0</ele><time>2026-04-23T12:37:56.478Z</time></trkpt><trkpt lat="45.54226" lon="10.2527817"><ele>406.0</ele><time>2026-04-23T12:37:57.477Z</time></trkpt><trkpt lat="45.542205" lon="10.2529117"><ele>408.0</ele><time>2026-04-23T12:37:58.479Z</time></trkpt><trkpt lat="45.54215" lon="10.2530417"><ele>410.0</ele><time>2026-04-23T12:37:59.48Z</time></trkpt><trkpt lat="45.5420967" lon="10.2531667"><ele>412.0</ele><time>2026-04-23T12:38:00.479Z</time></trkpt><trkpt lat="45.5420367" lon="10.253295"><ele>412.25</ele><time>2026-04-23T12:38:01.478Z</time></trkpt><trkpt lat="45.541985" lon="10.2534267"><ele>412.5</ele><time>2026-04-23T12:38:02.479Z</time></trkpt><trkpt lat="45.54192" lon="10.2535667"><ele>412.75</ele><time>2026-04-23T12:38:03.48Z</time></trkpt><trkpt lat="45.54186" lon="10.25371"><ele>413.0</ele><time>2026-04-23T12:38:04.478Z</time></trkpt><trkpt lat="45.5418017" lon="10.25385"><ele>415.2</ele><time>2026-04-23T12:38:05.479Z</time></trkpt><trkpt lat="45.54174" lon="10.25399"><ele>417.4</ele><time>2026-04-23T12:38:06.478Z</time></trkpt><trkpt lat="45.5416867" lon="10.25413"><ele>419.59999999999997</ele><time>2026-04-23T12:38:07.478Z</time></trkpt><trkpt lat="45.5416367" lon="10.2542667"><ele>421.79999999999995</ele><time>2026-04-23T12:38:08.479Z</time></trkpt><trkpt lat="45.5415733" lon="10.2543967"><ele>424.0</ele><time>2026-04-23T12:38:09.478Z</time></trkpt><trkpt lat="45.5415017" lon="10.2544967"><ele>424.0</ele><time>2026-04-23T12:38:10.478Z</time></trkpt><trkpt lat="45.5414267" lon="10.2545967"><ele>424.0</ele><time>2026-04-23T12:38:11.479Z</time></trkpt><trkpt lat="45.5413467" lon="10.254695"><ele>424.0</ele><time>2026-04-23T12:38:12.479Z</time></trkpt><trkpt lat="45.5412667" lon="10.2547917"><ele>424.0</ele><time>2026-04-23T12:38:13.48Z</time></trkpt><trkpt lat="45.541185" lon="10.254885"><ele>424.0</ele><time>2026-04-23T12:38:14.479Z</time></trkpt><trkpt lat="45.54111" lon="10.25498"><ele>424.2</ele><time>2026-04-23T12:38:15.478Z</time></trkpt><trkpt lat="45.541035" lon="10.255075"><ele>424.4</ele><time>2026-04-23T12:38:16.478Z</time></trkpt><trkpt lat="45.5409617" lon="10.25518"><ele>424.6</ele><time>2026-04-23T12:38:17.479Z</time></trkpt><trkpt lat="45.54089" lon="10.2552967"><ele>424.8</ele><time>2026-04-23T12:38:18.478Z</time></trkpt><trkpt lat="45.54082" lon="10.2554283"><ele>425.0</ele><time>2026-04-23T12:38:19.479Z</time></trkpt><trkpt lat="45.54076" lon="10.2555617"><ele>429.2</ele><time>2026-04-23T12:38:20.479Z</time></trkpt><trkpt lat="45.5406983" lon="10.2557017"><ele>433.4</ele><time>2026-04-23T12:38:21.477Z</time></trkpt><trkpt lat="45.54065" lon="10.2558417"><ele>437.6</ele><time>2026-04-23T12:38:22.478Z</time></trkpt><trkpt lat="45.5406083" lon="10.2559867"><ele>441.8</ele><time>2026-04-23T12:38:23.478Z</time></trkpt><trkpt lat="45.5405783" lon="10.2561333"><ele>446.0</ele><time>2026-04-23T12:38:24.478Z</time></trkpt><trkpt lat="45.54055" lon="10.2562783"><ele>446.0</ele><time>2026-04-23T12:38:25.479Z</time></trkpt><trkpt lat="45.5405083" lon="10.2564117"><ele>446.0</ele><time>2026-04-23T12:38:26.478Z</time></trkpt><trkpt lat="45.5404583" lon="10.2565383"><ele>446.0</ele><time>2026-04-23T12:38:27.478Z</time></trkpt><trkpt lat="45.5404" lon="10.256655"><ele>446.0</ele><time>2026-04-23T12:38:28.478Z</time></trkpt><trkpt lat="45.5403117" lon="10.2567367"><ele>446.0</ele><time>2026-04-23T12:38:29.479Z</time></trkpt><trkpt lat="45.540235" lon="10.2568067"><ele>444.8</ele><time>2026-04-23T12:38:30.478Z</time></trkpt><trkpt lat="45.5401617" lon="10.256885"><ele>443.6</ele><time>2026-04-23T12:38:31.477Z</time></trkpt><trkpt lat="45.5400883" lon="10.2569767"><ele>442.4</ele><time>2026-04-23T12:38:32.478Z</time></trkpt><trkpt lat="45.5400267" lon="10.257085"><ele>441.2</ele><time>2026-04-23T12:38:33.478Z</time></trkpt><trkpt lat="45.5399733" lon="10.2572067"><ele>440.0</ele><time>2026-04-23T12:38:34.478Z</time></trkpt><trkpt lat="45.5399317" lon="10.2573483"><ele>443.4</ele><time>2026-04-23T12:38:35.479Z</time></trkpt><trkpt lat="45.5398883" lon="10.257485"><ele>446.8</ele><time>2026-04-23T12:38:36.477Z</time></trkpt><trkpt lat="45.5398517" lon="10.25763"><ele>450.20000000000005</ele><time>2026-04-23T12:38:37.478Z</time></trkpt><trkpt lat="45.5398133" lon="10.2577717"><ele>453.6</ele><time>2026-04-23T12:38:38.479Z</time></trkpt><trkpt lat="45.53977" lon="10.2579133"><ele>457.0</ele><time>2026-04-23T12:38:39.477Z</time></trkpt><trkpt lat="45.5397183" lon="10.2580433"><ele>455.6</ele><time>2026-04-23T12:38:40.478Z</time></trkpt><trkpt lat="45.53966" lon="10.2581667"><ele>454.20000000000005</ele><time>2026-04-23T12:38:41.478Z</time></trkpt><trkpt lat="45.539595" lon="10.2582817"><ele>452.8</ele><time>2026-04-23T12:38:42.479Z</time></trkpt><trkpt lat="45.53953" lon="10.2584033"><ele>451.4</ele><time>2026-04-23T12:38:43.478Z</time></trkpt><trkpt lat="45.53946" lon="10.2585267"><ele>450.0</ele><time>2026-04-23T12:38:44.478Z</time></trkpt><trkpt lat="45.5393967" lon="10.2586317"><ele>450.0</ele><time>2026-04-23T12:38:45.478Z</time></trkpt><trkpt lat="45.5393483" lon="10.2587417"><ele>450.0</ele><time>2026-04-23T12:38:46.479Z</time></trkpt><trkpt lat="45.5393067" lon="10.2588467"><ele>450.0</ele><time>2026-04-23T12:38:47.48Z</time></trkpt><trkpt lat="45.5392717" lon="10.2589467"><ele>450.0</ele><time>2026-04-23T12:38:48.478Z</time></trkpt><trkpt lat="45.5392483" lon="10.2590417"><ele>450.0</ele><time>2026-04-23T12:38:49.479Z</time></trkpt><trkpt lat="45.539235" lon="10.2591383"><ele>450.0</ele><time>2026-04-23T12:38:50.479Z</time></trkpt><trkpt lat="45.53929" lon="10.2592283"><ele>450.0</ele><time>2026-04-23T12:38:52.478Z</time></trkpt><trkpt lat="45.5393533" lon="10.25919"><ele>450.0</ele><time>2026-04-23T12:38:53.479Z</time></trkpt><trkpt lat="45.5394433" lon="10.2590633"><ele>450.0</ele><time>2026-04-23T12:38:55.478Z</time></trkpt><trkpt lat="45.5394917" lon="10.2589667"><ele>450.0</ele><time>2026-04-23T12:38:56.479Z</time></trkpt><trkpt lat="45.5395467" lon="10.2588367"><ele>450.0</ele><time>2026-04-23T12:38:57.478Z</time></trkpt><trkpt lat="45.5396183" lon="10.25876"><ele>455.0</ele><time>2026-04-23T12:38:58.48Z</time></trkpt><trkpt lat="45.53968" lon="10.2586967"><ele>460.0</ele><time>2026-04-23T12:38:59.479Z</time></trkpt><trkpt lat="45.5397567" lon="10.2586617"><ele>465.0</ele><time>2026-04-23T12:39:00.478Z</time></trkpt><trkpt lat="45.5398633" lon="10.25864"><ele>470.0</ele><time>2026-04-23T12:39:01.478Z</time></trkpt><trkpt lat="45.5399533" lon="10.2585733"><ele>475.0</ele><time>2026-04-23T12:39:02.478Z</time></trkpt><trkpt lat="45.540035" lon="10.2584567"><ele>475.0</ele><time>2026-04-23T12:39:03.477Z</time></trkpt><trkpt lat="45.54013" lon="10.2583583"><ele>475.0</ele><time>2026-04-23T12:39:04.478Z</time></trkpt><trkpt lat="45.5402267" lon="10.258255"><ele>475.0</ele><time>2026-04-23T12:39:05.479Z</time></trkpt><trkpt lat="45.5403183" lon="10.2581417"><ele>475.0</ele><time>2026-04-23T12:39:06.477Z</time></trkpt><trkpt lat="45.5404167" lon="10.258025"><ele>476.0</ele><time>2026-04-23T12:39:07.479Z</time></trkpt><trkpt lat="45.5405133" lon="10.2579017"><ele>477.0</ele><time>2026-04-23T12:39:08.479Z</time></trkpt><trkpt lat="45.54062" lon="10.2577933"><ele>478.0</ele><time>2026-04-23T12:39:09.478Z</time></trkpt><trkpt lat="45.5407217" lon="10.2576817"><ele>479.0</ele><time>2026-04-23T12:39:10.479Z</time></trkpt><trkpt lat="45.5408267" lon="10.2575733"><ele>479.0</ele><time>2026-04-23T12:39:11.48Z</time></trkpt><trkpt lat="45.5409233" lon="10.25745"><ele>479.0</ele><time>2026-04-23T12:39:12.48Z</time></trkpt><trkpt lat="45.54102" lon="10.2573267"><ele>479.0</ele><time>2026-04-23T12:39:13.479Z</time></trkpt><trkpt lat="45.5411067" lon="10.2571967"><ele>479.0</ele><time>2026-04-23T12:39:14.479Z</time></trkpt><trkpt lat="45.54117" lon="10.2570467"><ele>479.99999999999994</ele><time>2026-04-23T12:39:15.478Z</time></trkpt><trkpt lat="45.5412283" lon="10.2569183"><ele>481.0</ele><time>2026-04-23T12:39:16.478Z</time></trkpt><trkpt lat="45.5412767" lon="10.2568117"><ele>482.0</ele><time>2026-04-23T12:39:17.479Z</time></trkpt><trkpt lat="45.54133" lon="10.2567233"><ele>483.0</ele><time>2026-04-23T12:39:18.478Z</time></trkpt><trkpt lat="45.54138" lon="10.2566567"><ele>483.99999999999994</ele><time>2026-04-23T12:39:19.478Z</time></trkpt><trkpt lat="45.5414517" lon="10.2566517"><ele>485.0</ele><time>2026-04-23T12:39:20.479Z</time></trkpt><trkpt lat="45.5415233" lon="10.2566933"><ele>485.0</ele><time>2026-04-23T12:39:21.479Z</time></trkpt><trkpt lat="45.5415733" lon="10.2567617"><ele>485.0</ele><time>2026-04-23T12:39:22.478Z</time></trkpt><trkpt lat="45.54157" lon="10.25686"><ele>485.0</ele><time>2026-04-23T12:39:23.479Z</time></trkpt><trkpt lat="45.5415383" lon="10.2569767"><ele>485.0</ele><time>2026-04-23T12:39:24.478Z</time></trkpt><trkpt lat="45.54148" lon="10.25713"><ele>485.0</ele><time>2026-04-23T12:39:25.478Z</time></trkpt><trkpt lat="45.541425" lon="10.2572917"><ele>488.0</ele><time>2026-04-23T12:39:26.479Z</time></trkpt><trkpt lat="45.5413933" lon="10.257425"><ele>491.0</ele><time>2026-04-23T12:39:27.478Z</time></trkpt><trkpt lat="45.541365" lon="10.2575717"><ele>494.0</ele><time>2026-04-23T12:39:28.479Z</time></trkpt><trkpt lat="45.5413217" lon="10.2577417"><ele>497.0</ele><time>2026-04-23T12:39:29.478Z</time></trkpt><trkpt lat="45.5412667" lon="10.2578933"><ele>496.6</ele><time>2026-04-23T12:39:30.479Z</time></trkpt><trkpt lat="45.5412017" lon="10.2580233"><ele>496.20000000000005</ele><time>2026-04-23T12:39:31.478Z</time></trkpt><trkpt lat="45.5411267" lon="10.25813"><ele>495.8</ele><time>2026-04-23T12:39:32.48Z</time></trkpt><trkpt lat="45.5410583" lon="10.2582267"><ele>495.4</ele><time>2026-04-23T12:39:33.477Z</time></trkpt><trkpt lat="45.5409767" lon="10.2583233"><ele>495.0</ele><time>2026-04-23T12:39:34.479Z</time></trkpt><trkpt lat="45.5408933" lon="10.2584233"><ele>495.0</ele><time>2026-04-23T12:39:35.479Z</time></trkpt><trkpt lat="45.5408133" lon="10.2585317"><ele>495.0</ele><time>2026-04-23T12:39:36.478Z</time></trkpt><trkpt lat="45.5407383" lon="10.25865"><ele>495.0</ele><time>2026-04-23T12:39:37.478Z</time></trkpt><trkpt lat="45.5406683" lon="10.2587767"><ele>495.0</ele><time>2026-04-23T12:39:38.479Z</time></trkpt><trkpt lat="45.5406017" lon="10.258905"><ele>495.0</ele><time>2026-04-23T12:39:39.479Z</time></trkpt><trkpt lat="45.5405283" lon="10.2590283"><ele>493.5</ele><time>2026-04-23T12:39:40.479Z</time></trkpt><trkpt lat="45.5404683" lon="10.2591467"><ele>492.0</ele><time>2026-04-23T12:39:41.479Z</time></trkpt><trkpt lat="45.5404117" lon="10.259245"><ele>490.5</ele><time>2026-04-23T12:39:42.478Z</time></trkpt><trkpt lat="45.5403583" lon="10.2593383"><ele>489.0</ele><time>2026-04-23T12:39:43.478Z</time></trkpt><trkpt lat="45.5403317" lon="10.25944"><ele>487.5</ele><time>2026-04-23T12:39:44.479Z</time></trkpt><trkpt lat="45.5403167" lon="10.2595317"><ele>486.0</ele><time>2026-04-23T12:39:45.477Z</time></trkpt><trkpt lat="45.5403983" lon="10.2596483"><ele>490.4</ele><time>2026-04-23T12:39:47.477Z</time></trkpt><trkpt lat="45.540495" lon="10.2596233"><ele>494.8</ele><time>2026-04-23T12:39:48.477Z</time></trkpt><trkpt lat="45.54055" lon="10.2595267"><ele>499.19999999999993</ele><time>2026-04-23T12:39:49.477Z</time></trkpt><trkpt lat="45.54059" lon="10.2594417"><ele>503.59999999999997</ele><time>2026-04-23T12:39:50.479Z</time></trkpt><trkpt lat="45.54063" lon="10.2592967"><ele>508.0</ele><time>2026-04-23T12:39:51.479Z</time></trkpt><trkpt lat="45.5406867" lon="10.2591717"><ele>508.0</ele><time>2026-04-23T12:39:52.478Z</time></trkpt><trkpt lat="45.540755" lon="10.259065"><ele>507.99999999999994</ele><time>2026-04-23T12:39:53.478Z</time></trkpt><trkpt lat="45.54083" lon="10.25896"><ele>507.99999999999994</ele><time>2026-04-23T12:39:54.479Z</time></trkpt><trkpt lat="45.5409183" lon="10.2589033"><ele>508.0</ele><time>2026-04-23T12:39:55.478Z</time></trkpt><trkpt lat="45.5410017" lon="10.2588567"><ele>508.0</ele><time>2026-04-23T12:39:56.479Z</time></trkpt><trkpt lat="45.5410933" lon="10.2588267"><ele>509.0</ele><time>2026-04-23T12:39:57.478Z</time></trkpt><trkpt lat="45.5411833" lon="10.2588117"><ele>509.99999999999994</ele><time>2026-04-23T12:39:58.479Z</time></trkpt><trkpt lat="45.5412817" lon="10.2588033"><ele>510.99999999999994</ele><time>2026-04-23T12:39:59.478Z</time></trkpt><trkpt lat="45.541385" lon="10.2587967"><ele>512.0</ele><time>2026-04-23T12:40:00.478Z</time></trkpt><trkpt lat="45.5414883" lon="10.2587583"><ele>513.0</ele><time>2026-04-23T12:40:01.478Z</time></trkpt><trkpt lat="45.5415967" lon="10.258695"><ele>513.0</ele><time>2026-04-23T12:40:02.479Z</time></trkpt><trkpt lat="45.5416917" lon="10.2586033"><ele>513.0</ele><time>2026-04-23T12:40:03.479Z</time></trkpt><trkpt lat="45.5417817" lon="10.2585033"><ele>513.0</ele><time>2026-04-23T12:40:04.479Z</time></trkpt><trkpt lat="45.54188" lon="10.25842"><ele>513.0</ele><time>2026-04-23T12:40:05.478Z</time></trkpt><trkpt lat="45.5419767" lon="10.2583583"><ele>513.0</ele><time>2026-04-23T12:40:06.479Z</time></trkpt><trkpt lat="45.54208" lon="10.2583167"><ele>515.4</ele><time>2026-04-23T12:40:07.48Z</time></trkpt><trkpt lat="45.5421783" lon="10.2582717"><ele>517.8</ele><time>2026-04-23T12:40:08.479Z</time></trkpt><trkpt lat="45.5422717" lon="10.2582217"><ele>520.2</ele><time>2026-04-23T12:40:09.478Z</time></trkpt><trkpt lat="45.5423667" lon="10.2581833"><ele>522.6</ele><time>2026-04-23T12:40:10.479Z</time></trkpt><trkpt lat="45.54245" lon="10.2581317"><ele>525.0</ele><time>2026-04-23T12:40:11.478Z</time></trkpt><trkpt lat="45.5425333" lon="10.2581283"><ele>525.0</ele><time>2026-04-23T12:40:12.479Z</time></trkpt><trkpt lat="45.5426167" lon="10.2581517"><ele>525.0</ele><time>2026-04-23T12:40:13.479Z</time></trkpt><trkpt lat="45.5427017" lon="10.258195"><ele>525.0</ele><time>2026-04-23T12:40:14.479Z</time></trkpt><trkpt lat="45.542735" lon="10.258285"><ele>525.0</ele><time>2026-04-23T12:40:15.477Z</time></trkpt><trkpt lat="45.5427733" lon="10.2583883"><ele>525.0</ele><time>2026-04-23T12:40:16.479Z</time></trkpt><trkpt lat="45.5427983" lon="10.2584967"><ele>525.0</ele><time>2026-04-23T12:40:17.478Z</time></trkpt><trkpt lat="45.5428233" lon="10.2586083"><ele>525.0</ele><time>2026-04-23T12:40:18.478Z</time></trkpt><trkpt lat="45.5428483" lon="10.258725"><ele>525.0</ele><time>2026-04-23T12:40:19.479Z</time></trkpt><trkpt lat="45.54288" lon="10.2588433"><ele>525.0</ele><time>2026-04-23T12:40:20.479Z</time></trkpt><trkpt lat="45.5429133" lon="10.25896"><ele>525.0</ele><time>2026-04-23T12:40:21.479Z</time></trkpt><trkpt lat="45.5429517" lon="10.2590783"><ele>525.0</ele><time>2026-04-23T12:40:22.478Z</time></trkpt><trkpt lat="45.5429883" lon="10.2591883"><ele>525.0</ele><time>2026-04-23T12:40:23.479Z</time></trkpt><trkpt lat="45.5430367" lon="10.2592983"><ele>525.4</ele><time>2026-04-23T12:40:24.479Z</time></trkpt><trkpt lat="45.5430817" lon="10.2593983"><ele>525.8</ele><time>2026-04-23T12:40:25.478Z</time></trkpt><trkpt lat="45.5431267" lon="10.25948"><ele>526.2</ele><time>2026-04-23T12:40:26.48Z</time></trkpt><trkpt lat="45.5432" lon="10.2595917"><ele>526.6</ele><time>2026-04-23T12:40:28.478Z</time></trkpt><trkpt lat="45.543245" lon="10.2597017"><ele>527.0</ele><time>2026-04-23T12:40:30.478Z</time></trkpt><trkpt lat="45.54329" lon="10.2598267"><ele>529.2</ele><time>2026-04-23T12:40:32.479Z</time></trkpt><trkpt lat="45.5433283" lon="10.2599617"><ele>531.4000000000001</ele><time>2026-04-23T12:40:34.479Z</time></trkpt><trkpt lat="45.5433583" lon="10.2601167"><ele>533.5999999999999</ele><time>2026-04-23T12:40:36.478Z</time></trkpt><trkpt lat="45.5433667" lon="10.2602533"><ele>535.8</ele><time>2026-04-23T12:40:38.479Z</time></trkpt><trkpt lat="45.5433633" lon="10.26037"><ele>538.0</ele><time>2026-04-23T12:40:40.479Z</time></trkpt><trkpt lat="45.5433317" lon="10.2604767"><ele>538.0</ele><time>2026-04-23T12:40:42.478Z</time></trkpt><trkpt lat="45.543335" lon="10.2605883"><ele>538.0</ele><time>2026-04-23T12:40:44.479Z</time></trkpt><trkpt lat="45.54333" lon="10.26073"><ele>538.0</ele><time>2026-04-23T12:40:46.48Z</time></trkpt><trkpt lat="45.5433067" lon="10.2608633"><ele>538.0</ele><time>2026-04-23T12:40:48.479Z</time></trkpt><trkpt lat="45.5432967" lon="10.261005"><ele>538.0</ele><time>2026-04-23T12:40:50.479Z</time></trkpt><trkpt lat="45.543325" lon="10.2611383"><ele>539.1999999999999</ele><time>2026-04-23T12:40:52.479Z</time></trkpt><trkpt lat="45.5433933" lon="10.261275"><ele>540.4</ele><time>2026-04-23T12:40:54.479Z</time></trkpt><trkpt lat="45.5434483" lon="10.2614233"><ele>541.5999999999999</ele><time>2026-04-23T12:40:56.479Z</time></trkpt><trkpt lat="45.543485" lon="10.2615533"><ele>542.8</ele><time>2026-04-23T12:40:58.478Z</time></trkpt><trkpt lat="45.5435283" lon="10.2616733"><ele>544.0</ele><time>2026-04-23T12:41:00.48Z</time></trkpt><trkpt lat="45.54358" lon="10.2617883"><ele>544.0</ele><time>2026-04-23T12:41:02.478Z</time></trkpt><trkpt lat="45.5436583" lon="10.2619067"><ele>544.0</ele><time>2026-04-23T12:41:04.478Z</time></trkpt><trkpt lat="45.5437" lon="10.2620433"><ele>544.0</ele><time>2026-04-23T12:41:06.477Z</time></trkpt><trkpt lat="45.5437433" lon="10.2621617"><ele>544.0</ele><time>2026-04-23T12:41:08.478Z</time></trkpt><trkpt lat="45.5437767" lon="10.2622817"><ele>544.0</ele><time>2026-04-23T12:41:10.477Z</time></trkpt><trkpt lat="45.5438117" lon="10.2624"><ele>544.0</ele><time>2026-04-23T12:41:12.478Z</time></trkpt><trkpt lat="45.54384" lon="10.2625083"><ele>544.0</ele><time>2026-04-23T12:41:14.478Z</time></trkpt><trkpt lat="45.5438967" lon="10.2626233"><ele>544.0</ele><time>2026-04-23T12:41:16.477Z</time></trkpt><trkpt lat="45.543925" lon="10.2627333"><ele>544.0</ele><time>2026-04-23T12:41:18.477Z</time></trkpt><trkpt lat="45.5439317" lon="10.2628383"><ele>544.0</ele><time>2026-04-23T12:41:21.477Z</time></trkpt><trkpt lat="45.544" lon="10.262865"><ele>544.0</ele><time>2026-04-23T12:41:42.477Z</time></trkpt><trkpt lat="45.5439967" lon="10.2627667"><ele>543.9999999999999</ele><time>2026-04-23T12:41:45.477Z</time></trkpt><trkpt lat="45.5439717" lon="10.2626783"><ele>544.0</ele><time>2026-04-23T12:41:48.477Z</time></trkpt><trkpt lat="45.5439517" lon="10.2625883"><ele>544.0</ele><time>2026-04-23T12:41:51.477Z</time></trkpt><trkpt lat="45.5439283" lon="10.2624983"><ele>544.0</ele><time>2026-04-23T12:41:54.477Z</time></trkpt><trkpt lat="45.5439133" lon="10.2624067"><ele>544.0</ele><time>2026-04-23T12:41:57.477Z</time></trkpt><trkpt lat="45.543885" lon="10.2623167"><ele>543.9999999999999</ele><time>2026-04-23T12:42:00.478Z</time></trkpt><trkpt lat="45.5438617" lon="10.2622183"><ele>544.0</ele><time>2026-04-23T12:42:04.478Z</time></trkpt><trkpt lat="45.5438167" lon="10.2621367"><ele>545.1666666666667</ele><time>2026-04-23T12:42:07.477Z</time></trkpt><trkpt lat="45.5437683" lon="10.2620483"><ele>546.3333333333334</ele><time>2026-04-23T12:42:10.478Z</time></trkpt><trkpt lat="45.543715" lon="10.261975"><ele>547.5</ele><time>2026-04-23T12:42:12.479Z</time></trkpt><trkpt lat="45.5436283" lon="10.2618917"><ele>548.6666666666666</ele><time>2026-04-23T12:42:14.478Z</time></trkpt><trkpt lat="45.5435683" lon="10.2618367"><ele>549.8333333333333</ele><time>2026-04-23T12:42:16.478Z</time></trkpt><trkpt lat="45.5435024" lon="10.2617831"><ele>551.0</ele><time>2026-04-23T12:42:18.503Z</time></trkpt><trkpt lat="45.5434314" lon="10.2617088"><ele>551.0</ele><time>2026-04-23T12:42:21.513Z</time></trkpt><trkpt lat="45.5433721" lon="10.2616546"><ele>551.0</ele><time>2026-04-23T12:42:23.501Z</time></trkpt><trkpt lat="45.5433218" lon="10.2615695"><ele>551.0</ele><time>2026-04-23T12:42:25.444Z</time></trkpt><trkpt lat="45.5432789" lon="10.2614502"><ele>551.0</ele><time>2026-04-23T12:42:27.532Z</time></trkpt><trkpt lat="45.5432556" lon="10.2613134"><ele>551.0</ele><time>2026-04-23T12:42:29.539Z</time></trkpt><trkpt lat="45.5432146" lon="10.2611925"><ele>551.0</ele><time>2026-04-23T12:42:31.545Z</time></trkpt><trkpt lat="45.5431625" lon="10.2610544"><ele>549.8333333333333</ele><time>2026-04-23T12:42:33.563Z</time></trkpt><trkpt lat="45.5431677" lon="10.2609554"><ele>548.6666666666666</ele><time>2026-04-23T12:42:35.558Z</time></trkpt><trkpt lat="45.5432124" lon="10.2608631"><ele>547.5</ele><time>2026-04-23T12:42:37.565Z</time></trkpt><trkpt lat="45.5432515" lon="10.260766"><ele>546.3333333333334</ele><time>2026-04-23T12:42:39.477Z</time></trkpt><trkpt lat="45.5432869" lon="10.2606641"><ele>545.1666666666667</ele><time>2026-04-23T12:42:41.477Z</time></trkpt><trkpt lat="45.543323" lon="10.2605694"><ele>544.0</ele><time>2026-04-23T12:42:43.478Z</time></trkpt><trkpt lat="45.5433381" lon="10.2604411"><ele>543.0</ele><time>2026-04-23T12:42:45.477Z</time></trkpt><trkpt lat="45.5433475" lon="10.26031"><ele>542.0</ele><time>2026-04-23T12:42:47.477Z</time></trkpt><trkpt lat="45.5433564" lon="10.2601932"><ele>541.0</ele><time>2026-04-23T12:42:49.477Z</time></trkpt><trkpt lat="45.5433883" lon="10.2600167"><ele>540.0</ele><time>2026-04-23T12:43:39.478Z</time></trkpt><trkpt lat="45.54337" lon="10.2599117"><ele>539.0</ele><time>2026-04-23T12:44:20.478Z</time></trkpt><trkpt lat="45.5433367" lon="10.2598317"><ele>538.0</ele><time>2026-04-23T12:44:23.478Z</time></trkpt><trkpt lat="45.5433017" lon="10.2597417"><ele>536.1666666666667</ele><time>2026-04-23T12:44:26.478Z</time></trkpt><trkpt lat="45.5432567" lon="10.2596617"><ele>534.3333333333334</ele><time>2026-04-23T12:44:28.478Z</time></trkpt><trkpt lat="45.5432015" lon="10.2595694"><ele>532.5</ele><time>2026-04-23T12:44:31.54Z</time></trkpt><trkpt lat="45.5431434" lon="10.2595091"><ele>530.6666666666666</ele><time>2026-04-23T12:44:33.541Z</time></trkpt><trkpt lat="45.5430771" lon="10.2595508"><ele>528.8333333333333</ele><time>2026-04-23T12:44:36.549Z</time></trkpt><trkpt lat="45.5431494" lon="10.2595629"><ele>527.0</ele><time>2026-04-23T12:44:41.566Z</time></trkpt><trkpt lat="45.5431929" lon="10.2596634"><ele>527.0</ele><time>2026-04-23T12:44:44.478Z</time></trkpt><trkpt lat="45.5432098" lon="10.2597735"><ele>527.0</ele><time>2026-04-23T12:44:47.542Z</time></trkpt><trkpt lat="45.5432623" lon="10.2598697"><ele>527.0</ele><time>2026-04-23T12:44:50.581Z</time></trkpt><trkpt lat="45.5433126" lon="10.2599656"><ele>527.0</ele><time>2026-04-23T12:44:53.504Z</time></trkpt><trkpt lat="45.5433507" lon="10.2600621"><ele>527.0</ele><time>2026-04-23T12:44:56.514Z</time></trkpt><trkpt lat="45.5433306" lon="10.2601593"><ele>527.0</ele><time>2026-04-23T12:44:59.524Z</time></trkpt><trkpt lat="45.5433167" lon="10.2602515"><ele>528.8333333333333</ele><time>2026-04-23T12:45:01.53Z</time></trkpt><trkpt lat="45.5433126" lon="10.2603504"><ele>530.6666666666666</ele><time>2026-04-23T12:45:04.461Z</time></trkpt><trkpt lat="45.5432985" lon="10.2604578"><ele>532.5</ele><time>2026-04-23T12:45:09.556Z</time></trkpt><trkpt lat="45.5432855" lon="10.2605559"><ele>534.3333333333334</ele><time>2026-04-23T12:45:13.569Z</time></trkpt><trkpt lat="45.5432599" lon="10.2606409"><ele>536.1666666666667</ele><time>2026-04-23T12:45:17.404Z</time></trkpt><trkpt lat="45.543254" lon="10.2607641"><ele>538.0</ele><time>2026-04-23T12:45:21.495Z</time></trkpt><trkpt lat="45.54324" lon="10.2609033"><ele>539.0</ele><time>2026-04-23T12:45:34.478Z</time></trkpt><trkpt lat="45.5432317" lon="10.26103"><ele>540.0</ele><time>2026-04-23T12:45:37.478Z</time></trkpt><trkpt lat="45.543255" lon="10.261115"><ele>541.0</ele><time>2026-04-23T12:45:39.477Z</time></trkpt><trkpt lat="45.5433067" lon="10.261215"><ele>542.0</ele><time>2026-04-23T12:45:41.477Z</time></trkpt><trkpt lat="45.5433533" lon="10.2613033"><ele>543.0</ele><time>2026-04-23T12:45:43.478Z</time></trkpt><trkpt lat="45.5433833" lon="10.2613933"><ele>544.0</ele><time>2026-04-23T12:45:45.477Z</time></trkpt><trkpt lat="45.5434083" lon="10.2614767"><ele>545.1666666666667</ele><time>2026-04-23T12:45:47.477Z</time></trkpt><trkpt lat="45.5434533" lon="10.2615783"><ele>546.3333333333334</ele><time>2026-04-23T12:45:50.479Z</time></trkpt><trkpt lat="45.5435317" lon="10.2616283"><ele>547.5</ele><time>2026-04-23T12:45:52.478Z</time></trkpt><trkpt lat="45.5435933" lon="10.2617267"><ele>548.6666666666666</ele><time>2026-04-23T12:45:55.479Z</time></trkpt><trkpt lat="45.5436583" lon="10.2617583"><ele>549.8333333333333</ele><time>2026-04-23T12:45:56.478Z</time></trkpt><trkpt lat="45.543655" lon="10.2618717"><ele>551.0</ele><time>2026-04-23T12:45:58.477Z</time></trkpt><trkpt lat="45.543725" lon="10.2619567"><ele>549.9999999999999</ele><time>2026-04-23T12:46:00.477Z</time></trkpt><trkpt lat="45.5437517" lon="10.26204"><ele>549.0</ele><time>2026-04-23T12:46:02.478Z</time></trkpt><trkpt lat="45.543805" lon="10.262145"><ele>548.0</ele><time>2026-04-23T12:46:05.478Z</time></trkpt><trkpt lat="45.54385" lon="10.2622233"><ele>547.0</ele><time>2026-04-23T12:46:07.478Z</time></trkpt><trkpt lat="45.543895" lon="10.2623067"><ele>546.0</ele><time>2026-04-23T12:46:09.478Z</time></trkpt><trkpt lat="45.5439183" lon="10.2624"><ele>544.9999999999999</ele><time>2026-04-23T12:46:11.478Z</time></trkpt><trkpt lat="45.5439433" lon="10.2624983"><ele>544.0</ele><time>2026-04-23T12:46:13.478Z</time></trkpt><trkpt lat="45.543945" lon="10.2625883"><ele>544.0</ele><time>2026-04-23T12:46:15.477Z</time></trkpt><trkpt lat="45.5439583" lon="10.2627117"><ele>544.0</ele><time>2026-04-23T12:46:18.478Z</time></trkpt><trkpt lat="45.543965" lon="10.2628333"><ele>544.0</ele><time>2026-04-23T12:46:21.478Z</time></trkpt><trkpt lat="45.544035" lon="10.262855"><ele>544.0</ele><time>2026-04-23T12:46:25.479Z</time></trkpt><trkpt lat="45.5440233" lon="10.2626917"><ele>544.0</ele><time>2026-04-23T12:46:48.478Z</time></trkpt><trkpt lat="45.5440067" lon="10.2626017"><ele>544.0</ele><time>2026-04-23T12:46:51.477Z</time></trkpt><trkpt lat="45.5439683" lon="10.2625"><ele>544.0</ele><time>2026-04-23T12:46:54.48Z</time></trkpt><trkpt lat="45.543925" lon="10.26241"><ele>544.0</ele><time>2026-04-23T12:46:57.477Z</time></trkpt><trkpt lat="45.543895" lon="10.2623133"><ele>544.0</ele><time>2026-04-23T12:47:00.478Z</time></trkpt><trkpt lat="45.5438433" lon="10.2622217"><ele>544.0</ele><time>2026-04-23T12:47:02.478Z</time></trkpt><trkpt lat="45.543785" lon="10.2621317"><ele>544.0</ele><time>2026-04-23T12:47:04.478Z</time></trkpt><trkpt lat="45.5437233" lon="10.2620417"><ele>544.0</ele><time>2026-04-23T12:47:06.478Z</time></trkpt><trkpt lat="45.54365" lon="10.26196"><ele>545.1666666666667</ele><time>2026-04-23T12:47:08.479Z</time></trkpt><trkpt lat="45.5435933" lon="10.2619183"><ele>546.3333333333334</ele><time>2026-04-23T12:47:09.477Z</time></trkpt><trkpt lat="45.54353" lon="10.2618717"><ele>547.5</ele><time>2026-04-23T12:47:11.478Z</time></trkpt><trkpt lat="45.5434633" lon="10.2618033"><ele>548.6666666666666</ele><time>2026-04-23T12:47:14.479Z</time></trkpt><trkpt lat="45.5433967" lon="10.2617333"><ele>549.8333333333333</ele><time>2026-04-23T12:47:17.479Z</time></trkpt><trkpt lat="45.543335" lon="10.2616567"><ele>551.0</ele><time>2026-04-23T12:47:20.478Z</time></trkpt><trkpt lat="45.5432933" lon="10.2615367"><ele>549.8333333333333</ele><time>2026-04-23T12:47:23.478Z</time></trkpt><trkpt lat="45.5432833" lon="10.261355"><ele>548.6666666666666</ele><time>2026-04-23T12:47:44.478Z</time></trkpt><trkpt lat="45.5432817" lon="10.2612483"><ele>547.5</ele><time>2026-04-23T12:48:07.477Z</time></trkpt><trkpt lat="45.5432767" lon="10.2611333"><ele>546.3333333333334</ele><time>2026-04-23T12:48:10.478Z</time></trkpt><trkpt lat="45.5432417" lon="10.26105"><ele>545.1666666666667</ele><time>2026-04-23T12:48:13.479Z</time></trkpt><trkpt lat="45.5432533" lon="10.2609517"><ele>544.0</ele><time>2026-04-23T12:48:17.479Z</time></trkpt><trkpt lat="45.5432833" lon="10.260845"><ele>544.0</ele><time>2026-04-23T12:48:19.477Z</time></trkpt><trkpt lat="45.5433183" lon="10.2607467"><ele>544.0</ele><time>2026-04-23T12:48:21.479Z</time></trkpt><trkpt lat="45.5433217" lon="10.2606067"><ele>544.0</ele><time>2026-04-23T12:48:23.479Z</time></trkpt><trkpt lat="45.5433383" lon="10.2604717"><ele>544.0</ele><time>2026-04-23T12:48:25.479Z</time></trkpt><trkpt lat="45.5433583" lon="10.2603367"><ele>544.0</ele><time>2026-04-23T12:48:27.477Z</time></trkpt><trkpt lat="45.543375" lon="10.2602433"><ele>544.0</ele><time>2026-04-23T12:48:28.478Z</time></trkpt><trkpt lat="45.543375" lon="10.2600867"><ele>542.8</ele><time>2026-04-23T12:48:30.477Z</time></trkpt><trkpt lat="45.54334" lon="10.2599417"><ele>541.5999999999999</ele><time>2026-04-23T12:48:32.479Z</time></trkpt><trkpt lat="45.5432917" lon="10.2598"><ele>540.4</ele><time>2026-04-23T12:48:34.478Z</time></trkpt><trkpt lat="45.5432433" lon="10.2596817"><ele>539.1999999999999</ele><time>2026-04-23T12:48:36.478Z</time></trkpt><trkpt lat="45.5431817" lon="10.2595933"><ele>538.0</ele><time>2026-04-23T12:48:38.48Z</time></trkpt><trkpt lat="45.5431183" lon="10.2595733"><ele>538.0</ele><time>2026-04-23T12:48:45.476Z</time></trkpt><trkpt lat="45.543145" lon="10.259725"><ele>538.0</ele><time>2026-04-23T12:48:48.477Z</time></trkpt><trkpt lat="45.5431767" lon="10.2598033"><ele>538.0</ele><time>2026-04-23T12:48:49.482Z</time></trkpt><trkpt lat="45.5432217" lon="10.2599333"><ele>538.0</ele><time>2026-04-23T12:48:51.477Z</time></trkpt><trkpt lat="45.54325" lon="10.2600717"><ele>538.0</ele><time>2026-04-23T12:48:53.478Z</time></trkpt><trkpt lat="45.543255" lon="10.2601633"><ele>538.0</ele><time>2026-04-23T12:48:54.479Z</time></trkpt><trkpt lat="45.5432483" lon="10.2602633"><ele>538.0</ele><time>2026-04-23T12:48:55.478Z</time></trkpt><trkpt lat="45.543235" lon="10.2603533"><ele>538.0</ele><time>2026-04-23T12:48:56.48Z</time></trkpt><trkpt lat="45.5432067" lon="10.2605183"><ele>538.0</ele><time>2026-04-23T12:48:58.479Z</time></trkpt><trkpt lat="45.5431867" lon="10.2606083"><ele>538.0</ele><time>2026-04-23T12:48:59.479Z</time></trkpt><trkpt lat="45.543185" lon="10.2607033"><ele>538.0</ele><time>2026-04-23T12:49:00.477Z</time></trkpt><trkpt lat="45.5431533" lon="10.2608033"><ele>538.0</ele><time>2026-04-23T12:49:01.478Z</time></trkpt><trkpt lat="45.5431483" lon="10.2609017"><ele>539.0</ele><time>2026-04-23T12:49:02.479Z</time></trkpt><trkpt lat="45.543135" lon="10.261"><ele>540.0</ele><time>2026-04-23T12:49:03.477Z</time></trkpt><trkpt lat="45.5431283" lon="10.2611083"><ele>541.0</ele><time>2026-04-23T12:49:04.478Z</time></trkpt><trkpt lat="45.5431217" lon="10.2612333"><ele>542.0</ele><time>2026-04-23T12:49:05.478Z</time></trkpt><trkpt lat="45.5431183" lon="10.2613583"><ele>543.0</ele><time>2026-04-23T12:49:06.478Z</time></trkpt><trkpt lat="45.5431183" lon="10.2615"><ele>544.0</ele><time>2026-04-23T12:49:07.479Z</time></trkpt><trkpt lat="45.5431217" lon="10.261635"><ele>545.75</ele><time>2026-04-23T12:49:08.479Z</time></trkpt><trkpt lat="45.5431467" lon="10.261775"><ele>547.5</ele><time>2026-04-23T12:49:09.477Z</time></trkpt><trkpt lat="45.543245" lon="10.2619483"><ele>549.25</ele><time>2026-04-23T12:49:10.479Z</time></trkpt><trkpt lat="45.543345" lon="10.2621017"><ele>551.0</ele><time>2026-04-23T12:49:11.478Z</time></trkpt><trkpt lat="45.5434067" lon="10.2622217"><ele>553.6</ele><time>2026-04-23T12:49:12.478Z</time></trkpt><trkpt lat="45.5434917" lon="10.2623267"><ele>556.2</ele><time>2026-04-23T12:49:13.477Z</time></trkpt><trkpt lat="45.5435683" lon="10.2624483"><ele>558.8</ele><time>2026-04-23T12:49:14.478Z</time></trkpt><trkpt lat="45.54363" lon="10.26257"><ele>561.4</ele><time>2026-04-23T12:49:15.477Z</time></trkpt><trkpt lat="45.5436867" lon="10.2626983"><ele>564.0</ele><time>2026-04-23T12:49:16.479Z</time></trkpt><trkpt lat="45.5437133" lon="10.2628483"><ele>563.0</ele><time>2026-04-23T12:49:17.478Z</time></trkpt><trkpt lat="45.54372" lon="10.2630017"><ele>562.0</ele><time>2026-04-23T12:49:18.478Z</time></trkpt><trkpt lat="45.5437033" lon="10.2631667"><ele>561.0</ele><time>2026-04-23T12:49:19.478Z</time></trkpt><trkpt lat="45.5437" lon="10.2633233"><ele>560.0</ele><time>2026-04-23T12:49:20.478Z</time></trkpt><trkpt lat="45.543705" lon="10.2634817"><ele>559.0</ele><time>2026-04-23T12:49:21.477Z</time></trkpt><trkpt lat="45.54373" lon="10.2636167"><ele>559.0</ele><time>2026-04-23T12:49:22.478Z</time></trkpt><trkpt lat="45.5437983" lon="10.2637067"><ele>559.0</ele><time>2026-04-23T12:49:23.476Z</time></trkpt><trkpt lat="45.5438567" lon="10.263785"><ele>559.0</ele><time>2026-04-23T12:49:24.478Z</time></trkpt><trkpt lat="45.5439233" lon="10.26385"><ele>559.0</ele><time>2026-04-23T12:49:25.477Z</time></trkpt><trkpt lat="45.5439867" lon="10.2639067"><ele>559.0</ele><time>2026-04-23T12:49:26.478Z</time></trkpt><trkpt lat="45.5440683" lon="10.263955"><ele>559.0</ele><time>2026-04-23T12:49:27.477Z</time></trkpt><trkpt lat="45.54416" lon="10.264"><ele>562.0</ele><time>2026-04-23T12:49:28.477Z</time></trkpt><trkpt lat="45.544225" lon="10.264055"><ele>565.0</ele><time>2026-04-23T12:49:29.477Z</time></trkpt><trkpt lat="45.5442917" lon="10.264105"><ele>568.0</ele><time>2026-04-23T12:49:30.477Z</time></trkpt><trkpt lat="45.54442" lon="10.2641283"><ele>571.0</ele><time>2026-04-23T12:49:31.477Z</time></trkpt><trkpt lat="45.5444783" lon="10.2641983"><ele>574.0</ele><time>2026-04-23T12:49:33.476Z</time></trkpt><trkpt lat="45.5444867" lon="10.2642967"><ele>577.0</ele><time>2026-04-23T12:49:36.476Z</time></trkpt><trkpt lat="45.5444267" lon="10.2643267"><ele>577.0</ele><time>2026-04-23T12:49:37.477Z</time></trkpt><trkpt lat="45.5442933" lon="10.264385"><ele>577.0</ele><time>2026-04-23T12:49:39.476Z</time></trkpt><trkpt lat="45.5441667" lon="10.2645583"><ele>577.0</ele><time>2026-04-23T12:49:41.476Z</time></trkpt><trkpt lat="45.5440717" lon="10.26464"><ele>577.0</ele><time>2026-04-23T12:49:42.477Z</time></trkpt><trkpt lat="45.5439867" lon="10.2646833"><ele>577.0</ele><time>2026-04-23T12:49:43.477Z</time></trkpt><trkpt lat="45.54392" lon="10.26473"><ele>577.0</ele><time>2026-04-23T12:49:44.478Z</time></trkpt><trkpt lat="45.54382" lon="10.264675"><ele>577.0</ele><time>2026-04-23T12:49:45.477Z</time></trkpt><trkpt lat="45.54375" lon="10.2647117"><ele>577.0</ele><time>2026-04-23T12:49:46.477Z</time></trkpt><trkpt lat="45.543665" lon="10.264725"><ele>577.0</ele><time>2026-04-23T12:49:47.477Z</time></trkpt><trkpt lat="45.543595" lon="10.2646983"><ele>577.0</ele><time>2026-04-23T12:49:48.476Z</time></trkpt><trkpt lat="45.5433183" lon="10.2642733"><ele>584.5</ele><time>2026-04-23T12:49:49.477Z</time></trkpt><trkpt lat="45.5429967" lon="10.2639583"><ele>592.0</ele><time>2026-04-23T12:49:50.477Z</time></trkpt><trkpt lat="45.542855" lon="10.2638067"><ele>597.0</ele><time>2026-04-23T12:49:51.481Z</time></trkpt><trkpt lat="45.542705" lon="10.2636283"><ele>602.0</ele><time>2026-04-23T12:49:52.477Z</time></trkpt><trkpt lat="45.54252" lon="10.263345"><ele>602.0</ele><time>2026-04-23T12:49:53.477Z</time></trkpt><trkpt lat="45.5424133" lon="10.26322"><ele>602.0</ele><time>2026-04-23T12:49:54.477Z</time></trkpt><trkpt lat="45.5423083" lon="10.2630783"><ele>602.0</ele><time>2026-04-23T12:49:55.477Z</time></trkpt><trkpt lat="45.542205" lon="10.262945"><ele>602.0</ele><time>2026-04-23T12:49:56.478Z</time></trkpt><trkpt lat="45.542135" lon="10.262805"><ele>599.5</ele><time>2026-04-23T12:49:57.476Z</time></trkpt><trkpt lat="45.5420767" lon="10.26266"><ele>597.0</ele><time>2026-04-23T12:49:58.479Z</time></trkpt><trkpt lat="45.5420583" lon="10.2625583"><ele>594.5</ele><time>2026-04-23T12:49:59.478Z</time></trkpt><trkpt lat="45.5420117" lon="10.2624733"><ele>592.0</ele><time>2026-04-23T12:50:00.477Z</time></trkpt><trkpt lat="45.5419633" lon="10.2624083"><ele>589.5</ele><time>2026-04-23T12:50:01.477Z</time></trkpt><trkpt lat="45.5418933" lon="10.262355"><ele>587.0</ele><time>2026-04-23T12:50:02.479Z</time></trkpt><trkpt lat="45.5418333" lon="10.262445"><ele>586.6666666666666</ele><time>2026-04-23T12:50:04.477Z</time></trkpt><trkpt lat="45.5417967" lon="10.2625183"><ele>586.3333333333333</ele><time>2026-04-23T12:50:05.477Z</time></trkpt><trkpt lat="45.5417667" lon="10.262605"><ele>586.0</ele><time>2026-04-23T12:50:06.477Z</time></trkpt><trkpt lat="45.5417417" lon="10.262745"><ele>585.6666666666666</ele><time>2026-04-23T12:50:08.478Z</time></trkpt><trkpt lat="45.54173" lon="10.2629017"><ele>585.3333333333334</ele><time>2026-04-23T12:50:10.477Z</time></trkpt><trkpt lat="45.5417183" lon="10.2629983"><ele>585.0</ele><time>2026-04-23T12:50:11.477Z</time></trkpt><trkpt lat="45.5417183" lon="10.2631083"><ele>585.4</ele><time>2026-04-23T12:50:12.477Z</time></trkpt><trkpt lat="45.5417183" lon="10.26323"><ele>585.8</ele><time>2026-04-23T12:50:13.477Z</time></trkpt><trkpt lat="45.541735" lon="10.2633567"><ele>586.2</ele><time>2026-04-23T12:50:14.478Z</time></trkpt><trkpt lat="45.5417633" lon="10.26349"><ele>586.6</ele><time>2026-04-23T12:50:15.477Z</time></trkpt><trkpt lat="45.5418067" lon="10.263605"><ele>587.0</ele><time>2026-04-23T12:50:16.479Z</time></trkpt><trkpt lat="45.5418617" lon="10.2637117"><ele>587.0</ele><time>2026-04-23T12:50:17.478Z</time></trkpt><trkpt lat="45.5419483" lon="10.26377"><ele>587.0</ele><time>2026-04-23T12:50:18.478Z</time></trkpt><trkpt lat="45.542025" lon="10.26383"><ele>587.0</ele><time>2026-04-23T12:50:19.477Z</time></trkpt><trkpt lat="45.5421117" lon="10.2639067"><ele>587.0</ele><time>2026-04-23T12:50:20.478Z</time></trkpt><trkpt lat="45.5422033" lon="10.264"><ele>587.0</ele><time>2026-04-23T12:50:21.478Z</time></trkpt><trkpt lat="45.5422817" lon="10.2641283"><ele>593.25</ele><time>2026-04-23T12:50:22.477Z</time></trkpt><trkpt lat="45.54235" lon="10.2642717"><ele>599.5</ele><time>2026-04-23T12:50:23.477Z</time></trkpt><trkpt lat="45.5423833" lon="10.2644533"><ele>605.75</ele><time>2026-04-23T12:50:24.477Z</time></trkpt><trkpt lat="45.54246" lon="10.2646167"><ele>612.0</ele><time>2026-04-23T12:50:25.478Z</time></trkpt><trkpt lat="45.5425467" lon="10.2647867"><ele>610.6666666666666</ele><time>2026-04-23T12:50:26.478Z</time></trkpt><trkpt lat="45.5426617" lon="10.2649633"><ele>609.3333333333333</ele><time>2026-04-23T12:50:27.476Z</time></trkpt><trkpt lat="45.5427917" lon="10.2651617"><ele>608.0</ele><time>2026-04-23T12:50:28.476Z</time></trkpt><trkpt lat="45.542945" lon="10.2653717"><ele>608.0</ele><time>2026-04-23T12:50:29.476Z</time></trkpt><trkpt lat="45.54309" lon="10.2655933"><ele>608.0</ele><time>2026-04-23T12:50:30.477Z</time></trkpt><trkpt lat="45.5432367" lon="10.2658267"><ele>608.0</ele><time>2026-04-23T12:50:31.477Z</time></trkpt><trkpt lat="45.5433567" lon="10.2660467"><ele>616.3333333333333</ele><time>2026-04-23T12:50:32.479Z</time></trkpt><trkpt lat="45.5434817" lon="10.266255"><ele>624.6666666666666</ele><time>2026-04-23T12:50:33.476Z</time></trkpt><trkpt lat="45.5436083" lon="10.2664567"><ele>633.0</ele><time>2026-04-23T12:50:34.477Z</time></trkpt><trkpt lat="45.5437233" lon="10.2666483"><ele>634.3333333333334</ele><time>2026-04-23T12:50:35.477Z</time></trkpt><trkpt lat="45.5438333" lon="10.2668283"><ele>635.6666666666667</ele><time>2026-04-23T12:50:36.476Z</time></trkpt><trkpt lat="45.5439617" lon="10.2669967"><ele>637.0</ele><time>2026-04-23T12:50:37.478Z</time></trkpt><trkpt lat="45.5440817" lon="10.2671283"><ele>637.0</ele><time>2026-04-23T12:50:38.479Z</time></trkpt><trkpt lat="45.544195" lon="10.26709"><ele>637.0</ele><time>2026-04-23T12:50:39.477Z</time></trkpt><trkpt lat="45.5442733" lon="10.2671467"><ele>637.0</ele><time>2026-04-23T12:50:40.478Z</time></trkpt><trkpt lat="45.5443117" lon="10.2672333"><ele>637.0</ele><time>2026-04-23T12:50:41.477Z</time></trkpt><trkpt lat="45.5443767" lon="10.2673"><ele>637.0</ele><time>2026-04-23T12:50:42.478Z</time></trkpt><trkpt lat="45.5442817" lon="10.2672783"><ele>637.0</ele><time>2026-04-23T12:50:45.476Z</time></trkpt><trkpt lat="45.5440267" lon="10.2671167"><ele>637.0</ele><time>2026-04-23T12:50:46.478Z</time></trkpt><trkpt lat="45.5438733" lon="10.2670367"><ele>637.0</ele><time>2026-04-23T12:50:47.477Z</time></trkpt><trkpt lat="45.5435617" lon="10.2668067"><ele>645.0</ele><time>2026-04-23T12:50:48.477Z</time></trkpt><trkpt lat="45.5432733" lon="10.2666633"><ele>653.0</ele><time>2026-04-23T12:50:49.477Z</time></trkpt><trkpt lat="45.5431033" lon="10.2665517"><ele>653.0</ele><time>2026-04-23T12:50:50.478Z</time></trkpt><trkpt lat="45.5429217" lon="10.2664617"><ele>653.0</ele><time>2026-04-23T12:50:51.476Z</time></trkpt><trkpt lat="45.5427383" lon="10.2663883"><ele>653.0</ele><time>2026-04-23T12:50:52.478Z</time></trkpt><trkpt lat="45.542505" lon="10.2663333"><ele>649.5</ele><time>2026-04-23T12:50:53.477Z</time></trkpt><trkpt lat="45.542325" lon="10.2663167"><ele>646.0</ele><time>2026-04-23T12:50:54.477Z</time></trkpt><trkpt lat="45.5421917" lon="10.2662817"><ele>642.5</ele><time>2026-04-23T12:50:55.478Z</time></trkpt><trkpt lat="45.5420583" lon="10.2662817"><ele>639.0</ele><time>2026-04-23T12:50:56.478Z</time></trkpt><trkpt lat="45.54194" lon="10.2663367"><ele>637.5</ele><time>2026-04-23T12:50:57.476Z</time></trkpt><trkpt lat="45.5418433" lon="10.2664383"><ele>636.0</ele><time>2026-04-23T12:50:58.478Z</time></trkpt><trkpt lat="45.5417733" lon="10.266595"><ele>634.5</ele><time>2026-04-23T12:50:59.479Z</time></trkpt><trkpt lat="45.5416783" lon="10.2667167"><ele>633.0</ele><time>2026-04-23T12:51:00.478Z</time></trkpt><trkpt lat="45.5416017" lon="10.2670167"><ele>636.75</ele><time>2026-04-23T12:51:01.477Z</time></trkpt><trkpt lat="45.54152" lon="10.2672017"><ele>640.5</ele><time>2026-04-23T12:51:02.478Z</time></trkpt><trkpt lat="45.5414717" lon="10.26736"><ele>644.25</ele><time>2026-04-23T12:51:03.478Z</time></trkpt><trkpt lat="45.5414383" lon="10.2675467"><ele>648.0</ele><time>2026-04-23T12:51:04.478Z</time></trkpt><trkpt lat="45.541435" lon="10.2677733"><ele>652.6666666666666</ele><time>2026-04-23T12:51:05.477Z</time></trkpt><trkpt lat="45.5414083" lon="10.268"><ele>657.3333333333333</ele><time>2026-04-23T12:51:06.477Z</time></trkpt><trkpt lat="45.5413867" lon="10.2682483"><ele>662.0</ele><time>2026-04-23T12:51:07.476Z</time></trkpt><trkpt lat="45.5413683" lon="10.26853"><ele>665.6666666666666</ele><time>2026-04-23T12:51:08.478Z</time></trkpt><trkpt lat="45.5413267" lon="10.2688567"><ele>669.3333333333334</ele><time>2026-04-23T12:51:09.477Z</time></trkpt><trkpt lat="45.5412733" lon="10.2691167"><ele>673.0</ele><time>2026-04-23T12:51:10.477Z</time></trkpt><trkpt lat="45.5412233" lon="10.2693717"><ele>674.6666666666667</ele><time>2026-04-23T12:51:11.477Z</time></trkpt><trkpt lat="45.5411683" lon="10.2696183"><ele>676.3333333333334</ele><time>2026-04-23T12:51:12.477Z</time></trkpt><trkpt lat="45.5411117" lon="10.2698617"><ele>678.0</ele><time>2026-04-23T12:51:13.477Z</time></trkpt><trkpt lat="45.5410483" lon="10.2700967"><ele>678.0</ele><time>2026-04-23T12:51:14.478Z</time></trkpt><trkpt lat="45.5409783" lon="10.2703383"><ele>678.0</ele><time>2026-04-23T12:51:15.476Z</time></trkpt><trkpt lat="45.5409033" lon="10.2705833"><ele>678.0</ele><time>2026-04-23T12:51:16.477Z</time></trkpt><trkpt lat="45.5408217" lon="10.2708167"><ele>684.0</ele><time>2026-04-23T12:51:17.477Z</time></trkpt><trkpt lat="45.540695" lon="10.2709733"><ele>690.0</ele><time>2026-04-23T12:51:18.476Z</time></trkpt><trkpt lat="45.5405833" lon="10.27115"><ele>696.0</ele><time>2026-04-23T12:51:19.477Z</time></trkpt><trkpt lat="45.5404917" lon="10.271345"><ele>696.3333333333334</ele><time>2026-04-23T12:51:20.478Z</time></trkpt><trkpt lat="45.5403933" lon="10.271525"><ele>696.6666666666667</ele><time>2026-04-23T12:51:21.478Z</time></trkpt><trkpt lat="45.5402883" lon="10.2717033"><ele>697.0</ele><time>2026-04-23T12:51:22.477Z</time></trkpt><trkpt lat="45.54019" lon="10.2718833"><ele>697.0</ele><time>2026-04-23T12:51:23.478Z</time></trkpt><trkpt lat="45.5400717" lon="10.2720317"><ele>697.0</ele><time>2026-04-23T12:51:24.478Z</time></trkpt><trkpt lat="45.53994" lon="10.2721567"><ele>697.0</ele><time>2026-04-23T12:51:25.476Z</time></trkpt><trkpt lat="45.5396633" lon="10.2721033"><ele>693.0</ele><time>2026-04-23T12:51:26.478Z</time></trkpt><trkpt lat="45.5394983" lon="10.27212"><ele>689.0</ele><time>2026-04-23T12:51:27.476Z</time></trkpt><trkpt lat="45.539235" lon="10.2720517"><ele>685.0</ele><time>2026-04-23T12:51:28.477Z</time></trkpt><trkpt lat="45.5391083" lon="10.27212"><ele>685.0</ele><time>2026-04-23T12:51:29.479Z</time></trkpt><trkpt lat="45.5390033" lon="10.2721833"><ele>685.0</ele><time>2026-04-23T12:51:30.48Z</time></trkpt><trkpt lat="45.53894" lon="10.2723017"><ele>685.0</ele><time>2026-04-23T12:51:31.478Z</time></trkpt><trkpt lat="45.53891" lon="10.27244"><ele>685.0</ele><time>2026-04-23T12:51:32.477Z</time></trkpt><trkpt lat="45.5390533" lon="10.2726433"><ele>685.5</ele><time>2026-04-23T12:51:33.476Z</time></trkpt><trkpt lat="45.5391117" lon="10.2728017"><ele>686.0</ele><time>2026-04-23T12:51:34.478Z</time></trkpt><trkpt lat="45.53918" lon="10.272965"><ele>686.5</ele><time>2026-04-23T12:51:35.478Z</time></trkpt><trkpt lat="45.5392733" lon="10.27309"><ele>687.0</ele><time>2026-04-23T12:51:36.478Z</time></trkpt><trkpt lat="45.5393883" lon="10.2731783"><ele>687.25</ele><time>2026-04-23T12:51:37.478Z</time></trkpt><trkpt lat="45.5394883" lon="10.27325"><ele>687.5</ele><time>2026-04-23T12:51:38.479Z</time></trkpt><trkpt lat="45.539585" lon="10.27329"><ele>687.75</ele><time>2026-04-23T12:51:39.478Z</time></trkpt><trkpt lat="45.5397333" lon="10.2732567"><ele>688.0</ele><time>2026-04-23T12:51:40.477Z</time></trkpt><trkpt lat="45.5399083" lon="10.273195"><ele>693.0</ele><time>2026-04-23T12:51:41.477Z</time></trkpt><trkpt lat="45.5400467" lon="10.2730833"><ele>698.0</ele><time>2026-04-23T12:51:42.477Z</time></trkpt><trkpt lat="45.5401783" lon="10.2729517"><ele>703.0</ele><time>2026-04-23T12:51:43.477Z</time></trkpt><trkpt lat="45.5402883" lon="10.272785"><ele>702.3333333333334</ele><time>2026-04-23T12:51:44.479Z</time></trkpt><trkpt lat="45.540395" lon="10.2726367"><ele>701.6666666666666</ele><time>2026-04-23T12:51:45.477Z</time></trkpt><trkpt lat="45.54051" lon="10.2724933"><ele>701.0</ele><time>2026-04-23T12:51:46.478Z</time></trkpt><trkpt lat="45.5406567" lon="10.27235"><ele>702.3333333333333</ele><time>2026-04-23T12:51:47.478Z</time></trkpt><trkpt lat="45.540805" lon="10.2722167"><ele>703.6666666666666</ele><time>2026-04-23T12:51:48.477Z</time></trkpt><trkpt lat="45.5409583" lon="10.27207"><ele>705.0</ele><time>2026-04-23T12:51:49.477Z</time></trkpt><trkpt lat="45.5411217" lon="10.271925"><ele>707.6666666666666</ele><time>2026-04-23T12:51:50.479Z</time></trkpt><trkpt lat="45.54128" lon="10.2717733"><ele>710.3333333333333</ele><time>2026-04-23T12:51:51.476Z</time></trkpt><trkpt lat="45.5414383" lon="10.2716217"><ele>713.0</ele><time>2026-04-23T12:51:52.478Z</time></trkpt><trkpt lat="45.5415883" lon="10.27148"><ele>713.6666666666666</ele><time>2026-04-23T12:51:53.478Z</time></trkpt><trkpt lat="45.54173" lon="10.2713533"><ele>714.3333333333334</ele><time>2026-04-23T12:51:54.478Z</time></trkpt><trkpt lat="45.5418533" lon="10.2712167"><ele>715.0</ele><time>2026-04-23T12:51:55.478Z</time></trkpt><trkpt lat="45.54198" lon="10.27108"><ele>717.0</ele><time>2026-04-23T12:51:56.48Z</time></trkpt><trkpt lat="45.5421133" lon="10.270955"><ele>719.0</ele><time>2026-04-23T12:51:57.477Z</time></trkpt><trkpt lat="45.5422367" lon="10.27082"><ele>721.0</ele><time>2026-04-23T12:51:58.477Z</time></trkpt><trkpt lat="45.5423417" lon="10.27069"><ele>720.5</ele><time>2026-04-23T12:51:59.478Z</time></trkpt><trkpt lat="45.5424533" lon="10.2705733"><ele>720.0</ele><time>2026-04-23T12:52:00.478Z</time></trkpt><trkpt lat="45.5425683" lon="10.270475"><ele>719.5</ele><time>2026-04-23T12:52:01.477Z</time></trkpt><trkpt lat="45.5426967" lon="10.2704117"><ele>719.0</ele><time>2026-04-23T12:52:02.479Z</time></trkpt><trkpt lat="45.5428317" lon="10.2703617"><ele>719.6666666666666</ele><time>2026-04-23T12:52:03.478Z</time></trkpt><trkpt lat="45.5430033" lon="10.27037"><ele>720.3333333333334</ele><time>2026-04-23T12:52:04.477Z</time></trkpt><trkpt lat="45.5431667" lon="10.2704033"><ele>721.0</ele><time>2026-04-23T12:52:05.478Z</time></trkpt><trkpt lat="45.54335" lon="10.2705033"><ele>721.0</ele><time>2026-04-23T12:52:06.477Z</time></trkpt><trkpt lat="45.54351" lon="10.2705617"><ele>721.0</ele><time>2026-04-23T12:52:07.478Z</time></trkpt><trkpt lat="45.5436967" lon="10.2706733"><ele>721.0</ele><time>2026-04-23T12:52:08.478Z</time></trkpt><trkpt lat="45.543885" lon="10.2708267"><ele>725.0</ele><time>2026-04-23T12:52:09.477Z</time></trkpt><trkpt lat="45.5440617" lon="10.2709667"><ele>729.0</ele><time>2026-04-23T12:52:10.478Z</time></trkpt><trkpt lat="45.5442833" lon="10.2711967"><ele>729.0</ele><time>2026-04-23T12:52:11.477Z</time></trkpt><trkpt lat="45.5444717" lon="10.2714133"><ele>729.0</ele><time>2026-04-23T12:52:12.477Z</time></trkpt><trkpt lat="45.5446383" lon="10.271585"><ele>729.0</ele><time>2026-04-23T12:52:13.479Z</time></trkpt><trkpt lat="45.5448117" lon="10.2717717"><ele>732.0</ele><time>2026-04-23T12:52:14.478Z</time></trkpt><trkpt lat="45.5449667" lon="10.2719367"><ele>735.0</ele><time>2026-04-23T12:52:15.477Z</time></trkpt><trkpt lat="45.54512" lon="10.272105"><ele>738.0</ele><time>2026-04-23T12:52:16.477Z</time></trkpt><trkpt lat="45.5452617" lon="10.2722517"><ele>741.5</ele><time>2026-04-23T12:52:17.477Z</time></trkpt><trkpt lat="45.5453733" lon="10.2723933"><ele>745.0</ele><time>2026-04-23T12:52:18.478Z</time></trkpt><trkpt lat="45.5454817" lon="10.2725117"><ele>748.5</ele><time>2026-04-23T12:52:19.477Z</time></trkpt><trkpt lat="45.5455833" lon="10.27262"><ele>752.0</ele><time>2026-04-23T12:52:20.477Z</time></trkpt><trkpt lat="45.5456767" lon="10.27271"><ele>752.6</ele><time>2026-04-23T12:52:21.478Z</time></trkpt><trkpt lat="45.5457667" lon="10.2726033"><ele>753.2</ele><time>2026-04-23T12:52:23.477Z</time></trkpt><trkpt lat="45.5458433" lon="10.2725717"><ele>753.8</ele><time>2026-04-23T12:52:24.477Z</time></trkpt><trkpt lat="45.5459217" lon="10.272575"><ele>754.4</ele><time>2026-04-23T12:52:25.478Z</time></trkpt><trkpt lat="45.5460117" lon="10.2725717"><ele>755.0</ele><time>2026-04-23T12:52:26.479Z</time></trkpt><trkpt lat="45.546105" lon="10.27255"><ele>755.0</ele><time>2026-04-23T12:52:27.478Z</time></trkpt><trkpt lat="45.5462017" lon="10.2725333"><ele>755.0</ele><time>2026-04-23T12:52:28.478Z</time></trkpt><trkpt lat="45.5462833" lon="10.2725117"><ele>755.0</ele><time>2026-04-23T12:52:29.478Z</time></trkpt><trkpt lat="45.5463583" lon="10.2725017"><ele>755.0</ele><time>2026-04-23T12:52:30.478Z</time></trkpt><trkpt lat="45.5464333" lon="10.2724967"><ele>755.0</ele><time>2026-04-23T12:52:31.478Z</time></trkpt><trkpt lat="45.5465083" lon="10.272525"><ele>755.0</ele><time>2026-04-23T12:52:32.478Z</time></trkpt><trkpt lat="45.54657" lon="10.27259"><ele>754.2</ele><time>2026-04-23T12:52:33.478Z</time></trkpt><trkpt lat="45.54659" lon="10.2726833"><ele>753.4</ele><time>2026-04-23T12:52:34.478Z</time></trkpt><trkpt lat="45.546555" lon="10.2728083"><ele>752.5999999999999</ele><time>2026-04-23T12:52:35.478Z</time></trkpt><trkpt lat="45.5464917" lon="10.2729083"><ele>751.8</ele><time>2026-04-23T12:52:36.478Z</time></trkpt><trkpt lat="45.5463783" lon="10.272965"><ele>751.0</ele><time>2026-04-23T12:52:37.478Z</time></trkpt><trkpt lat="45.54624" lon="10.2729633"><ele>752.0</ele><time>2026-04-23T12:52:38.478Z</time></trkpt><trkpt lat="45.546095" lon="10.2729283"><ele>753.0</ele><time>2026-04-23T12:52:39.478Z</time></trkpt><trkpt lat="45.5460033" lon="10.2729467"><ele>754.0</ele><time>2026-04-23T12:52:40.478Z</time></trkpt><trkpt lat="45.5459033" lon="10.2729783"><ele>755.0</ele><time>2026-04-23T12:52:41.478Z</time></trkpt><trkpt lat="45.5457817" lon="10.2730117"><ele>755.0</ele><time>2026-04-23T12:52:42.478Z</time></trkpt><trkpt lat="45.5456883" lon="10.2730467"><ele>755.0</ele><time>2026-04-23T12:52:43.477Z</time></trkpt><trkpt lat="45.5455383" lon="10.2731333"><ele>755.0</ele><time>2026-04-23T12:52:44.479Z</time></trkpt><trkpt lat="45.5453883" lon="10.273245"><ele>755.0</ele><time>2026-04-23T12:52:45.477Z</time></trkpt><trkpt lat="45.545215" lon="10.2733533"><ele>760.0</ele><time>2026-04-23T12:52:46.478Z</time></trkpt><trkpt lat="45.5450617" lon="10.2734433"><ele>765.0</ele><time>2026-04-23T12:52:47.477Z</time></trkpt><trkpt lat="45.5449417" lon="10.2735483"><ele>770.0</ele><time>2026-04-23T12:52:48.477Z</time></trkpt><trkpt lat="45.5448067" lon="10.2736467"><ele>770.0</ele><time>2026-04-23T12:52:49.477Z</time></trkpt><trkpt lat="45.5446917" lon="10.273785"><ele>770.0</ele><time>2026-04-23T12:52:50.478Z</time></trkpt><trkpt lat="45.5445833" lon="10.2738983"><ele>770.0</ele><time>2026-04-23T12:52:51.477Z</time></trkpt><trkpt lat="45.54451" lon="10.2740217"><ele>770.0</ele><time>2026-04-23T12:52:52.478Z</time></trkpt><trkpt lat="45.5445083" lon="10.27422"><ele>767.3333333333334</ele><time>2026-04-23T12:52:53.477Z</time></trkpt><trkpt lat="45.5445283" lon="10.2744167"><ele>764.6666666666667</ele><time>2026-04-23T12:52:54.477Z</time></trkpt><trkpt lat="45.5445683" lon="10.274645"><ele>762.0</ele><time>2026-04-23T12:52:55.477Z</time></trkpt><trkpt lat="45.5445983" lon="10.2748717"><ele>764.0</ele><time>2026-04-23T12:52:56.478Z</time></trkpt><trkpt lat="45.5446167" lon="10.2750717"><ele>766.0</ele><time>2026-04-23T12:52:57.479Z</time></trkpt><trkpt lat="45.5446183" lon="10.275255"><ele>768.0</ele><time>2026-04-23T12:52:58.479Z</time></trkpt><trkpt lat="45.5445833" lon="10.2754233"><ele>770.0</ele><time>2026-04-23T12:52:59.478Z</time></trkpt><trkpt lat="45.5445217" lon="10.2755783"><ele>773.25</ele><time>2026-04-23T12:53:00.477Z</time></trkpt><trkpt lat="45.5444617" lon="10.2757317"><ele>776.5</ele><time>2026-04-23T12:53:01.478Z</time></trkpt><trkpt lat="45.5443917" lon="10.2758883"><ele>779.75</ele><time>2026-04-23T12:53:02.48Z</time></trkpt><trkpt lat="45.5443117" lon="10.2760283"><ele>783.0</ele><time>2026-04-23T12:53:03.477Z</time></trkpt><trkpt lat="45.5442317" lon="10.2761683"><ele>783.0</ele><time>2026-04-23T12:53:04.478Z</time></trkpt><trkpt lat="45.5441667" lon="10.2763083"><ele>783.0</ele><time>2026-04-23T12:53:05.477Z</time></trkpt><trkpt lat="45.5441217" lon="10.2764467"><ele>783.0</ele><time>2026-04-23T12:53:06.479Z</time></trkpt><trkpt lat="45.5441233" lon="10.2765983"><ele>783.0</ele><time>2026-04-23T12:53:07.477Z</time></trkpt><trkpt lat="45.5441233" lon="10.276755"><ele>783.0</ele><time>2026-04-23T12:53:08.477Z</time></trkpt><trkpt lat="45.5441517" lon="10.276915"><ele>785.0</ele><time>2026-04-23T12:53:09.476Z</time></trkpt><trkpt lat="45.5441983" lon="10.2770983"><ele>787.0</ele><time>2026-04-23T12:53:10.477Z</time></trkpt><trkpt lat="45.5442617" lon="10.2772917"><ele>789.0</ele><time>2026-04-23T12:53:11.478Z</time></trkpt><trkpt lat="45.5443233" lon="10.2774783"><ele>791.0</ele><time>2026-04-23T12:53:12.477Z</time></trkpt><trkpt lat="45.5443783" lon="10.27765"><ele>791.0</ele><time>2026-04-23T12:53:13.477Z</time></trkpt><trkpt lat="45.544445" lon="10.2777983"><ele>791.0</ele><time>2026-04-23T12:53:14.478Z</time></trkpt><trkpt lat="45.54452" lon="10.27792"><ele>791.0</ele><time>2026-04-23T12:53:15.477Z</time></trkpt><trkpt lat="45.5446033" lon="10.2780083"><ele>791.0</ele><time>2026-04-23T12:53:16.478Z</time></trkpt><trkpt lat="45.54471" lon="10.2780617"><ele>791.5</ele><time>2026-04-23T12:53:17.478Z</time></trkpt><trkpt lat="45.54483" lon="10.2780983"><ele>792.0</ele><time>2026-04-23T12:53:18.477Z</time></trkpt><trkpt lat="45.5449433" lon="10.278155"><ele>792.5</ele><time>2026-04-23T12:53:19.479Z</time></trkpt><trkpt lat="45.5450567" lon="10.2782367"><ele>793.0</ele><time>2026-04-23T12:53:20.478Z</time></trkpt><trkpt lat="45.545155" lon="10.27831"><ele>793.0</ele><time>2026-04-23T12:53:21.478Z</time></trkpt><trkpt lat="45.54525" lon="10.2783883"><ele>793.0</ele><time>2026-04-23T12:53:22.478Z</time></trkpt><trkpt lat="45.545315" lon="10.27844"><ele>793.0</ele><time>2026-04-23T12:53:23.478Z</time></trkpt><trkpt lat="45.5453783" lon="10.2785533"><ele>793.0</ele><time>2026-04-23T12:53:25.479Z</time></trkpt><trkpt lat="45.54542" lon="10.278655"><ele>793.0</ele><time>2026-04-23T12:53:27.477Z</time></trkpt><trkpt lat="45.5454333" lon="10.2787767"><ele>793.6666666666666</ele><time>2026-04-23T12:53:30.477Z</time></trkpt><trkpt lat="45.545425" lon="10.2788933"><ele>794.3333333333333</ele><time>2026-04-23T12:53:33.477Z</time></trkpt><trkpt lat="45.5454683" lon="10.27896"><ele>795.0</ele><time>2026-04-23T12:53:37.478Z</time></trkpt><trkpt lat="45.5454917" lon="10.278875"><ele>795.6666666666667</ele><time>2026-04-23T12:53:41.479Z</time></trkpt><trkpt lat="45.5454367" lon="10.27881"><ele>796.3333333333334</ele><time>2026-04-23T12:53:46.477Z</time></trkpt><trkpt lat="45.5454517" lon="10.27866"><ele>797.0</ele><time>2026-04-23T13:40:07.481Z</time></trkpt><trkpt lat="45.5454033" lon="10.278525"><ele>796.2</ele><time>2026-04-23T13:40:09.48Z</time></trkpt><trkpt lat="45.5453267" lon="10.27841"><ele>795.4000000000001</ele><time>2026-04-23T13:40:11.483Z</time></trkpt><trkpt lat="45.5452333" lon="10.27831"><ele>794.5999999999999</ele><time>2026-04-23T13:40:13.481Z</time></trkpt><trkpt lat="45.54513" lon="10.2782017"><ele>793.8</ele><time>2026-04-23T13:40:15.48Z</time></trkpt><trkpt lat="45.5450667" lon="10.2781417"><ele>793.0</ele><time>2026-04-23T13:40:16.481Z</time></trkpt><trkpt lat="45.544995" lon="10.2780983"><ele>792.6666666666666</ele><time>2026-04-23T13:40:17.48Z</time></trkpt><trkpt lat="45.54492" lon="10.2780733"><ele>792.3333333333333</ele><time>2026-04-23T13:40:18.48Z</time></trkpt><trkpt lat="45.5448433" lon="10.278065"><ele>792.0</ele><time>2026-04-23T13:40:19.481Z</time></trkpt><trkpt lat="45.5447683" lon="10.278055"><ele>791.6666666666667</ele><time>2026-04-23T13:40:20.483Z</time></trkpt><trkpt lat="45.5446933" lon="10.2780367"><ele>791.3333333333334</ele><time>2026-04-23T13:40:21.48Z</time></trkpt><trkpt lat="45.544615" lon="10.277995"><ele>791.0</ele><time>2026-04-23T13:40:22.48Z</time></trkpt><trkpt lat="45.544545" lon="10.27792"><ele>791.0</ele><time>2026-04-23T13:40:23.48Z</time></trkpt><trkpt lat="45.5444817" lon="10.27783"><ele>791.0</ele><time>2026-04-23T13:40:24.48Z</time></trkpt><trkpt lat="45.5444333" lon="10.2777083"><ele>791.0</ele><time>2026-04-23T13:40:25.481Z</time></trkpt><trkpt lat="45.5443867" lon="10.277585"><ele>791.0</ele><time>2026-04-23T13:40:26.481Z</time></trkpt><trkpt lat="45.5443417" lon="10.2774567"><ele>791.0</ele><time>2026-04-23T13:40:27.48Z</time></trkpt><trkpt lat="45.5442983" lon="10.27733"><ele>791.5999999999999</ele><time>2026-04-23T13:40:28.48Z</time></trkpt><trkpt lat="45.5442533" lon="10.2771983"><ele>792.2</ele><time>2026-04-23T13:40:29.48Z</time></trkpt><trkpt lat="45.5442117" lon="10.277075"><ele>792.8</ele><time>2026-04-23T13:40:30.481Z</time></trkpt><trkpt lat="45.5441733" lon="10.2769517"><ele>793.4000000000001</ele><time>2026-04-23T13:40:31.481Z</time></trkpt><trkpt lat="45.544145" lon="10.2768217"><ele>794.0</ele><time>2026-04-23T13:40:32.482Z</time></trkpt><trkpt lat="45.5441333" lon="10.2766883"><ele>794.0</ele><time>2026-04-23T13:40:33.48Z</time></trkpt><trkpt lat="45.5441417" lon="10.27655"><ele>794.0</ele><time>2026-04-23T13:40:34.481Z</time></trkpt><trkpt lat="45.5441617" lon="10.2764217"><ele>794.0</ele><time>2026-04-23T13:40:35.481Z</time></trkpt><trkpt lat="45.544205" lon="10.2763"><ele>794.0</ele><time>2026-04-23T13:40:36.481Z</time></trkpt><trkpt lat="45.54427" lon="10.276175"><ele>794.0</ele><time>2026-04-23T13:40:37.48Z</time></trkpt><trkpt lat="45.544335" lon="10.27605"><ele>793.4000000000001</ele><time>2026-04-23T13:40:38.481Z</time></trkpt><trkpt lat="45.54439" lon="10.2759217"><ele>792.8</ele><time>2026-04-23T13:40:39.48Z</time></trkpt><trkpt lat="45.544445" lon="10.275795"><ele>792.2</ele><time>2026-04-23T13:40:40.48Z</time></trkpt><trkpt lat="45.5445017" lon="10.275665"><ele>791.5999999999999</ele><time>2026-04-23T13:40:41.48Z</time></trkpt><trkpt lat="45.5445533" lon="10.2755367"><ele>791.0</ele><time>2026-04-23T13:40:42.48Z</time></trkpt><trkpt lat="45.5446" lon="10.2754067"><ele>791.0000000000001</ele><time>2026-04-23T13:40:43.48Z</time></trkpt><trkpt lat="45.5446167" lon="10.27528"><ele>791.0</ele><time>2026-04-23T13:40:44.48Z</time></trkpt><trkpt lat="45.5446283" lon="10.27516"><ele>791.0</ele><time>2026-04-23T13:40:45.481Z</time></trkpt><trkpt lat="45.544625" lon="10.2750417"><ele>791.0</ele><time>2026-04-23T13:40:46.48Z</time></trkpt><trkpt lat="45.54462" lon="10.2749267"><ele>791.0000000000001</ele><time>2026-04-23T13:40:47.48Z</time></trkpt><trkpt lat="45.544615" lon="10.27481"><ele>791.0</ele><time>2026-04-23T13:40:48.481Z</time></trkpt><trkpt lat="45.5446067" lon="10.2746783"><ele>789.4</ele><time>2026-04-23T13:40:49.48Z</time></trkpt><trkpt lat="45.5446" lon="10.2745467"><ele>787.8</ele><time>2026-04-23T13:40:50.481Z</time></trkpt><trkpt lat="45.5446" lon="10.274405"><ele>786.1999999999999</ele><time>2026-04-23T13:40:51.48Z</time></trkpt><trkpt lat="45.5446033" lon="10.2742617"><ele>784.5999999999999</ele><time>2026-04-23T13:40:52.48Z</time></trkpt><trkpt lat="45.5446233" lon="10.2741167"><ele>783.0</ele><time>2026-04-23T13:40:53.481Z</time></trkpt><trkpt lat="45.5446633" lon="10.273985"><ele>780.4</ele><time>2026-04-23T13:40:54.48Z</time></trkpt><trkpt lat="45.544725" lon="10.2738633"><ele>777.8</ele><time>2026-04-23T13:40:55.481Z</time></trkpt><trkpt lat="45.5448117" lon="10.2737683"><ele>775.2</ele><time>2026-04-23T13:40:56.482Z</time></trkpt><trkpt lat="45.544915" lon="10.2736983"><ele>772.6</ele><time>2026-04-23T13:40:57.48Z</time></trkpt><trkpt lat="45.54502" lon="10.273645"><ele>770.0</ele><time>2026-04-23T13:40:58.48Z</time></trkpt><trkpt lat="45.5451233" lon="10.2735933"><ele>770.0</ele><time>2026-04-23T13:40:59.48Z</time></trkpt><trkpt lat="45.545225" lon="10.27353"><ele>770.0</ele><time>2026-04-23T13:41:00.48Z</time></trkpt><trkpt lat="45.5453267" lon="10.2734583"><ele>770.0</ele><time>2026-04-23T13:41:01.479Z</time></trkpt><trkpt lat="45.5454233" lon="10.2733733"><ele>770.0</ele><time>2026-04-23T13:41:02.48Z</time></trkpt><trkpt lat="45.545525" lon="10.273285"><ele>769.75</ele><time>2026-04-23T13:41:03.481Z</time></trkpt><trkpt lat="45.5456267" lon="10.2731867"><ele>769.5</ele><time>2026-04-23T13:41:04.48Z</time></trkpt><trkpt lat="45.545725" lon="10.2730933"><ele>769.25</ele><time>2026-04-23T13:41:05.481Z</time></trkpt><trkpt lat="45.545825" lon="10.2730217"><ele>769.0</ele><time>2026-04-23T13:41:06.48Z</time></trkpt><trkpt lat="45.5459283" lon="10.2729717"><ele>766.2</ele><time>2026-04-23T13:41:07.48Z</time></trkpt><trkpt lat="45.5460317" lon="10.272955"><ele>763.4000000000001</ele><time>2026-04-23T13:41:08.48Z</time></trkpt><trkpt lat="45.5461383" lon="10.2729633"><ele>760.6</ele><time>2026-04-23T13:41:09.481Z</time></trkpt><trkpt lat="45.5462333" lon="10.2729883"><ele>757.8</ele><time>2026-04-23T13:41:10.479Z</time></trkpt><trkpt lat="45.54632" lon="10.273015"><ele>755.0</ele><time>2026-04-23T13:41:11.48Z</time></trkpt><trkpt lat="45.5464" lon="10.2730083"><ele>754.4285714285714</ele><time>2026-04-23T13:41:12.481Z</time></trkpt><trkpt lat="45.54647" lon="10.2729717"><ele>753.8571428571429</ele><time>2026-04-23T13:41:13.48Z</time></trkpt><trkpt lat="45.5465167" lon="10.2729"><ele>753.2857142857143</ele><time>2026-04-23T13:41:14.481Z</time></trkpt><trkpt lat="45.5465567" lon="10.2728233"><ele>752.7142857142858</ele><time>2026-04-23T13:41:15.48Z</time></trkpt><trkpt lat="45.5465433" lon="10.2727133"><ele>752.1428571428571</ele><time>2026-04-23T13:41:16.48Z</time></trkpt><trkpt lat="45.5465183" lon="10.2726133"><ele>751.5714285714287</ele><time>2026-04-23T13:41:17.481Z</time></trkpt><trkpt lat="45.54647" lon="10.272525"><ele>751.0</ele><time>2026-04-23T13:41:18.481Z</time></trkpt><trkpt lat="45.5464" lon="10.27247"><ele>751.0</ele><time>2026-04-23T13:41:19.48Z</time></trkpt><trkpt lat="45.5463117" lon="10.2724617"><ele>751.0</ele><time>2026-04-23T13:41:20.481Z</time></trkpt><trkpt lat="45.54621" lon="10.272475"><ele>751.0</ele><time>2026-04-23T13:41:21.48Z</time></trkpt><trkpt lat="45.546105" lon="10.27249"><ele>751.0</ele><time>2026-04-23T13:41:22.481Z</time></trkpt><trkpt lat="45.5459933" lon="10.2725033"><ele>751.0</ele><time>2026-04-23T13:41:23.48Z</time></trkpt><trkpt lat="45.5458867" lon="10.2725217"><ele>751.8</ele><time>2026-04-23T13:41:24.48Z</time></trkpt><trkpt lat="45.545775" lon="10.27253"><ele>752.5999999999999</ele><time>2026-04-23T13:41:25.48Z</time></trkpt><trkpt lat="45.5456717" lon="10.272535"><ele>753.4</ele><time>2026-04-23T13:41:26.481Z</time></trkpt><trkpt lat="45.5455683" lon="10.2725367"><ele>754.2</ele><time>2026-04-23T13:41:27.479Z</time></trkpt><trkpt lat="45.54547" lon="10.2725333"><ele>755.0</ele><time>2026-04-23T13:41:28.48Z</time></trkpt><trkpt lat="45.5453817" lon="10.2725317"><ele>754.5</ele><time>2026-04-23T13:41:29.48Z</time></trkpt><trkpt lat="45.545295" lon="10.272525"><ele>754.0</ele><time>2026-04-23T13:41:30.479Z</time></trkpt><trkpt lat="45.5452133" lon="10.272495"><ele>753.5</ele><time>2026-04-23T13:41:31.479Z</time></trkpt><trkpt lat="45.5451383" lon="10.2724417"><ele>753.0</ele><time>2026-04-23T13:41:32.481Z</time></trkpt><trkpt lat="45.545075" lon="10.2723517"><ele>752.5</ele><time>2026-04-23T13:41:33.479Z</time></trkpt><trkpt lat="45.5450133" lon="10.2722567"><ele>752.0</ele><time>2026-04-23T13:41:34.481Z</time></trkpt><trkpt lat="45.5449567" lon="10.2721517"><ele>749.2</ele><time>2026-04-23T13:41:35.48Z</time></trkpt><trkpt lat="45.54489" lon="10.2720417"><ele>746.4000000000001</ele><time>2026-04-23T13:41:36.48Z</time></trkpt><trkpt lat="45.5448167" lon="10.271945"><ele>743.5999999999999</ele><time>2026-04-23T13:41:37.48Z</time></trkpt><trkpt lat="45.544735" lon="10.271835"><ele>740.8</ele><time>2026-04-23T13:41:38.48Z</time></trkpt><trkpt lat="45.5446467" lon="10.271725"><ele>738.0</ele><time>2026-04-23T13:41:39.48Z</time></trkpt><trkpt lat="45.54456" lon="10.27161"><ele>739.0</ele><time>2026-04-23T13:41:40.481Z</time></trkpt><trkpt lat="45.544465" lon="10.271495"><ele>740.0</ele><time>2026-04-23T13:41:41.479Z</time></trkpt><trkpt lat="45.5443633" lon="10.2713983"><ele>741.0</ele><time>2026-04-23T13:41:42.479Z</time></trkpt><trkpt lat="45.5442617" lon="10.27131"><ele>742.0</ele><time>2026-04-23T13:41:43.48Z</time></trkpt><trkpt lat="45.5441667" lon="10.2712083"><ele>738.75</ele><time>2026-04-23T13:41:44.48Z</time></trkpt><trkpt lat="45.5440683" lon="10.271105"><ele>735.5</ele><time>2026-04-23T13:41:45.48Z</time></trkpt><trkpt lat="45.54397" lon="10.2710083"><ele>732.25</ele><time>2026-04-23T13:41:46.482Z</time></trkpt><trkpt lat="45.543875" lon="10.270905"><ele>729.0</ele><time>2026-04-23T13:41:47.48Z</time></trkpt><trkpt lat="45.5437817" lon="10.2708033"><ele>728.0</ele><time>2026-04-23T13:41:48.482Z</time></trkpt><trkpt lat="45.5436833" lon="10.27071"><ele>727.0</ele><time>2026-04-23T13:41:49.48Z</time></trkpt><trkpt lat="45.5435833" lon="10.2706267"><ele>726.0</ele><time>2026-04-23T13:41:50.481Z</time></trkpt><trkpt lat="45.543475" lon="10.2705517"><ele>725.0</ele><time>2026-04-23T13:41:51.48Z</time></trkpt><trkpt lat="45.5433633" lon="10.2704883"><ele>724.0</ele><time>2026-04-23T13:41:52.481Z</time></trkpt><trkpt lat="45.54325" lon="10.27044"><ele>723.0</ele><time>2026-04-23T13:41:53.481Z</time></trkpt><trkpt lat="45.5431333" lon="10.270415"><ele>722.0</ele><time>2026-04-23T13:41:54.48Z</time></trkpt><trkpt lat="45.5430167" lon="10.2704117"><ele>721.0</ele><time>2026-04-23T13:41:55.481Z</time></trkpt><trkpt lat="45.5429033" lon="10.270425"><ele>721.0</ele><time>2026-04-23T13:41:56.48Z</time></trkpt><trkpt lat="45.54279" lon="10.270445"><ele>721.0</ele><time>2026-04-23T13:41:57.48Z</time></trkpt><trkpt lat="45.5426783" lon="10.2704917"><ele>721.0</ele><time>2026-04-23T13:41:58.482Z</time></trkpt><trkpt lat="45.542565" lon="10.2705467"><ele>721.0</ele><time>2026-04-23T13:41:59.482Z</time></trkpt><trkpt lat="45.5424617" lon="10.270615"><ele>721.0</ele><time>2026-04-23T13:42:00.482Z</time></trkpt><trkpt lat="45.542365" lon="10.27069"><ele>721.0</ele><time>2026-04-23T13:42:01.48Z</time></trkpt><trkpt lat="45.5422683" lon="10.2707717"><ele>721.0</ele><time>2026-04-23T13:42:02.481Z</time></trkpt><trkpt lat="45.5421683" lon="10.2708583"><ele>721.0</ele><time>2026-04-23T13:42:03.48Z</time></trkpt><trkpt lat="45.542075" lon="10.2709517"><ele>719.5</ele><time>2026-04-23T13:42:04.48Z</time></trkpt><trkpt lat="45.54198" lon="10.2710367"><ele>718.0</ele><time>2026-04-23T13:42:05.481Z</time></trkpt><trkpt lat="45.5418867" lon="10.271125"><ele>716.5</ele><time>2026-04-23T13:42:06.481Z</time></trkpt><trkpt lat="45.541795" lon="10.27122"><ele>715.0</ele><time>2026-04-23T13:42:07.481Z</time></trkpt><trkpt lat="45.5417" lon="10.2713117"><ele>715.0</ele><time>2026-04-23T13:42:08.48Z</time></trkpt><trkpt lat="45.541605" lon="10.271405"><ele>715.0</ele><time>2026-04-23T13:42:09.48Z</time></trkpt><trkpt lat="45.5415083" lon="10.2715"><ele>715.0</ele><time>2026-04-23T13:42:10.481Z</time></trkpt><trkpt lat="45.54141" lon="10.271595"><ele>715.0</ele><time>2026-04-23T13:42:11.48Z</time></trkpt><trkpt lat="45.5413083" lon="10.2716933"><ele>712.5</ele><time>2026-04-23T13:42:12.481Z</time></trkpt><trkpt lat="45.541205" lon="10.2717967"><ele>710.0</ele><time>2026-04-23T13:42:13.481Z</time></trkpt><trkpt lat="45.5410967" lon="10.2719017"><ele>707.5</ele><time>2026-04-23T13:42:14.481Z</time></trkpt><trkpt lat="45.5409833" lon="10.2720067"><ele>705.0</ele><time>2026-04-23T13:42:15.48Z</time></trkpt><trkpt lat="45.5408683" lon="10.2721067"><ele>705.0</ele><time>2026-04-23T13:42:16.48Z</time></trkpt><trkpt lat="45.5407583" lon="10.2722117"><ele>705.0</ele><time>2026-04-23T13:42:17.48Z</time></trkpt><trkpt lat="45.5406483" lon="10.2723117"><ele>705.0</ele><time>2026-04-23T13:42:18.48Z</time></trkpt><trkpt lat="45.5405417" lon="10.27242"><ele>705.0</ele><time>2026-04-23T13:42:19.48Z</time></trkpt><trkpt lat="45.540445" lon="10.2725367"><ele>704.5</ele><time>2026-04-23T13:42:20.482Z</time></trkpt><trkpt lat="45.5403567" lon="10.272665"><ele>704.0</ele><time>2026-04-23T13:42:21.481Z</time></trkpt><trkpt lat="45.540265" lon="10.2727967"><ele>703.5</ele><time>2026-04-23T13:42:22.48Z</time></trkpt><trkpt lat="45.5401667" lon="10.2729183"><ele>703.0</ele><time>2026-04-23T13:42:23.48Z</time></trkpt><trkpt lat="45.5400583" lon="10.2730233"><ele>703.0</ele><time>2026-04-23T13:42:24.481Z</time></trkpt><trkpt lat="45.5399417" lon="10.2731033"><ele>703.0</ele><time>2026-04-23T13:42:25.48Z</time></trkpt><trkpt lat="45.5398233" lon="10.273155"><ele>703.0</ele><time>2026-04-23T13:42:26.481Z</time></trkpt><trkpt lat="45.5397033" lon="10.2731783"><ele>703.0</ele><time>2026-04-23T13:42:27.48Z</time></trkpt><trkpt lat="45.53959" lon="10.273175"><ele>699.0</ele><time>2026-04-23T13:42:28.48Z</time></trkpt><trkpt lat="45.5394783" lon="10.2731417"><ele>695.0</ele><time>2026-04-23T13:42:29.48Z</time></trkpt><trkpt lat="45.5393767" lon="10.27307"><ele>691.0</ele><time>2026-04-23T13:42:30.48Z</time></trkpt><trkpt lat="45.5392917" lon="10.272965"><ele>687.0</ele><time>2026-04-23T13:42:31.48Z</time></trkpt><trkpt lat="45.5392167" lon="10.2728417"><ele>687.0</ele><time>2026-04-23T13:42:32.48Z</time></trkpt><trkpt lat="45.5391517" lon="10.2727033"><ele>687.0</ele><time>2026-04-23T13:42:33.48Z</time></trkpt><trkpt lat="45.5390983" lon="10.2725583"><ele>687.0</ele><time>2026-04-23T13:42:34.48Z</time></trkpt><trkpt lat="45.5390583" lon="10.27241"><ele>687.0</ele><time>2026-04-23T13:42:35.48Z</time></trkpt><trkpt lat="45.5390333" lon="10.2722583"><ele>686.6</ele><time>2026-04-23T13:42:36.48Z</time></trkpt><trkpt lat="45.539025" lon="10.2721083"><ele>686.2</ele><time>2026-04-23T13:42:37.481Z</time></trkpt><trkpt lat="45.5390367" lon="10.2719617"><ele>685.8</ele><time>2026-04-23T13:42:38.481Z</time></trkpt><trkpt lat="45.53907" lon="10.27182"><ele>685.4</ele><time>2026-04-23T13:42:39.48Z</time></trkpt><trkpt lat="45.5391183" lon="10.2716833"><ele>685.0</ele><time>2026-04-23T13:42:40.48Z</time></trkpt><trkpt lat="45.539185" lon="10.2715533"><ele>683.25</ele><time>2026-04-23T13:42:41.479Z</time></trkpt><trkpt lat="45.539265" lon="10.2714333"><ele>681.5</ele><time>2026-04-23T13:42:42.48Z</time></trkpt><trkpt lat="45.5393533" lon="10.2713267"><ele>679.75</ele><time>2026-04-23T13:42:43.481Z</time></trkpt><trkpt lat="45.539455" lon="10.27124"><ele>678.0</ele><time>2026-04-23T13:42:44.481Z</time></trkpt><trkpt lat="45.5395633" lon="10.2711683"><ele>678.0</ele><time>2026-04-23T13:42:45.48Z</time></trkpt><trkpt lat="45.5396733" lon="10.2711"><ele>678.0</ele><time>2026-04-23T13:42:46.48Z</time></trkpt><trkpt lat="45.5397883" lon="10.2710283"><ele>678.0</ele><time>2026-04-23T13:42:47.481Z</time></trkpt><trkpt lat="45.539905" lon="10.270955"><ele>678.0</ele><time>2026-04-23T13:42:48.48Z</time></trkpt><trkpt lat="45.5400167" lon="10.27088"><ele>678.0</ele><time>2026-04-23T13:42:49.48Z</time></trkpt><trkpt lat="45.540125" lon="10.2707983"><ele>678.0</ele><time>2026-04-23T13:42:50.481Z</time></trkpt><trkpt lat="45.5402333" lon="10.2707133"><ele>678.0</ele><time>2026-04-23T13:42:51.481Z</time></trkpt><trkpt lat="45.540345" lon="10.27062"><ele>678.0</ele><time>2026-04-23T13:42:52.48Z</time></trkpt><trkpt lat="45.5404517" lon="10.2705133"><ele>678.0</ele><time>2026-04-23T13:42:53.48Z</time></trkpt><trkpt lat="45.5405433" lon="10.270395"><ele>678.0</ele><time>2026-04-23T13:42:54.48Z</time></trkpt><trkpt lat="45.54063" lon="10.2702717"><ele>678.0</ele><time>2026-04-23T13:42:55.481Z</time></trkpt><trkpt lat="45.5407117" lon="10.270145"><ele>678.0</ele><time>2026-04-23T13:42:56.481Z</time></trkpt><trkpt lat="45.5407933" lon="10.2700167"><ele>678.0</ele><time>2026-04-23T13:42:57.48Z</time></trkpt><trkpt lat="45.5408783" lon="10.2698883"><ele>678.0</ele><time>2026-04-23T13:42:58.48Z</time></trkpt><trkpt lat="45.5409683" lon="10.2697717"><ele>678.0</ele><time>2026-04-23T13:42:59.48Z</time></trkpt><trkpt lat="45.5410583" lon="10.26965"><ele>678.0</ele><time>2026-04-23T13:43:00.481Z</time></trkpt><trkpt lat="45.5411417" lon="10.2695233"><ele>676.75</ele><time>2026-04-23T13:43:01.481Z</time></trkpt><trkpt lat="45.5412117" lon="10.269385"><ele>675.5</ele><time>2026-04-23T13:43:02.481Z</time></trkpt><trkpt lat="45.5412733" lon="10.2692383"><ele>674.25</ele><time>2026-04-23T13:43:03.48Z</time></trkpt><trkpt lat="45.5413217" lon="10.26908"><ele>673.0</ele><time>2026-04-23T13:43:04.48Z</time></trkpt><trkpt lat="45.5413617" lon="10.2689133"><ele>673.0</ele><time>2026-04-23T13:43:05.48Z</time></trkpt><trkpt lat="45.5413967" lon="10.268745"><ele>673.0</ele><time>2026-04-23T13:43:06.481Z</time></trkpt><trkpt lat="45.5414333" lon="10.2685767"><ele>673.0</ele><time>2026-04-23T13:43:07.481Z</time></trkpt><trkpt lat="45.54147" lon="10.2684067"><ele>673.0</ele><time>2026-04-23T13:43:08.481Z</time></trkpt><trkpt lat="45.541505" lon="10.2682417"><ele>670.25</ele><time>2026-04-23T13:43:09.481Z</time></trkpt><trkpt lat="45.541535" lon="10.26808"><ele>667.5</ele><time>2026-04-23T13:43:10.48Z</time></trkpt><trkpt lat="45.5415667" lon="10.2679217"><ele>664.75</ele><time>2026-04-23T13:43:11.481Z</time></trkpt><trkpt lat="45.5415967" lon="10.2677617"><ele>662.0</ele><time>2026-04-23T13:43:12.481Z</time></trkpt><trkpt lat="45.5416317" lon="10.2676017"><ele>662.0</ele><time>2026-04-23T13:43:13.481Z</time></trkpt><trkpt lat="45.5416667" lon="10.2674417"><ele>662.0</ele><time>2026-04-23T13:43:14.48Z</time></trkpt><trkpt lat="45.541715" lon="10.2672833"><ele>662.0</ele><time>2026-04-23T13:43:15.481Z</time></trkpt><trkpt lat="45.5417733" lon="10.2671367"><ele>662.0</ele><time>2026-04-23T13:43:16.48Z</time></trkpt><trkpt lat="45.5418417" lon="10.2670017"><ele>660.0</ele><time>2026-04-23T13:43:17.481Z</time></trkpt><trkpt lat="45.5419233" lon="10.2668783"><ele>658.0</ele><time>2026-04-23T13:43:18.479Z</time></trkpt><trkpt lat="45.5420183" lon="10.2667667"><ele>656.0</ele><time>2026-04-23T13:43:19.48Z</time></trkpt><trkpt lat="45.5421217" lon="10.266675"><ele>654.0</ele><time>2026-04-23T13:43:20.481Z</time></trkpt><trkpt lat="45.54223" lon="10.2665933"><ele>654.0</ele><time>2026-04-23T13:43:21.481Z</time></trkpt><trkpt lat="45.5423433" lon="10.2665267"><ele>654.0</ele><time>2026-04-23T13:43:22.48Z</time></trkpt><trkpt lat="45.54246" lon="10.266475"><ele>654.0</ele><time>2026-04-23T13:43:23.48Z</time></trkpt><trkpt lat="45.542575" lon="10.266445"><ele>654.0</ele><time>2026-04-23T13:43:24.48Z</time></trkpt><trkpt lat="45.542695" lon="10.2664417"><ele>654.0</ele><time>2026-04-23T13:43:25.48Z</time></trkpt><trkpt lat="45.5428117" lon="10.2664517"><ele>654.0</ele><time>2026-04-23T13:43:26.48Z</time></trkpt><trkpt lat="45.5429333" lon="10.2664783"><ele>654.0</ele><time>2026-04-23T13:43:27.48Z</time></trkpt><trkpt lat="45.54307" lon="10.2665167"><ele>654.0</ele><time>2026-04-23T13:43:28.48Z</time></trkpt><trkpt lat="45.5432117" lon="10.2665617"><ele>653.75</ele><time>2026-04-23T13:43:29.481Z</time></trkpt><trkpt lat="45.5433483" lon="10.2666167"><ele>653.5</ele><time>2026-04-23T13:43:30.48Z</time></trkpt><trkpt lat="45.5434767" lon="10.2666833"><ele>653.25</ele><time>2026-04-23T13:43:31.48Z</time></trkpt><trkpt lat="45.5435983" lon="10.2667683"><ele>653.0</ele><time>2026-04-23T13:43:32.481Z</time></trkpt><trkpt lat="45.5437133" lon="10.2668617"><ele>649.0</ele><time>2026-04-23T13:43:33.481Z</time></trkpt><trkpt lat="45.543825" lon="10.2669483"><ele>645.0</ele><time>2026-04-23T13:43:34.479Z</time></trkpt><trkpt lat="45.543935" lon="10.2670317"><ele>641.0</ele><time>2026-04-23T13:43:35.48Z</time></trkpt><trkpt lat="45.544035" lon="10.2670967"><ele>637.0</ele><time>2026-04-23T13:43:36.48Z</time></trkpt><trkpt lat="45.5441267" lon="10.26712"><ele>637.0</ele><time>2026-04-23T13:43:37.48Z</time></trkpt><trkpt lat="45.5442" lon="10.2670933"><ele>637.0</ele><time>2026-04-23T13:43:38.481Z</time></trkpt><trkpt lat="45.5442617" lon="10.2670383"><ele>637.0</ele><time>2026-04-23T13:43:39.481Z</time></trkpt><trkpt lat="45.5442967" lon="10.2669567"><ele>637.0</ele><time>2026-04-23T13:43:40.48Z</time></trkpt><trkpt lat="45.544295" lon="10.26685"><ele>637.0</ele><time>2026-04-23T13:43:41.48Z</time></trkpt><trkpt lat="45.5442117" lon="10.2667517"><ele>637.0</ele><time>2026-04-23T13:43:42.48Z</time></trkpt><trkpt lat="45.544125" lon="10.26667"><ele>637.0</ele><time>2026-04-23T13:43:43.48Z</time></trkpt><trkpt lat="45.5440217" lon="10.2665767"><ele>637.0</ele><time>2026-04-23T13:43:44.48Z</time></trkpt><trkpt lat="45.5439083" lon="10.2664717"><ele>637.0</ele><time>2026-04-23T13:43:45.479Z</time></trkpt><trkpt lat="45.5437967" lon="10.266345"><ele>637.0</ele><time>2026-04-23T13:43:46.479Z</time></trkpt><trkpt lat="45.543685" lon="10.2662033"><ele>635.6666666666667</ele><time>2026-04-23T13:43:47.479Z</time></trkpt><trkpt lat="45.5435633" lon="10.2660533"><ele>634.3333333333334</ele><time>2026-04-23T13:43:48.479Z</time></trkpt><trkpt lat="45.5434333" lon="10.2658967"><ele>633.0</ele><time>2026-04-23T13:43:49.478Z</time></trkpt><trkpt lat="45.5433033" lon="10.2657267"><ele>624.6666666666666</ele><time>2026-04-23T13:43:50.479Z</time></trkpt><trkpt lat="45.543165" lon="10.2655467"><ele>616.3333333333333</ele><time>2026-04-23T13:43:51.479Z</time></trkpt><trkpt lat="45.5430217" lon="10.2653767"><ele>608.0</ele><time>2026-04-23T13:43:52.479Z</time></trkpt><trkpt lat="45.5428867" lon="10.2652083"><ele>609.3333333333333</ele><time>2026-04-23T13:43:53.479Z</time></trkpt><trkpt lat="45.5427667" lon="10.2650433"><ele>610.6666666666666</ele><time>2026-04-23T13:43:54.48Z</time></trkpt><trkpt lat="45.5426533" lon="10.264875"><ele>612.0</ele><time>2026-04-23T13:43:55.478Z</time></trkpt><trkpt lat="45.5425583" lon="10.2647"><ele>612.0</ele><time>2026-04-23T13:43:56.48Z</time></trkpt><trkpt lat="45.5424917" lon="10.264505"><ele>612.0</ele><time>2026-04-23T13:43:57.479Z</time></trkpt><trkpt lat="45.5424483" lon="10.2643033"><ele>612.0</ele><time>2026-04-23T13:43:58.479Z</time></trkpt><trkpt lat="45.54241" lon="10.264115"><ele>612.0</ele><time>2026-04-23T13:43:59.479Z</time></trkpt><trkpt lat="45.54237" lon="10.26395"><ele>610.0</ele><time>2026-04-23T13:44:00.479Z</time></trkpt><trkpt lat="45.5423133" lon="10.2638233"><ele>608.0</ele><time>2026-04-23T13:44:01.479Z</time></trkpt><trkpt lat="45.54224" lon="10.26373"><ele>606.0</ele><time>2026-04-23T13:44:02.479Z</time></trkpt><trkpt lat="45.542145" lon="10.26368"><ele>604.0</ele><time>2026-04-23T13:44:03.479Z</time></trkpt><trkpt lat="45.5420467" lon="10.2636633"><ele>602.0</ele><time>2026-04-23T13:44:04.479Z</time></trkpt><trkpt lat="45.541955" lon="10.2636583"><ele>599.0</ele><time>2026-04-23T13:44:05.479Z</time></trkpt><trkpt lat="45.5418767" lon="10.2636317"><ele>596.0</ele><time>2026-04-23T13:44:06.479Z</time></trkpt><trkpt lat="45.5418033" lon="10.26357"><ele>593.0</ele><time>2026-04-23T13:44:07.479Z</time></trkpt><trkpt lat="45.5417517" lon="10.26347"><ele>590.0</ele><time>2026-04-23T13:44:08.48Z</time></trkpt><trkpt lat="45.5417333" lon="10.2633317"><ele>587.0</ele><time>2026-04-23T13:44:09.479Z</time></trkpt><trkpt lat="45.5417333" lon="10.2631767"><ele>586.5</ele><time>2026-04-23T13:44:10.48Z</time></trkpt><trkpt lat="45.5417533" lon="10.2630133"><ele>586.0</ele><time>2026-04-23T13:44:11.479Z</time></trkpt><trkpt lat="45.5417883" lon="10.26286"><ele>585.5</ele><time>2026-04-23T13:44:12.479Z</time></trkpt><trkpt lat="45.5418467" lon="10.2627067"><ele>585.0</ele><time>2026-04-23T13:44:13.48Z</time></trkpt><trkpt lat="45.5419217" lon="10.2625733"><ele>585.0</ele><time>2026-04-23T13:44:14.479Z</time></trkpt><trkpt lat="45.542005" lon="10.262475"><ele>585.0</ele><time>2026-04-23T13:44:15.48Z</time></trkpt><trkpt lat="45.54209" lon="10.262415"><ele>585.0</ele><time>2026-04-23T13:44:16.479Z</time></trkpt><trkpt lat="45.5421667" lon="10.2623883"><ele>585.0</ele><time>2026-04-23T13:44:17.479Z</time></trkpt><trkpt lat="45.542235" lon="10.26241"><ele>585.0</ele><time>2026-04-23T13:44:18.479Z</time></trkpt><trkpt lat="45.5423017" lon="10.26249"><ele>585.0</ele><time>2026-04-23T13:44:19.479Z</time></trkpt><trkpt lat="45.54235" lon="10.26261"><ele>585.3333333333334</ele><time>2026-04-23T13:44:20.479Z</time></trkpt><trkpt lat="45.5423633" lon="10.2627433"><ele>585.6666666666666</ele><time>2026-04-23T13:44:21.479Z</time></trkpt><trkpt lat="45.5423817" lon="10.2628567"><ele>586.0</ele><time>2026-04-23T13:44:22.48Z</time></trkpt><trkpt lat="45.54241" lon="10.2629667"><ele>586.3333333333333</ele><time>2026-04-23T13:44:23.479Z</time></trkpt><trkpt lat="45.5424483" lon="10.2630683"><ele>586.6666666666666</ele><time>2026-04-23T13:44:24.479Z</time></trkpt><trkpt lat="45.542505" lon="10.2631417"><ele>587.0</ele><time>2026-04-23T13:44:25.479Z</time></trkpt><trkpt lat="45.5426033" lon="10.2631633"><ele>584.5</ele><time>2026-04-23T13:44:26.48Z</time></trkpt><trkpt lat="45.5427217" lon="10.2631933"><ele>582.0</ele><time>2026-04-23T13:44:27.479Z</time></trkpt><trkpt lat="45.5428267" lon="10.2632517"><ele>579.5</ele><time>2026-04-23T13:44:28.479Z</time></trkpt><trkpt lat="45.542935" lon="10.263335"><ele>577.0</ele><time>2026-04-23T13:44:29.48Z</time></trkpt><trkpt lat="45.543035" lon="10.26344"><ele>577.0</ele><time>2026-04-23T13:44:30.479Z</time></trkpt><trkpt lat="45.54312" lon="10.2635583"><ele>577.0</ele><time>2026-04-23T13:44:31.479Z</time></trkpt><trkpt lat="45.543195" lon="10.2636983"><ele>577.0</ele><time>2026-04-23T13:44:32.48Z</time></trkpt><trkpt lat="45.5432567" lon="10.26385"><ele>577.0</ele><time>2026-04-23T13:44:33.479Z</time></trkpt><trkpt lat="45.543315" lon="10.264005"><ele>580.0</ele><time>2026-04-23T13:44:34.479Z</time></trkpt><trkpt lat="45.5433667" lon="10.26414"><ele>583.0</ele><time>2026-04-23T13:44:35.479Z</time></trkpt><trkpt lat="45.5434283" lon="10.264245"><ele>586.0</ele><time>2026-04-23T13:44:36.479Z</time></trkpt><trkpt lat="45.5434967" lon="10.264305"><ele>589.0</ele><time>2026-04-23T13:44:37.479Z</time></trkpt><trkpt lat="45.54358" lon="10.2643333"><ele>592.0</ele><time>2026-04-23T13:44:38.482Z</time></trkpt><trkpt lat="45.54366" lon="10.2643"><ele>589.0</ele><time>2026-04-23T13:44:39.479Z</time></trkpt><trkpt lat="45.54374" lon="10.2642233"><ele>586.0</ele><time>2026-04-23T13:44:40.481Z</time></trkpt><trkpt lat="45.5438233" lon="10.2641383"><ele>583.0</ele><time>2026-04-23T13:44:41.479Z</time></trkpt><trkpt lat="45.5439067" lon="10.264055"><ele>580.0</ele><time>2026-04-23T13:44:42.48Z</time></trkpt><trkpt lat="45.5440033" lon="10.2640083"><ele>577.0</ele><time>2026-04-23T13:44:43.48Z</time></trkpt><trkpt lat="45.5441033" lon="10.2640017"><ele>577.0</ele><time>2026-04-23T13:44:44.48Z</time></trkpt><trkpt lat="45.5442033" lon="10.26403"><ele>577.0</ele><time>2026-04-23T13:44:45.48Z</time></trkpt><trkpt lat="45.5442933" lon="10.2640683"><ele>577.0</ele><time>2026-04-23T13:44:46.479Z</time></trkpt><trkpt lat="45.5443767" lon="10.264105"><ele>577.0</ele><time>2026-04-23T13:44:47.479Z</time></trkpt><trkpt lat="45.54445" lon="10.2641233"><ele>577.0</ele><time>2026-04-23T13:44:48.48Z</time></trkpt><trkpt lat="45.5445433" lon="10.2640917"><ele>574.0</ele><time>2026-04-23T13:44:50.48Z</time></trkpt><trkpt lat="45.544515" lon="10.263945"><ele>571.0</ele><time>2026-04-23T13:44:52.479Z</time></trkpt><trkpt lat="45.54446" lon="10.2638867"><ele>568.0</ele><time>2026-04-23T13:44:53.479Z</time></trkpt><trkpt lat="45.54439" lon="10.2638367"><ele>565.0</ele><time>2026-04-23T13:44:54.479Z</time></trkpt><trkpt lat="45.54431" lon="10.2638"><ele>562.0</ele><time>2026-04-23T13:44:55.479Z</time></trkpt><trkpt lat="45.5442233" lon="10.263785"><ele>559.0</ele><time>2026-04-23T13:44:56.48Z</time></trkpt><trkpt lat="45.544135" lon="10.26377"><ele>559.0</ele><time>2026-04-23T13:44:57.479Z</time></trkpt><trkpt lat="45.5440433" lon="10.2637533"><ele>559.0</ele><time>2026-04-23T13:44:58.479Z</time></trkpt><trkpt lat="45.5439533" lon="10.26372"><ele>559.0</ele><time>2026-04-23T13:44:59.48Z</time></trkpt><trkpt lat="45.5438783" lon="10.2636567"><ele>559.0</ele><time>2026-04-23T13:45:00.481Z</time></trkpt><trkpt lat="45.5438167" lon="10.2635683"><ele>559.0</ele><time>2026-04-23T13:45:01.48Z</time></trkpt><trkpt lat="45.5437733" lon="10.2634617"><ele>559.0</ele><time>2026-04-23T13:45:02.48Z</time></trkpt><trkpt lat="45.5437517" lon="10.26332"><ele>559.0</ele><time>2026-04-23T13:45:03.48Z</time></trkpt><trkpt lat="45.54376" lon="10.263155"><ele>559.0</ele><time>2026-04-23T13:45:04.479Z</time></trkpt><trkpt lat="45.5437817" lon="10.2629967"><ele>559.0</ele><time>2026-04-23T13:45:05.48Z</time></trkpt><trkpt lat="45.5437867" lon="10.2628417"><ele>559.0</ele><time>2026-04-23T13:45:06.48Z</time></trkpt><trkpt lat="45.5437667" lon="10.2626883"><ele>559.0</ele><time>2026-04-23T13:45:07.479Z</time></trkpt><trkpt lat="45.5437267" lon="10.26256"><ele>560.0</ele><time>2026-04-23T13:45:08.48Z</time></trkpt><trkpt lat="45.54367" lon="10.2624383"><ele>561.0</ele><time>2026-04-23T13:45:09.48Z</time></trkpt><trkpt lat="45.543605" lon="10.262335"><ele>562.0</ele><time>2026-04-23T13:45:10.479Z</time></trkpt><trkpt lat="45.5435433" lon="10.2622617"><ele>563.0</ele><time>2026-04-23T13:45:11.48Z</time></trkpt><trkpt lat="45.54345" lon="10.2621717"><ele>564.0</ele><time>2026-04-23T13:45:13.48Z</time></trkpt><trkpt lat="45.543375" lon="10.26209"><ele>561.8333333333334</ele><time>2026-04-23T13:45:15.48Z</time></trkpt><trkpt lat="45.5433233" lon="10.262025"><ele>559.6666666666666</ele><time>2026-04-23T13:45:17.479Z</time></trkpt><trkpt lat="45.5432733" lon="10.26194"><ele>557.5</ele><time>2026-04-23T13:45:21.479Z</time></trkpt><trkpt lat="45.5432233" lon="10.261865"><ele>555.3333333333333</ele><time>2026-04-23T13:45:29.478Z</time></trkpt><trkpt lat="45.5431733" lon="10.2617217"><ele>553.1666666666666</ele><time>2026-04-23T13:45:31.479Z</time></trkpt><trkpt lat="45.5431483" lon="10.261635"><ele>551.0</ele><time>2026-04-23T13:45:32.479Z</time></trkpt><trkpt lat="45.5431317" lon="10.261545"><ele>549.8333333333333</ele><time>2026-04-23T13:45:33.479Z</time></trkpt><trkpt lat="45.5431183" lon="10.26144"><ele>548.6666666666666</ele><time>2026-04-23T13:45:34.479Z</time></trkpt><trkpt lat="45.543115" lon="10.2613233"><ele>547.5</ele><time>2026-04-23T13:45:35.479Z</time></trkpt><trkpt lat="45.5431217" lon="10.261195"><ele>546.3333333333334</ele><time>2026-04-23T13:45:36.48Z</time></trkpt><trkpt lat="45.54314" lon="10.2610633"><ele>545.1666666666667</ele><time>2026-04-23T13:45:37.479Z</time></trkpt><trkpt lat="45.5431667" lon="10.2609333"><ele>544.0</ele><time>2026-04-23T13:45:38.477Z</time></trkpt><trkpt lat="45.5431983" lon="10.260805"><ele>544.0</ele><time>2026-04-23T13:45:39.477Z</time></trkpt><trkpt lat="45.5432267" lon="10.26067"><ele>544.0</ele><time>2026-04-23T13:45:40.477Z</time></trkpt><trkpt lat="45.543265" lon="10.2605333"><ele>544.0</ele><time>2026-04-23T13:45:41.478Z</time></trkpt><trkpt lat="45.5433" lon="10.260395"><ele>544.0</ele><time>2026-04-23T13:45:42.479Z</time></trkpt><trkpt lat="45.543325" lon="10.2602483"><ele>544.0</ele><time>2026-04-23T13:45:43.479Z</time></trkpt><trkpt lat="45.5433283" lon="10.2601067"><ele>542.8</ele><time>2026-04-23T13:45:44.479Z</time></trkpt><trkpt lat="45.5433033" lon="10.2599617"><ele>541.5999999999999</ele><time>2026-04-23T13:45:45.48Z</time></trkpt><trkpt lat="45.5432633" lon="10.2598217"><ele>540.4</ele><time>2026-04-23T13:45:46.478Z</time></trkpt><trkpt lat="45.5432133" lon="10.2596767"><ele>539.1999999999999</ele><time>2026-04-23T13:45:47.479Z</time></trkpt><trkpt lat="45.5431567" lon="10.2595333"><ele>538.0</ele><time>2026-04-23T13:45:48.479Z</time></trkpt><trkpt lat="45.5430967" lon="10.2593917"><ele>535.8</ele><time>2026-04-23T13:45:49.481Z</time></trkpt><trkpt lat="45.5430383" lon="10.2592517"><ele>533.5999999999999</ele><time>2026-04-23T13:45:50.479Z</time></trkpt><trkpt lat="45.5429867" lon="10.2591117"><ele>531.4000000000001</ele><time>2026-04-23T13:45:51.479Z</time></trkpt><trkpt lat="45.54294" lon="10.2589717"><ele>529.2</ele><time>2026-04-23T13:45:52.478Z</time></trkpt><trkpt lat="45.5428983" lon="10.2588267"><ele>527.0</ele><time>2026-04-23T13:45:53.479Z</time></trkpt><trkpt lat="45.5428633" lon="10.258685"><ele>526.6</ele><time>2026-04-23T13:45:54.479Z</time></trkpt><trkpt lat="45.542835" lon="10.2585467"><ele>526.2</ele><time>2026-04-23T13:45:55.478Z</time></trkpt><trkpt lat="45.5428067" lon="10.2584183"><ele>525.8</ele><time>2026-04-23T13:45:56.479Z</time></trkpt><trkpt lat="45.54277" lon="10.2582983"><ele>525.4</ele><time>2026-04-23T13:45:57.477Z</time></trkpt><trkpt lat="45.5427167" lon="10.258195"><ele>525.0</ele><time>2026-04-23T13:45:58.476Z</time></trkpt><trkpt lat="45.54265" lon="10.2581183"><ele>525.0</ele><time>2026-04-23T13:45:59.477Z</time></trkpt><trkpt lat="45.5425733" lon="10.2580867"><ele>525.0</ele><time>2026-04-23T13:46:00.477Z</time></trkpt><trkpt lat="45.54248" lon="10.25812"><ele>525.0</ele><time>2026-04-23T13:46:01.478Z</time></trkpt><trkpt lat="45.5423867" lon="10.2581717"><ele>525.0</ele><time>2026-04-23T13:46:02.479Z</time></trkpt><trkpt lat="45.5422917" lon="10.2582117"><ele>525.0</ele><time>2026-04-23T13:46:03.478Z</time></trkpt><trkpt lat="45.5421967" lon="10.2582517"><ele>525.0</ele><time>2026-04-23T13:46:04.478Z</time></trkpt><trkpt lat="45.5421" lon="10.2582917"><ele>525.0</ele><time>2026-04-23T13:46:05.478Z</time></trkpt><trkpt lat="45.5419933" lon="10.2583417"><ele>525.0</ele><time>2026-04-23T13:46:06.477Z</time></trkpt><trkpt lat="45.5418833" lon="10.2584133"><ele>525.0</ele><time>2026-04-23T13:46:07.478Z</time></trkpt><trkpt lat="45.5417783" lon="10.2585133"><ele>522.0</ele><time>2026-04-23T13:46:08.478Z</time></trkpt><trkpt lat="45.5416733" lon="10.2586217"><ele>519.0</ele><time>2026-04-23T13:46:09.478Z</time></trkpt><trkpt lat="45.54156" lon="10.258705"><ele>516.0</ele><time>2026-04-23T13:46:10.478Z</time></trkpt><trkpt lat="45.5414333" lon="10.2587383"><ele>513.0</ele><time>2026-04-23T13:46:11.477Z</time></trkpt><trkpt lat="45.5413083" lon="10.25874"><ele>508.5</ele><time>2026-04-23T13:46:12.479Z</time></trkpt><trkpt lat="45.5411833" lon="10.2587417"><ele>504.0</ele><time>2026-04-23T13:46:13.478Z</time></trkpt><trkpt lat="45.5410533" lon="10.2587633"><ele>499.5</ele><time>2026-04-23T13:46:14.479Z</time></trkpt><trkpt lat="45.5409333" lon="10.2588133"><ele>495.0</ele><time>2026-04-23T13:46:15.478Z</time></trkpt><trkpt lat="45.5408233" lon="10.2589017"><ele>497.6</ele><time>2026-04-23T13:46:16.479Z</time></trkpt><trkpt lat="45.5407317" lon="10.2590217"><ele>500.2</ele><time>2026-04-23T13:46:17.478Z</time></trkpt><trkpt lat="45.54066" lon="10.259155"><ele>502.79999999999995</ele><time>2026-04-23T13:46:18.48Z</time></trkpt><trkpt lat="45.5406083" lon="10.2592883"><ele>505.4</ele><time>2026-04-23T13:46:19.479Z</time></trkpt><trkpt lat="45.5405717" lon="10.2594167"><ele>508.0</ele><time>2026-04-23T13:46:20.48Z</time></trkpt><trkpt lat="45.5405333" lon="10.2595217"><ele>508.0</ele><time>2026-04-23T13:46:21.477Z</time></trkpt><trkpt lat="45.5404883" lon="10.2595917"><ele>507.99999999999994</ele><time>2026-04-23T13:46:22.478Z</time></trkpt><trkpt lat="45.5404017" lon="10.2595167"><ele>507.99999999999994</ele><time>2026-04-23T13:46:24.478Z</time></trkpt><trkpt lat="45.540405" lon="10.259395"><ele>508.0</ele><time>2026-04-23T13:46:25.478Z</time></trkpt><trkpt lat="45.54045" lon="10.2592533"><ele>508.0</ele><time>2026-04-23T13:46:26.478Z</time></trkpt><trkpt lat="45.5405467" lon="10.2590717"><ele>503.6666666666667</ele><time>2026-04-23T13:46:27.477Z</time></trkpt><trkpt lat="45.540645" lon="10.258865"><ele>499.33333333333337</ele><time>2026-04-23T13:46:28.477Z</time></trkpt><trkpt lat="45.5407433" lon="10.258655"><ele>495.0</ele><time>2026-04-23T13:46:29.476Z</time></trkpt><trkpt lat="45.5408517" lon="10.2584783"><ele>495.0</ele><time>2026-04-23T13:46:30.478Z</time></trkpt><trkpt lat="45.54097" lon="10.2583283"><ele>495.0</ele><time>2026-04-23T13:46:31.478Z</time></trkpt><trkpt lat="45.541085" lon="10.2581967"><ele>495.0</ele><time>2026-04-23T13:46:32.479Z</time></trkpt><trkpt lat="45.5411883" lon="10.2580617"><ele>495.0</ele><time>2026-04-23T13:46:33.478Z</time></trkpt><trkpt lat="45.5412667" lon="10.2579083"><ele>495.5</ele><time>2026-04-23T13:46:34.478Z</time></trkpt><trkpt lat="45.5413183" lon="10.257725"><ele>496.0</ele><time>2026-04-23T13:46:35.477Z</time></trkpt><trkpt lat="45.5413567" lon="10.25753"><ele>496.5</ele><time>2026-04-23T13:46:36.478Z</time></trkpt><trkpt lat="45.5413967" lon="10.25734"><ele>497.0</ele><time>2026-04-23T13:46:37.477Z</time></trkpt><trkpt lat="45.54145" lon="10.25718"><ele>494.99999999999994</ele><time>2026-04-23T13:46:38.48Z</time></trkpt><trkpt lat="45.5415083" lon="10.25705"><ele>493.0</ele><time>2026-04-23T13:46:39.477Z</time></trkpt><trkpt lat="45.5415533" lon="10.2569417"><ele>491.0</ele><time>2026-04-23T13:46:40.477Z</time></trkpt><trkpt lat="45.541575" lon="10.2568483"><ele>489.0</ele><time>2026-04-23T13:46:41.478Z</time></trkpt><trkpt lat="45.5415567" lon="10.256755"><ele>486.99999999999994</ele><time>2026-04-23T13:46:42.477Z</time></trkpt><trkpt lat="45.5414917" lon="10.2567067"><ele>485.0</ele><time>2026-04-23T13:46:43.478Z</time></trkpt><trkpt lat="45.54142" lon="10.25672"><ele>485.0</ele><time>2026-04-23T13:46:44.478Z</time></trkpt><trkpt lat="45.5413483" lon="10.25677"><ele>485.0</ele><time>2026-04-23T13:46:45.477Z</time></trkpt><trkpt lat="45.5412917" lon="10.2568733"><ele>485.0</ele><time>2026-04-23T13:46:46.477Z</time></trkpt><trkpt lat="45.5412383" lon="10.25702"><ele>485.0</ele><time>2026-04-23T13:46:47.478Z</time></trkpt><trkpt lat="45.5411583" lon="10.2571767"><ele>485.0</ele><time>2026-04-23T13:46:48.477Z</time></trkpt><trkpt lat="45.5410583" lon="10.2573183"><ele>483.0</ele><time>2026-04-23T13:46:49.479Z</time></trkpt><trkpt lat="45.5409417" lon="10.2574483"><ele>481.0</ele><time>2026-04-23T13:46:50.48Z</time></trkpt><trkpt lat="45.5408133" lon="10.257585"><ele>479.0</ele><time>2026-04-23T13:46:51.477Z</time></trkpt><trkpt lat="45.5406817" lon="10.2577283"><ele>479.0</ele><time>2026-04-23T13:46:52.479Z</time></trkpt><trkpt lat="45.540555" lon="10.2578717"><ele>479.0</ele><time>2026-04-23T13:46:53.481Z</time></trkpt><trkpt lat="45.540435" lon="10.2580117"><ele>479.0</ele><time>2026-04-23T13:46:54.478Z</time></trkpt><trkpt lat="45.5403217" lon="10.258145"><ele>478.0</ele><time>2026-04-23T13:46:55.477Z</time></trkpt><trkpt lat="45.5402117" lon="10.2582683"><ele>477.0</ele><time>2026-04-23T13:46:56.478Z</time></trkpt><trkpt lat="45.5401067" lon="10.2583867"><ele>476.0</ele><time>2026-04-23T13:46:57.478Z</time></trkpt><trkpt lat="45.5400017" lon="10.258485"><ele>475.0</ele><time>2026-04-23T13:46:58.479Z</time></trkpt><trkpt lat="45.539895" lon="10.2585517"><ele>475.0</ele><time>2026-04-23T13:46:59.479Z</time></trkpt><trkpt lat="45.5397867" lon="10.2585933"><ele>475.0</ele><time>2026-04-23T13:47:00.48Z</time></trkpt><trkpt lat="45.5396767" lon="10.258635"><ele>475.0</ele><time>2026-04-23T13:47:01.479Z</time></trkpt><trkpt lat="45.539585" lon="10.2587133"><ele>475.0</ele><time>2026-04-23T13:47:02.48Z</time></trkpt><trkpt lat="45.539515" lon="10.2588267"><ele>475.0</ele><time>2026-04-23T13:47:03.477Z</time></trkpt><trkpt lat="45.5394667" lon="10.25896"><ele>471.6666666666667</ele><time>2026-04-23T13:47:04.478Z</time></trkpt><trkpt lat="45.5394233" lon="10.2590767"><ele>468.33333333333337</ele><time>2026-04-23T13:47:05.479Z</time></trkpt><trkpt lat="45.5393717" lon="10.2591583"><ele>465.0</ele><time>2026-04-23T13:47:06.478Z</time></trkpt><trkpt lat="45.5393083" lon="10.2591533"><ele>461.66666666666663</ele><time>2026-04-23T13:47:07.48Z</time></trkpt><trkpt lat="45.5392567" lon="10.2590783"><ele>458.3333333333333</ele><time>2026-04-23T13:47:08.481Z</time></trkpt><trkpt lat="45.5392467" lon="10.25896"><ele>455.0</ele><time>2026-04-23T13:47:09.478Z</time></trkpt><trkpt lat="45.539295" lon="10.2587883"><ele>453.3333333333333</ele><time>2026-04-23T13:47:10.481Z</time></trkpt><trkpt lat="45.5393883" lon="10.258605"><ele>451.66666666666663</ele><time>2026-04-23T13:47:11.479Z</time></trkpt><trkpt lat="45.53951" lon="10.2584183"><ele>450.0</ele><time>2026-04-23T13:47:12.478Z</time></trkpt><trkpt lat="45.5396317" lon="10.2582283"><ele>452.33333333333337</ele><time>2026-04-23T13:47:13.479Z</time></trkpt><trkpt lat="45.5397367" lon="10.258025"><ele>454.6666666666667</ele><time>2026-04-23T13:47:14.479Z</time></trkpt><trkpt lat="45.539815" lon="10.257815"><ele>457.0</ele><time>2026-04-23T13:47:15.478Z</time></trkpt><trkpt lat="45.5398717" lon="10.257595"><ele>457.0</ele><time>2026-04-23T13:47:16.478Z</time></trkpt><trkpt lat="45.5399283" lon="10.257385"><ele>457.0</ele><time>2026-04-23T13:47:17.478Z</time></trkpt><trkpt lat="45.53999" lon="10.2572"><ele>457.0</ele><time>2026-04-23T13:47:18.479Z</time></trkpt><trkpt lat="45.540065" lon="10.2570383"><ele>457.0</ele><time>2026-04-23T13:47:19.48Z</time></trkpt><trkpt lat="45.5401533" lon="10.2569"><ele>458.75</ele><time>2026-04-23T13:47:20.479Z</time></trkpt><trkpt lat="45.5402567" lon="10.2567867"><ele>460.5</ele><time>2026-04-23T13:47:21.477Z</time></trkpt><trkpt lat="45.5403583" lon="10.2566833"><ele>462.25</ele><time>2026-04-23T13:47:22.479Z</time></trkpt><trkpt lat="45.5404533" lon="10.25657"><ele>464.0</ele><time>2026-04-23T13:47:23.479Z</time></trkpt><trkpt lat="45.540525" lon="10.2564367"><ele>459.5</ele><time>2026-04-23T13:47:24.479Z</time></trkpt><trkpt lat="45.540575" lon="10.2562833"><ele>455.0</ele><time>2026-04-23T13:47:25.477Z</time></trkpt><trkpt lat="45.5406183" lon="10.2561183"><ele>450.5</ele><time>2026-04-23T13:47:26.479Z</time></trkpt><trkpt lat="45.5406567" lon="10.2559383"><ele>446.0</ele><time>2026-04-23T13:47:27.478Z</time></trkpt><trkpt lat="45.5407117" lon="10.25576"><ele>440.75</ele><time>2026-04-23T13:47:28.48Z</time></trkpt><trkpt lat="45.5407783" lon="10.2555883"><ele>435.5</ele><time>2026-04-23T13:47:29.477Z</time></trkpt><trkpt lat="45.5408583" lon="10.255425"><ele>430.25</ele><time>2026-04-23T13:47:30.478Z</time></trkpt><trkpt lat="45.5409517" lon="10.2552683"><ele>425.0</ele><time>2026-04-23T13:47:31.479Z</time></trkpt><trkpt lat="45.541055" lon="10.2551183"><ele>425.0</ele><time>2026-04-23T13:47:32.479Z</time></trkpt><trkpt lat="45.5411667" lon="10.25498"><ele>425.0</ele><time>2026-04-23T13:47:33.477Z</time></trkpt><trkpt lat="45.5412883" lon="10.2548483"><ele>425.0</ele><time>2026-04-23T13:47:34.478Z</time></trkpt><trkpt lat="45.5414083" lon="10.2547117"><ele>424.75</ele><time>2026-04-23T13:47:35.479Z</time></trkpt><trkpt lat="45.541515" lon="10.2545783"><ele>424.5</ele><time>2026-04-23T13:47:36.479Z</time></trkpt><trkpt lat="45.5416017" lon="10.25443"><ele>424.25</ele><time>2026-04-23T13:47:37.479Z</time></trkpt><trkpt lat="45.54168" lon="10.2542733"><ele>424.0</ele><time>2026-04-23T13:47:38.478Z</time></trkpt><trkpt lat="45.5417417" lon="10.2541133"><ele>421.25</ele><time>2026-04-23T13:47:39.48Z</time></trkpt><trkpt lat="45.541805" lon="10.253955"><ele>418.5</ele><time>2026-04-23T13:47:40.48Z</time></trkpt><trkpt lat="45.5418767" lon="10.253795"><ele>415.75</ele><time>2026-04-23T13:47:41.48Z</time></trkpt><trkpt lat="45.5419483" lon="10.2536317"><ele>413.0</ele><time>2026-04-23T13:47:42.48Z</time></trkpt><trkpt lat="45.54202" lon="10.253465"><ele>412.75</ele><time>2026-04-23T13:47:43.482Z</time></trkpt><trkpt lat="45.5420867" lon="10.2532933"><ele>412.5</ele><time>2026-04-23T13:47:44.48Z</time></trkpt><trkpt lat="45.5421583" lon="10.253125"><ele>412.25</ele><time>2026-04-23T13:47:45.479Z</time></trkpt><trkpt lat="45.5422317" lon="10.2529583"><ele>412.0</ele><time>2026-04-23T13:47:46.479Z</time></trkpt><trkpt lat="45.5422983" lon="10.2527917"><ele>412.0</ele><time>2026-04-23T13:47:47.48Z</time></trkpt><trkpt lat="45.5423617" lon="10.2526317"><ele>412.0</ele><time>2026-04-23T13:47:48.481Z</time></trkpt><trkpt lat="45.5424283" lon="10.2524733"><ele>412.0</ele><time>2026-04-23T13:47:49.481Z</time></trkpt><trkpt lat="45.5424917" lon="10.2523133"><ele>412.0</ele><time>2026-04-23T13:47:50.481Z</time></trkpt><trkpt lat="45.5425267" lon="10.2521433"><ele>409.5</ele><time>2026-04-23T13:47:51.48Z</time></trkpt><trkpt lat="45.5425533" lon="10.2519617"><ele>407.0</ele><time>2026-04-23T13:47:52.48Z</time></trkpt><trkpt lat="45.542575" lon="10.2517717"><ele>404.5</ele><time>2026-04-23T13:47:53.48Z</time></trkpt><trkpt lat="45.5425933" lon="10.2515817"><ele>402.0</ele><time>2026-04-23T13:47:54.481Z</time></trkpt><trkpt lat="45.5425917" lon="10.2513917"><ele>401.75</ele><time>2026-04-23T13:47:55.48Z</time></trkpt><trkpt lat="45.542575" lon="10.2512"><ele>401.5</ele><time>2026-04-23T13:47:56.48Z</time></trkpt><trkpt lat="45.5425467" lon="10.2510133"><ele>401.25</ele><time>2026-04-23T13:47:57.48Z</time></trkpt><trkpt lat="45.542515" lon="10.25082"><ele>401.0</ele><time>2026-04-23T13:47:58.48Z</time></trkpt><trkpt lat="45.54249" lon="10.2506317"><ele>399.0</ele><time>2026-04-23T13:47:59.479Z</time></trkpt><trkpt lat="45.5424733" lon="10.2504517"><ele>397.0</ele><time>2026-04-23T13:48:00.479Z</time></trkpt><trkpt lat="45.5424817" lon="10.2502667"><ele>395.0</ele><time>2026-04-23T13:48:01.48Z</time></trkpt><trkpt lat="45.5425117" lon="10.25008"><ele>393.0</ele><time>2026-04-23T13:48:02.479Z</time></trkpt><trkpt lat="45.5425717" lon="10.2498983"><ele>389.5</ele><time>2026-04-23T13:48:03.48Z</time></trkpt><trkpt lat="45.5426417" lon="10.2497217"><ele>386.0</ele><time>2026-04-23T13:48:04.479Z</time></trkpt><trkpt lat="45.542705" lon="10.2495317"><ele>382.5</ele><time>2026-04-23T13:48:05.479Z</time></trkpt><trkpt lat="45.5427517" lon="10.2493433"><ele>379.0</ele><time>2026-04-23T13:48:06.479Z</time></trkpt><trkpt lat="45.5427933" lon="10.2491433"><ele>379.25</ele><time>2026-04-23T13:48:07.479Z</time></trkpt><trkpt lat="45.5428333" lon="10.2489433"><ele>379.5</ele><time>2026-04-23T13:48:08.48Z</time></trkpt><trkpt lat="45.5428717" lon="10.2487417"><ele>379.75</ele><time>2026-04-23T13:48:09.478Z</time></trkpt><trkpt lat="45.5429017" lon="10.24855"><ele>380.0</ele><time>2026-04-23T13:48:10.479Z</time></trkpt><trkpt lat="45.54291" lon="10.24836"><ele>380.0</ele><time>2026-04-23T13:48:11.48Z</time></trkpt><trkpt lat="45.5428983" lon="10.2481733"><ele>380.0</ele><time>2026-04-23T13:48:12.48Z</time></trkpt><trkpt lat="45.5428633" lon="10.247995"><ele>380.0</ele><time>2026-04-23T13:48:13.479Z</time></trkpt><trkpt lat="45.54281" lon="10.2478183"><ele>380.0</ele><time>2026-04-23T13:48:14.48Z</time></trkpt><trkpt lat="45.5427417" lon="10.247655"><ele>379.5</ele><time>2026-04-23T13:48:15.479Z</time></trkpt><trkpt lat="45.54267" lon="10.2475067"><ele>379.0</ele><time>2026-04-23T13:48:16.479Z</time></trkpt><trkpt lat="45.5425917" lon="10.2473517"><ele>378.5</ele><time>2026-04-23T13:48:17.481Z</time></trkpt><trkpt lat="45.5425133" lon="10.24719"><ele>378.0</ele><time>2026-04-23T13:48:18.48Z</time></trkpt><trkpt lat="45.5424367" lon="10.2470283"><ele>378.0</ele><time>2026-04-23T13:48:19.48Z</time></trkpt><trkpt lat="45.5423667" lon="10.2468633"><ele>378.0</ele><time>2026-04-23T13:48:20.48Z</time></trkpt><trkpt lat="45.5423183" lon="10.2466883"><ele>378.0</ele><time>2026-04-23T13:48:21.481Z</time></trkpt><trkpt lat="45.542295" lon="10.2465033"><ele>378.0</ele><time>2026-04-23T13:48:22.479Z</time></trkpt><trkpt lat="45.5422967" lon="10.246305"><ele>377.25</ele><time>2026-04-23T13:48:23.48Z</time></trkpt><trkpt lat="45.542305" lon="10.2461033"><ele>376.5</ele><time>2026-04-23T13:48:24.479Z</time></trkpt><trkpt lat="45.5423167" lon="10.2458933"><ele>375.75</ele><time>2026-04-23T13:48:25.48Z</time></trkpt><trkpt lat="45.5423183" lon="10.24568"><ele>375.0</ele><time>2026-04-23T13:48:26.48Z</time></trkpt><trkpt lat="45.542305" lon="10.2454667"><ele>375.0</ele><time>2026-04-23T13:48:27.48Z</time></trkpt><trkpt lat="45.54228" lon="10.2452467"><ele>375.0</ele><time>2026-04-23T13:48:28.48Z</time></trkpt><trkpt lat="45.5422517" lon="10.2450267"><ele>375.0</ele><time>2026-04-23T13:48:29.48Z</time></trkpt><trkpt lat="45.54222" lon="10.244805"><ele>376.0</ele><time>2026-04-23T13:48:30.479Z</time></trkpt><trkpt lat="45.542185" lon="10.2445867"><ele>377.0</ele><time>2026-04-23T13:48:31.48Z</time></trkpt><trkpt lat="45.5421483" lon="10.2443783"><ele>378.0</ele><time>2026-04-23T13:48:32.48Z</time></trkpt><trkpt lat="45.5421217" lon="10.2441783"><ele>378.0</ele><time>2026-04-23T13:48:33.479Z</time></trkpt><trkpt lat="45.5420983" lon="10.243975"><ele>378.0</ele><time>2026-04-23T13:48:34.482Z</time></trkpt><trkpt lat="45.5420733" lon="10.2437783"><ele>378.0</ele><time>2026-04-23T13:48:35.48Z</time></trkpt><trkpt lat="45.5420367" lon="10.243595"><ele>378.0</ele><time>2026-04-23T13:48:36.479Z</time></trkpt><trkpt lat="45.5419983" lon="10.24341"><ele>370.5</ele><time>2026-04-23T13:48:37.48Z</time></trkpt><trkpt lat="45.5419483" lon="10.2432317"><ele>363.0</ele><time>2026-04-23T13:48:38.48Z</time></trkpt><trkpt lat="45.54189" lon="10.2430583"><ele>355.5</ele><time>2026-04-23T13:48:39.48Z</time></trkpt><trkpt lat="45.541825" lon="10.24289"><ele>348.0</ele><time>2026-04-23T13:48:40.479Z</time></trkpt><trkpt lat="45.54175" lon="10.2427283"><ele>348.0</ele><time>2026-04-23T13:48:41.479Z</time></trkpt><trkpt lat="45.5416683" lon="10.2425717"><ele>348.0</ele><time>2026-04-23T13:48:42.48Z</time></trkpt><trkpt lat="45.5415817" lon="10.24242"><ele>348.0</ele><time>2026-04-23T13:48:43.479Z</time></trkpt><trkpt lat="45.541495" lon="10.2422733"><ele>348.0</ele><time>2026-04-23T13:48:44.48Z</time></trkpt><trkpt lat="45.5414083" lon="10.2421217"><ele>351.0</ele><time>2026-04-23T13:48:45.479Z</time></trkpt><trkpt lat="45.541325" lon="10.2419717"><ele>354.0</ele><time>2026-04-23T13:48:46.479Z</time></trkpt><trkpt lat="45.5412417" lon="10.2418267"><ele>357.0</ele><time>2026-04-23T13:48:47.48Z</time></trkpt><trkpt lat="45.54116" lon="10.2416833"><ele>360.0</ele><time>2026-04-23T13:48:48.48Z</time></trkpt><trkpt lat="45.5410833" lon="10.2415433"><ele>354.4</ele><time>2026-04-23T13:48:49.48Z</time></trkpt><trkpt lat="45.541015" lon="10.2414133"><ele>348.8</ele><time>2026-04-23T13:48:50.482Z</time></trkpt><trkpt lat="45.5409583" lon="10.2413033"><ele>343.20000000000005</ele><time>2026-04-23T13:48:51.48Z</time></trkpt><trkpt lat="45.5409133" lon="10.2412133"><ele>337.6</ele><time>2026-04-23T13:48:52.48Z</time></trkpt><trkpt lat="45.540855" lon="10.241075"><ele>332.0</ele><time>2026-04-23T13:48:54.479Z</time></trkpt><trkpt lat="45.540795" lon="10.2409883"><ele>332.0</ele><time>2026-04-23T13:48:56.48Z</time></trkpt><trkpt lat="45.5407267" lon="10.2409483"><ele>332.0</ele><time>2026-04-23T13:48:58.479Z</time></trkpt><trkpt lat="45.5406417" lon="10.2408967"><ele>332.0</ele><time>2026-04-23T13:49:01.479Z</time></trkpt><trkpt lat="45.5405833" lon="10.2408217"><ele>332.0</ele><time>2026-04-23T13:49:03.479Z</time></trkpt><trkpt lat="45.5405417" lon="10.2407217"><ele>332.0</ele><time>2026-04-23T13:49:05.479Z</time></trkpt><trkpt lat="45.5405083" lon="10.2406167"><ele>332.0</ele><time>2026-04-23T13:49:07.479Z</time></trkpt><trkpt lat="45.5405233" lon="10.2404833"><ele>329.40000000000003</ele><time>2026-04-23T13:49:10.48Z</time></trkpt><trkpt lat="45.540575" lon="10.240375"><ele>326.8</ele><time>2026-04-23T13:49:12.481Z</time></trkpt><trkpt lat="45.5406267" lon="10.2402467"><ele>324.2</ele><time>2026-04-23T13:49:14.481Z</time></trkpt><trkpt lat="45.540675" lon="10.240125"><ele>321.6</ele><time>2026-04-23T13:49:16.479Z</time></trkpt><trkpt lat="45.5407467" lon="10.2399967"><ele>319.0</ele><time>2026-04-23T13:49:18.482Z</time></trkpt><trkpt lat="45.54081" lon="10.2398633"><ele>314.0</ele><time>2026-04-23T13:49:20.48Z</time></trkpt><trkpt lat="45.5408617" lon="10.2397117"><ele>309.0</ele><time>2026-04-23T13:49:22.48Z</time></trkpt><trkpt lat="45.5409133" lon="10.2395717"><ele>304.0</ele><time>2026-04-23T13:49:24.479Z</time></trkpt><trkpt lat="45.541" lon="10.2394783"><ele>299.0</ele><time>2026-04-23T13:49:26.48Z</time></trkpt><trkpt lat="45.5411017" lon="10.2393867"><ele>299.0</ele><time>2026-04-23T13:49:28.479Z</time></trkpt><trkpt lat="45.5411567" lon="10.2393283"><ele>299.0</ele><time>2026-04-23T13:49:29.481Z</time></trkpt><trkpt lat="45.5412067" lon="10.2392633"><ele>299.0</ele><time>2026-04-23T13:49:30.48Z</time></trkpt><trkpt lat="45.5413" lon="10.239145"><ele>299.0</ele><time>2026-04-23T13:49:32.48Z</time></trkpt><trkpt lat="45.541375" lon="10.23902"><ele>299.0</ele><time>2026-04-23T13:49:34.479Z</time></trkpt><trkpt lat="45.541425" lon="10.23891"><ele>297.5</ele><time>2026-04-23T13:49:36.479Z</time></trkpt><trkpt lat="45.54145" lon="10.23878"><ele>296.0</ele><time>2026-04-23T13:49:38.48Z</time></trkpt><trkpt lat="45.5414667" lon="10.2386583"><ele>294.5</ele><time>2026-04-23T13:49:40.48Z</time></trkpt><trkpt lat="45.5414367" lon="10.23856"><ele>293.0</ele><time>2026-04-23T13:49:43.479Z</time></trkpt><trkpt lat="45.54134" lon="10.23855"><ele>291.5</ele><time>2026-04-23T13:49:45.48Z</time></trkpt><trkpt lat="45.5412583" lon="10.238575"><ele>290.0</ele><time>2026-04-23T13:49:46.479Z</time></trkpt><trkpt lat="45.5411617" lon="10.2386083"><ele>287.2</ele><time>2026-04-23T13:49:47.48Z</time></trkpt><trkpt lat="45.541055" lon="10.2386383"><ele>284.4</ele><time>2026-04-23T13:49:48.479Z</time></trkpt><trkpt lat="45.54095" lon="10.238675"><ele>281.6</ele><time>2026-04-23T13:49:49.48Z</time></trkpt><trkpt lat="45.5408483" lon="10.2387167"><ele>278.8</ele><time>2026-04-23T13:49:50.48Z</time></trkpt><trkpt lat="45.5407317" lon="10.238765"><ele>276.0</ele><time>2026-04-23T13:49:51.479Z</time></trkpt><trkpt lat="45.5406167" lon="10.23882"><ele>276.0</ele><time>2026-04-23T13:49:52.479Z</time></trkpt><trkpt lat="45.540495" lon="10.23888"><ele>276.0</ele><time>2026-04-23T13:49:53.481Z</time></trkpt><trkpt lat="45.540375" lon="10.2389467"><ele>276.0</ele><time>2026-04-23T13:49:54.48Z</time></trkpt><trkpt lat="45.5402533" lon="10.2390167"><ele>276.0</ele><time>2026-04-23T13:49:55.48Z</time></trkpt><trkpt lat="45.5401317" lon="10.2390883"><ele>278.75</ele><time>2026-04-23T13:49:56.479Z</time></trkpt><trkpt lat="45.5400117" lon="10.2391567"><ele>281.5</ele><time>2026-04-23T13:49:57.479Z</time></trkpt><trkpt lat="45.53989" lon="10.2392283"><ele>284.25</ele><time>2026-04-23T13:49:58.479Z</time></trkpt><trkpt lat="45.53977" lon="10.2393033"><ele>287.0</ele><time>2026-04-23T13:49:59.479Z</time></trkpt><trkpt lat="45.5396517" lon="10.239375"><ele>282.0</ele><time>2026-04-23T13:50:00.48Z</time></trkpt><trkpt lat="45.5395267" lon="10.2394483"><ele>277.0</ele><time>2026-04-23T13:50:01.48Z</time></trkpt><trkpt lat="45.5394033" lon="10.239535"><ele>272.0</ele><time>2026-04-23T13:50:02.48Z</time></trkpt><trkpt lat="45.5392933" lon="10.2396417"><ele>267.0</ele><time>2026-04-23T13:50:03.479Z</time></trkpt><trkpt lat="45.5391983" lon="10.2397667"><ele>271.5</ele><time>2026-04-23T13:50:04.479Z</time></trkpt><trkpt lat="45.5391167" lon="10.239905"><ele>276.0</ele><time>2026-04-23T13:50:05.48Z</time></trkpt><trkpt lat="45.5390517" lon="10.2400483"><ele>280.5</ele><time>2026-04-23T13:50:06.481Z</time></trkpt><trkpt lat="45.539" lon="10.24019"><ele>285.0</ele><time>2026-04-23T13:50:07.479Z</time></trkpt><trkpt lat="45.5389583" lon="10.2403267"><ele>285.0</ele><time>2026-04-23T13:50:08.481Z</time></trkpt><trkpt lat="45.53892" lon="10.24044"><ele>285.0</ele><time>2026-04-23T13:50:09.479Z</time></trkpt><trkpt lat="45.5388867" lon="10.2405367"><ele>285.0</ele><time>2026-04-23T13:50:10.48Z</time></trkpt><trkpt lat="45.5387983" lon="10.240625"><ele>285.0</ele><time>2026-04-23T13:50:12.481Z</time></trkpt><trkpt lat="45.5387467" lon="10.2404833"><ele>285.0</ele><time>2026-04-23T13:50:14.48Z</time></trkpt><trkpt lat="45.538765" lon="10.2403767"><ele>285.0</ele><time>2026-04-23T13:50:15.479Z</time></trkpt><trkpt lat="45.5388167" lon="10.2402333"><ele>285.0</ele><time>2026-04-23T13:50:16.479Z</time></trkpt><trkpt lat="45.5388767" lon="10.2400917"><ele>285.0</ele><time>2026-04-23T13:50:17.48Z</time></trkpt><trkpt lat="45.5389433" lon="10.2399517"><ele>285.0</ele><time>2026-04-23T13:50:18.479Z</time></trkpt><trkpt lat="45.53902" lon="10.239815"><ele>280.5</ele><time>2026-04-23T13:50:19.479Z</time></trkpt><trkpt lat="45.5391117" lon="10.23968"><ele>276.0</ele><time>2026-04-23T13:50:20.482Z</time></trkpt><trkpt lat="45.539215" lon="10.2395483"><ele>271.5</ele><time>2026-04-23T13:50:21.48Z</time></trkpt><trkpt lat="45.5393283" lon="10.239415"><ele>267.0</ele><time>2026-04-23T13:50:22.48Z</time></trkpt><trkpt lat="45.53945" lon="10.2392833"><ele>266.0</ele><time>2026-04-23T13:50:23.479Z</time></trkpt><trkpt lat="45.539575" lon="10.2391417"><ele>265.0</ele><time>2026-04-23T13:50:24.48Z</time></trkpt><trkpt lat="45.5396967" lon="10.2389967"><ele>264.0</ele><time>2026-04-23T13:50:25.48Z</time></trkpt><trkpt lat="45.5398217" lon="10.2388517"><ele>264.0</ele><time>2026-04-23T13:50:26.48Z</time></trkpt><trkpt lat="45.5399483" lon="10.2387067"><ele>264.0</ele><time>2026-04-23T13:50:27.48Z</time></trkpt><trkpt lat="45.5400817" lon="10.2385617"><ele>264.0</ele><time>2026-04-23T13:50:28.479Z</time></trkpt><trkpt lat="45.540215" lon="10.2384217"><ele>264.0</ele><time>2026-04-23T13:50:29.479Z</time></trkpt><trkpt lat="45.5403533" lon="10.2383"><ele>264.0</ele><time>2026-04-23T13:50:30.479Z</time></trkpt><trkpt lat="45.5405017" lon="10.2382"><ele>264.0</ele><time>2026-04-23T13:50:31.479Z</time></trkpt><trkpt lat="45.540655" lon="10.2381083"><ele>257.6666666666667</ele><time>2026-04-23T13:50:32.48Z</time></trkpt><trkpt lat="45.5408133" lon="10.2380267"><ele>251.33333333333334</ele><time>2026-04-23T13:50:33.479Z</time></trkpt><trkpt lat="45.5409683" lon="10.2379417"><ele>245.0</ele><time>2026-04-23T13:50:34.479Z</time></trkpt><trkpt lat="45.541115" lon="10.2378533"><ele>250.25</ele><time>2026-04-23T13:50:35.479Z</time></trkpt><trkpt lat="45.54125" lon="10.2377367"><ele>255.5</ele><time>2026-04-23T13:50:36.479Z</time></trkpt><trkpt lat="45.541365" lon="10.2376017"><ele>260.75</ele><time>2026-04-23T13:50:37.479Z</time></trkpt><trkpt lat="45.5414733" lon="10.2374767"><ele>266.0</ele><time>2026-04-23T13:50:38.481Z</time></trkpt><trkpt lat="45.5415833" lon="10.2373767"><ele>266.0</ele><time>2026-04-23T13:50:39.48Z</time></trkpt><trkpt lat="45.541705" lon="10.2373233"><ele>266.0</ele><time>2026-04-23T13:50:40.479Z</time></trkpt><trkpt lat="45.541825" lon="10.2373133"><ele>266.0</ele><time>2026-04-23T13:50:41.479Z</time></trkpt><trkpt lat="45.5419383" lon="10.2373383"><ele>266.0</ele><time>2026-04-23T13:50:42.479Z</time></trkpt><trkpt lat="45.5420333" lon="10.2373817"><ele>265.83333333333337</ele><time>2026-04-23T13:50:43.48Z</time></trkpt><trkpt lat="45.5421117" lon="10.2374067"><ele>265.6666666666667</ele><time>2026-04-23T13:50:44.48Z</time></trkpt><trkpt lat="45.542185" lon="10.2374183"><ele>265.5</ele><time>2026-04-23T13:50:45.48Z</time></trkpt><trkpt lat="45.5422633" lon="10.2373817"><ele>265.3333333333333</ele><time>2026-04-23T13:50:47.48Z</time></trkpt><trkpt lat="45.542275" lon="10.2372433"><ele>265.16666666666663</ele><time>2026-04-23T13:50:50.48Z</time></trkpt><trkpt lat="45.54223" lon="10.2371267"><ele>265.0</ele><time>2026-04-23T13:50:52.479Z</time></trkpt><trkpt lat="45.5422017" lon="10.237015"><ele>265.0</ele><time>2026-04-23T13:50:54.48Z</time></trkpt><trkpt lat="45.5421783" lon="10.2368917"><ele>265.0</ele><time>2026-04-23T13:50:56.48Z</time></trkpt><trkpt lat="45.5421567" lon="10.2367467"><ele>265.0</ele><time>2026-04-23T13:50:58.481Z</time></trkpt><trkpt lat="45.54212" lon="10.23662"><ele>265.0</ele><time>2026-04-23T13:51:00.481Z</time></trkpt><trkpt lat="45.5421083" lon="10.23647"><ele>265.0</ele><time>2026-04-23T13:51:02.48Z</time></trkpt><trkpt lat="45.5421117" lon="10.23637"><ele>260.2</ele><time>2026-04-23T13:51:04.48Z</time></trkpt><trkpt lat="45.5421317" lon="10.236245"><ele>255.4</ele><time>2026-04-23T13:51:06.48Z</time></trkpt><trkpt lat="45.5421533" lon="10.2360967"><ele>250.60000000000002</ele><time>2026-04-23T13:51:08.48Z</time></trkpt><trkpt lat="45.5421933" lon="10.2359333"><ele>245.8</ele><time>2026-04-23T13:51:10.48Z</time></trkpt><trkpt lat="45.54224" lon="10.2357817"><ele>241.0</ele><time>2026-04-23T13:51:12.479Z</time></trkpt><trkpt lat="45.5422967" lon="10.23564"><ele>237.16666666666666</ele><time>2026-04-23T13:51:14.48Z</time></trkpt><trkpt lat="45.5423783" lon="10.235495"><ele>233.33333333333331</ele><time>2026-04-23T13:51:16.48Z</time></trkpt><trkpt lat="45.5424167" lon="10.2354217"><ele>229.5</ele><time>2026-04-23T13:51:17.479Z</time></trkpt><trkpt lat="45.542455" lon="10.23534"><ele>225.66666666666669</ele><time>2026-04-23T13:51:18.48Z</time></trkpt><trkpt lat="45.542495" lon="10.23525"><ele>221.83333333333334</ele><time>2026-04-23T13:51:19.48Z</time></trkpt><trkpt lat="45.542535" lon="10.235155"><ele>218.0</ele><time>2026-04-23T13:51:20.481Z</time></trkpt><trkpt lat="45.5425733" lon="10.2350617"><ele>218.00000000000003</ele><time>2026-04-23T13:51:21.48Z</time></trkpt><trkpt lat="45.5426167" lon="10.234965"><ele>218.0</ele><time>2026-04-23T13:51:22.48Z</time></trkpt><trkpt lat="45.5426617" lon="10.234855"><ele>218.0</ele><time>2026-04-23T13:51:23.48Z</time></trkpt><trkpt lat="45.5426917" lon="10.234745"><ele>218.0</ele><time>2026-04-23T13:51:24.48Z</time></trkpt><trkpt lat="45.5427183" lon="10.2346467"><ele>218.00000000000003</ele><time>2026-04-23T13:51:25.48Z</time></trkpt><trkpt lat="45.54276" lon="10.2345517"><ele>218.0</ele><time>2026-04-23T13:51:26.481Z</time></trkpt><trkpt lat="45.5428017" lon="10.2344033"><ele>215.0</ele><time>2026-04-23T13:51:28.48Z</time></trkpt><trkpt lat="45.54283" lon="10.2342833"><ele>212.0</ele><time>2026-04-23T13:51:30.481Z</time></trkpt><trkpt lat="45.5428283" lon="10.2341383"><ele>209.0</ele><time>2026-04-23T13:51:32.482Z</time></trkpt><trkpt lat="45.5428083" lon="10.2339617"><ele>206.0</ele><time>2026-04-23T13:51:34.48Z</time></trkpt><trkpt lat="45.5427967" lon="10.2338583"><ele>203.0</ele><time>2026-04-23T13:51:35.48Z</time></trkpt><trkpt lat="45.5427883" lon="10.2337617"><ele>201.00000000000003</ele><time>2026-04-23T13:51:36.479Z</time></trkpt><trkpt lat="45.54278" lon="10.233665"><ele>199.0</ele><time>2026-04-23T13:51:37.48Z</time></trkpt><trkpt lat="45.5427767" lon="10.23357"><ele>197.0</ele><time>2026-04-23T13:51:38.481Z</time></trkpt><trkpt lat="45.5427717" lon="10.2334783"><ele>195.0</ele><time>2026-04-23T13:51:39.479Z</time></trkpt><trkpt lat="45.542775" lon="10.233325"><ele>193.0</ele><time>2026-04-23T13:51:41.479Z</time></trkpt><trkpt lat="45.5427833" lon="10.23318"><ele>191.0</ele><time>2026-04-23T13:51:43.482Z</time></trkpt><trkpt lat="45.5427883" lon="10.2330183"><ele>189.8</ele><time>2026-04-23T13:51:45.48Z</time></trkpt><trkpt lat="45.5427933" lon="10.2328417"><ele>188.60000000000002</ele><time>2026-04-23T13:51:47.481Z</time></trkpt><trkpt lat="45.5428017" lon="10.23275"><ele>187.4</ele><time>2026-04-23T13:51:48.481Z</time></trkpt><trkpt lat="45.5428217" lon="10.2325717"><ele>186.2</ele><time>2026-04-23T13:51:50.482Z</time></trkpt><trkpt lat="45.5428333" lon="10.23241"><ele>185.0</ele><time>2026-04-23T13:51:52.48Z</time></trkpt><trkpt lat="45.54281" lon="10.2322733"><ele>184.33333333333331</ele><time>2026-04-23T13:51:54.482Z</time></trkpt><trkpt lat="45.5427383" lon="10.2321683"><ele>183.66666666666666</ele><time>2026-04-23T13:51:56.481Z</time></trkpt><trkpt lat="45.5426467" lon="10.2321083"><ele>183.0</ele><time>2026-04-23T13:51:58.48Z</time></trkpt><trkpt lat="45.542585" lon="10.23208"><ele>182.33333333333334</ele><time>2026-04-23T13:51:59.479Z</time></trkpt><trkpt lat="45.54252" lon="10.2320583"><ele>181.66666666666669</ele><time>2026-04-23T13:52:00.48Z</time></trkpt><trkpt lat="45.5424567" lon="10.23205"><ele>181.0</ele><time>2026-04-23T13:52:01.479Z</time></trkpt><trkpt lat="45.542355" lon="10.23209"><ele>181.0</ele><time>2026-04-23T13:52:03.48Z</time></trkpt><trkpt lat="45.5422767" lon="10.2321467"><ele>181.0</ele><time>2026-04-23T13:52:05.481Z</time></trkpt><trkpt lat="45.5422167" lon="10.2321033"><ele>181.0</ele><time>2026-04-23T13:52:08.481Z</time></trkpt><trkpt lat="45.5422233" lon="10.232005"><ele>181.0</ele><time>2026-04-23T13:52:10.48Z</time></trkpt><trkpt lat="45.5422533" lon="10.23189"><ele>181.0</ele><time>2026-04-23T13:52:12.48Z</time></trkpt><trkpt lat="45.54232" lon="10.2317717"><ele>181.0</ele><time>2026-04-23T13:52:14.481Z</time></trkpt><trkpt lat="45.5424217" lon="10.231685"><ele>181.0</ele><time>2026-04-23T13:52:16.48Z</time></trkpt><trkpt lat="45.542485" lon="10.2316483"><ele>181.0</ele><time>2026-04-23T13:52:17.48Z</time></trkpt><trkpt lat="45.542545" lon="10.231615"><ele>181.0</ele><time>2026-04-23T13:52:18.48Z</time></trkpt><trkpt lat="45.5426067" lon="10.2315817"><ele>181.0</ele><time>2026-04-23T13:52:19.482Z</time></trkpt><trkpt lat="45.5426717" lon="10.231545"><ele>181.0</ele><time>2026-04-23T13:52:20.481Z</time></trkpt><trkpt lat="45.5427367" lon="10.231505"><ele>181.0</ele><time>2026-04-23T13:52:21.481Z</time></trkpt><trkpt lat="45.542805" lon="10.2314717"><ele>181.0</ele><time>2026-04-23T13:52:22.48Z</time></trkpt><trkpt lat="45.542875" lon="10.23144"><ele>178.66666666666669</ele><time>2026-04-23T13:52:23.481Z</time></trkpt><trkpt lat="45.5429433" lon="10.2314067"><ele>176.33333333333334</ele><time>2026-04-23T13:52:24.481Z</time></trkpt><trkpt lat="45.5430133" lon="10.2313717"><ele>174.0</ele><time>2026-04-23T13:52:25.482Z</time></trkpt><trkpt lat="45.543085" lon="10.2313383"><ele>171.66666666666666</ele><time>2026-04-23T13:52:26.482Z</time></trkpt><trkpt lat="45.54315" lon="10.2313033"><ele>169.33333333333331</ele><time>2026-04-23T13:52:27.481Z</time></trkpt><trkpt lat="45.5432367" lon="10.2312433"><ele>167.0</ele><time>2026-04-23T13:52:29.481Z</time></trkpt><trkpt lat="45.5432933" lon="10.231185"><ele>167.0</ele><time>2026-04-23T13:52:32.48Z</time></trkpt><trkpt lat="45.5433617" lon="10.231095"><ele>167.0</ele><time>2026-04-23T13:52:34.48Z</time></trkpt><trkpt lat="45.5434467" lon="10.2309967"><ele>167.0</ele><time>2026-04-23T13:52:36.481Z</time></trkpt><trkpt lat="45.54353" lon="10.2309067"><ele>167.0</ele><time>2026-04-23T13:52:38.48Z</time></trkpt><trkpt lat="45.543595" lon="10.2308167"><ele>167.0</ele><time>2026-04-23T13:52:40.48Z</time></trkpt><trkpt lat="45.5436333" lon="10.2307417"><ele>167.16666666666666</ele><time>2026-04-23T13:52:42.481Z</time></trkpt><trkpt lat="45.5436733" lon="10.23064"><ele>167.33333333333331</ele><time>2026-04-23T13:53:11.48Z</time></trkpt><trkpt lat="45.5437133" lon="10.2305183"><ele>167.5</ele><time>2026-04-23T13:53:13.48Z</time></trkpt><trkpt lat="45.5437683" lon="10.2303617"><ele>167.66666666666666</ele><time>2026-04-23T13:53:15.481Z</time></trkpt><trkpt lat="45.5437933" lon="10.2302667"><ele>167.83333333333334</ele><time>2026-04-23T13:53:16.48Z</time></trkpt><trkpt lat="45.5438217" lon="10.2301633"><ele>168.0</ele><time>2026-04-23T13:53:17.481Z</time></trkpt><trkpt lat="45.5438467" lon="10.2300533"><ele>167.2</ele><time>2026-04-23T13:53:18.481Z</time></trkpt><trkpt lat="45.5438767" lon="10.22994"><ele>166.4</ele><time>2026-04-23T13:53:19.481Z</time></trkpt><trkpt lat="45.5439067" lon="10.2298217"><ele>165.6</ele><time>2026-04-23T13:53:20.482Z</time></trkpt><trkpt lat="45.5439383" lon="10.2296883"><ele>164.79999999999998</ele><time>2026-04-23T13:53:21.481Z</time></trkpt><trkpt lat="45.54397" lon="10.229555"><ele>164.0</ele><time>2026-04-23T13:53:22.481Z</time></trkpt><trkpt lat="45.5440067" lon="10.2294167"><ele>163.79999999999998</ele><time>2026-04-23T13:53:23.481Z</time></trkpt><trkpt lat="45.54404" lon="10.2292833"><ele>163.6</ele><time>2026-04-23T13:53:24.48Z</time></trkpt><trkpt lat="45.5440733" lon="10.2291533"><ele>163.4</ele><time>2026-04-23T13:53:25.48Z</time></trkpt><trkpt lat="45.544105" lon="10.2290317"><ele>163.2</ele><time>2026-04-23T13:53:26.481Z</time></trkpt><trkpt lat="45.544135" lon="10.2289167"><ele>163.0</ele><time>2026-04-23T13:53:27.481Z</time></trkpt><trkpt lat="45.5441633" lon="10.228805"><ele>163.0</ele><time>2026-04-23T13:53:28.481Z</time></trkpt><trkpt lat="45.5441933" lon="10.2286933"><ele>163.0</ele><time>2026-04-23T13:53:29.481Z</time></trkpt><trkpt lat="45.5442217" lon="10.2285917"><ele>163.0</ele><time>2026-04-23T13:53:30.48Z</time></trkpt><trkpt lat="45.5442467" lon="10.2285033"><ele>163.0</ele><time>2026-04-23T13:53:31.48Z</time></trkpt><trkpt lat="45.5442867" lon="10.228395"><ele>163.0</ele><time>2026-04-23T13:53:33.48Z</time></trkpt><trkpt lat="45.54435" lon="10.22838"><ele>163.0</ele><time>2026-04-23T13:53:35.481Z</time></trkpt><trkpt lat="45.5444183" lon="10.228425"><ele>163.0</ele><time>2026-04-23T13:53:37.482Z</time></trkpt><trkpt lat="45.5444917" lon="10.228465"><ele>163.0</ele><time>2026-04-23T13:53:40.48Z</time></trkpt><trkpt lat="45.5445617" lon="10.2284367"><ele>162.0</ele><time>2026-04-23T13:53:44.48Z</time></trkpt><trkpt lat="45.5445933" lon="10.22834"><ele>162.0</ele><time>2026-04-23T13:53:48.48Z</time></trkpt><trkpt lat="45.5446133" lon="10.2282533"><ele>162.0</ele><time>2026-04-23T13:53:52.48Z</time></trkpt></trkseg></trk></gpx>